Darstellungsparameter: Aktuell verwendete Einstellungen:
Skalierung der Graphiken ... ?
xyx+y,   Skalierungsfaktor:      Skalierung: Modus: x, Faktor: 1
Darstellungszeitraum ... ?
Vom - - bis: - -   Zeitraum: 02.03.2008 - 29.03.2008
Min/Max/Avg-Anzeige ... ?
Zeige MMA aktuell
Zeige MMA Monat
Zeige MMA alles
Zeige --A aktuell
Zeige --A Monat
Zeige --A alles
Keine MMA-Anzeige
MMA:
Average (ber die Originaldaten)
MMA-Basis: 23.02.2003 - 30.09.2020
Quicknavigation für Darstellung... ?
Tage:      1T, 2T, 3T, 5T -1T -2T -3T -5T +1T +2T +3T +5T
Wochen: 1W, 2W, 3W -1W -2W -3W +1W +2W +3W
Monate: 1M, 3M, 6M -1M -3M -6M +1M +3M +6M
Jahre:    1J, 3J, 5J, 10J -1J -3J -5J -10J +1J +3J +5J +10J
Nutze für die Darstellung ... ?
Originaldaten oder Mittelwerte auf ...
Stundenbasis Tagesbasis Wochenbasis
Monatsbasis Jahresbasis      Datenbasis: Original-Daten
Darstellen als:
Statistik (Auto) Statistik J:M      Darstellung:
Zur Graphik,    zurück zur Übersicht aller Sensoren.
 
Tabellarische Datenbersicht: ?
 
Sensor: Nr:Datum:Temp:Abs-Feuchte:Windchill:Wind:
Aussen-T/F 1 02-03-2008 00:02:02 8.7 C 4.06 g/m*3 8.7 C 0 km/h
2 02-03-2008 00:14:02 8.7 C 3.98 g/m*3 8.7 C 0 km/h
3 02-03-2008 00:27:04 8.7 C 4.06 g/m*3 8.7 C 0 km/h
4 02-03-2008 00:39:04 8.6 C 4.04 g/m*3 8.6 C 0 km/h
5 02-03-2008 00:51:04 8.5 C 4.1 g/m*3 8.5 C 0 km/h
6 02-03-2008 01:03:04 8.5 C 4.1 g/m*3 8.5 C 0 km/h
7 02-03-2008 01:15:04 8.5 C 4.18 g/m*3 8.5 C 0 km/h
8 02-03-2008 01:27:04 8.6 C 4.12 g/m*3 8.6 C 0 km/h
9 02-03-2008 01:39:05 8.6 C 4.21 g/m*3 8.6 C 0 km/h
10 02-03-2008 01:51:05 8.6 C 4.21 g/m*3 8.6 C 0 km/h
11 02-03-2008 02:03:05 8.7 C 4.24 g/m*3 8.7 C 0 km/h
12 02-03-2008 02:15:05 8.6 C 4.38 g/m*3 8.6 C 0 km/h
13 02-03-2008 02:27:05 8.6 C 4.47 g/m*3 8.6 C 0 km/h
14 02-03-2008 02:39:05 8.7 C 4.41 g/m*3 8.7 C 0 km/h
15 02-03-2008 02:51:05 8.7 C 4.41 g/m*3 8.7 C 0 km/h
16 02-03-2008 03:03:05 8.7 C 4.5 g/m*3 8.7 C 0 km/h
17 02-03-2008 03:15:05 8.7 C 4.58 g/m*3 8.7 C 0 km/h
18 02-03-2008 03:27:05 8.6 C 4.64 g/m*3 8.6 C 0 km/h
19 02-03-2008 03:39:05 8.6 C 4.73 g/m*3 8.6 C 0 km/h
20 02-03-2008 03:51:05 8.5 C 4.87 g/m*3 8.5 C 0 km/h
21 02-03-2008 04:03:05 8.4 C 5.09 g/m*3 8.4 C 0 km/h
22 02-03-2008 04:15:05 8.3 C 5.23 g/m*3 8.3 C 0 km/h
23 02-03-2008 04:27:05 8.3 C 5.31 g/m*3 8.3 C 0 km/h
24 02-03-2008 04:39:05 8.4 C 5.51 g/m*3 8.4 C 0 km/h
25 02-03-2008 04:51:05 8.5 C 5.55 g/m*3 8.5 C 0 km/h
Sensor: Nr:Datum:Temp:Abs-Feuchte:Windchill:Wind:
Aussen-T/F 26 02-03-2008 05:03:05 8.5 C 5.64 g/m*3 8.5 C 0 km/h
27 02-03-2008 05:15:05 8.4 C 5.94 g/m*3 8.4 C 0 km/h
28 02-03-2008 05:27:06 8.4 C 6.19 g/m*3 8.4 C 0 km/h
29 02-03-2008 05:39:06 8.3 C 6.41 g/m*3 8.3 C 0 km/h
30 02-03-2008 05:51:06 8.2 C 6.53 g/m*3 8.2 C 0 km/h
31 02-03-2008 06:03:06 8.4 C 6.62 g/m*3 8.4 C 0 km/h
32 02-03-2008 06:15:06 8.5 C 6.74 g/m*3 8.5 C 0 km/h
33 02-03-2008 06:27:06 8.9 C 6.75 g/m*3 8.9 C 0 km/h
34 02-03-2008 06:39:06 9 C 6.61 g/m*3 9 C 0 km/h
35 02-03-2008 06:51:06 9.2 C 6.61 g/m*3 9.2 C 0 km/h
36 02-03-2008 07:03:06 9.2 C 6.61 g/m*3 9.2 C 0 km/h
37 02-03-2008 07:15:06 9 C 6.79 g/m*3 9 C 0 km/h
38 02-03-2008 07:27:06 9 C 7.05 g/m*3 9 C 0 km/h
39 02-03-2008 07:39:06 8.8 C 7.22 g/m*3 8.8 C 0 km/h
40 02-03-2008 07:51:06 8.8 C 7.4 g/m*3 8.8 C 0 km/h
41 02-03-2008 08:03:06 8.8 C 7.49 g/m*3 8.8 C 0 km/h
42 02-03-2008 08:15:06 8.8 C 7.57 g/m*3 8.8 C 0 km/h
43 02-03-2008 08:27:06 9 C 7.49 g/m*3 9 C 0 km/h
44 02-03-2008 08:39:06 9.2 C 7.5 g/m*3 9.2 C 0 km/h
45 02-03-2008 08:51:02 9.9 C 7.56 g/m*3 9.9 C 0 km/h
46 02-03-2008 09:03:02 10.4 C 7.04 g/m*3 10.4 C 0 km/h
47 02-03-2008 09:15:02 10.9 C 6.76 g/m*3 10.9 C 0 km/h
48 02-03-2008 09:27:02 11.3 C 6.43 g/m*3 11.3 C 0 km/h
49 02-03-2008 09:39:02 11.4 C 6.57 g/m*3 11.4 C 0 km/h
50 02-03-2008 09:51:02 11.5 C 6.51 g/m*3 11.5 C 0 km/h
Sensor: Nr:Datum:Temp:Abs-Feuchte:Windchill:Wind:
Aussen-T/F 51 02-03-2008 10:03:02 11.2 C 6.69 g/m*3 11.2 C 0 km/h
52 02-03-2008 10:15:02 11.6 C 6.65 g/m*3 11.6 C 0 km/h
53 02-03-2008 10:27:02 12 C 6.29 g/m*3 12 C 0 km/h
54 02-03-2008 10:39:02 12.3 C 5.86 g/m*3 12.3 C 0 km/h
55 02-03-2008 10:51:02 12.4 C 5.79 g/m*3 12.4 C 0 km/h
56 02-03-2008 11:03:01 12.7 C 5.68 g/m*3 12.7 C 0 km/h
57 02-03-2008 11:15:01 13 C 5.44 g/m*3 13 C 0 km/h
58 02-03-2008 11:27:01 13.2 C 5.28 g/m*3 13.2 C 0 km/h
59 02-03-2008 11:39:02 13.2 C 4.94 g/m*3 13.2 C 0 km/h
60 02-03-2008 11:51:03 13.6 C 4.71 g/m*3 13.6 C 0 km/h
61 02-03-2008 12:03:03 13.5 C 4.8 g/m*3 13.5 C 0 km/h
62 02-03-2008 12:15:02 13.6 C 4.94 g/m*3 13.6 C 0 km/h
63 02-03-2008 12:27:02 13.8 C 4.77 g/m*3 13.8 C 0 km/h
64 02-03-2008 12:39:03 13.8 C 4.77 g/m*3 13.8 C 0 km/h
65 02-03-2008 12:51:02 13.4 C 5.11 g/m*3 13.4 C 0 km/h
66 02-03-2008 13:03:02 13.1 C 5.25 g/m*3 13.1 C 0 km/h
67 02-03-2008 13:15:02 13.6 C 5.3 g/m*3 13.6 C 0 km/h
68 02-03-2008 13:27:02 14.3 C 4.91 g/m*3 14.3 C 0 km/h
69 02-03-2008 13:39:02 14.1 C 4.98 g/m*3 14.1 C 0 km/h
70 02-03-2008 13:51:02 14 C 5.07 g/m*3 14 C 0 km/h
71 02-03-2008 14:03:01 13.9 C 5.04 g/m*3 13.9 C 0 km/h
72 02-03-2008 14:15:02 14 C 4.95 g/m*3 14 C 0 km/h
73 02-03-2008 14:27:02 14.1 C 4.85 g/m*3 14.1 C 0 km/h
74 02-03-2008 14:39:02 14.1 C 4.61 g/m*3 14.1 C 0 km/h
75 02-03-2008 14:51:02 14 C 4.7 g/m*3 14 C 0 km/h
Sensor: Nr:Datum:Temp:Abs-Feuchte:Windchill:Wind:
Aussen-T/F 76 02-03-2008 15:03:02 13.7 C 4.86 g/m*3 13.7 C 0 km/h
77 02-03-2008 15:15:01 13.7 C 4.86 g/m*3 13.7 C 0 km/h
78 02-03-2008 15:27:01 13.9 C 4.8 g/m*3 13.9 C 0 km/h
79 02-03-2008 15:39:01 14.4 C 4.57 g/m*3 14.4 C 0 km/h
80 02-03-2008 15:51:01 14.3 C 4.55 g/m*3 14.3 C 0 km/h
81 02-03-2008 16:03:02 14.2 C 4.52 g/m*3 14.2 C 0 km/h
82 02-03-2008 16:15:02 13.9 C 4.8 g/m*3 13.9 C 0 km/h
83 02-03-2008 16:27:02 13.8 C 4.77 g/m*3 13.8 C 0 km/h
84 02-03-2008 16:39:01 13.5 C 4.68 g/m*3 13.5 C 0 km/h
85 02-03-2008 16:51:02 13.5 C 4.68 g/m*3 13.5 C 0 km/h
86 02-03-2008 17:03:01 13.4 C 4.65 g/m*3 13.4 C 0 km/h
87 02-03-2008 17:15:02 13.4 C 4.65 g/m*3 13.4 C 0 km/h
88 02-03-2008 17:27:02 13.4 C 4.65 g/m*3 13.4 C 0 km/h
89 02-03-2008 17:39:02 13.2 C 4.94 g/m*3 13.2 C 0 km/h
90 02-03-2008 17:51:02 13.1 C 4.91 g/m*3 13.1 C 0 km/h
91 02-03-2008 18:03:02 13.1 C 4.68 g/m*3 13.1 C 0 km/h
92 02-03-2008 18:15:02 13 C 4.65 g/m*3 13 C 0 km/h
93 02-03-2008 18:27:02 12.8 C 4.59 g/m*3 12.8 C 0 km/h
94 02-03-2008 18:39:03 12.9 C 4.51 g/m*3 12.9 C 0 km/h
95 02-03-2008 18:51:02 12.8 C 4.48 g/m*3 12.8 C 0 km/h
96 02-03-2008 19:03:02 12.8 C 4.59 g/m*3 12.8 C 0 km/h
97 02-03-2008 19:15:02 12.7 C 4.68 g/m*3 12.7 C 0 km/h
98 02-03-2008 19:27:02 12.5 C 4.84 g/m*3 12.5 C 0 km/h
99 02-03-2008 19:39:01 12.5 C 4.62 g/m*3 12.5 C 0 km/h
100 02-03-2008 19:51:02 12.4 C 4.59 g/m*3 12.4 C 0 km/h
Sensor: Nr:Datum:Temp:Abs-Feuchte:Windchill:Wind:
Aussen-T/F 101 02-03-2008 20:03:01 12.3 C 4.34 g/m*3 12.3 C 0 km/h
102 02-03-2008 20:15:02 12.1 C 4.29 g/m*3 12.1 C 0 km/h
103 02-03-2008 20:27:02 12.1 C 4.18 g/m*3 12.1 C 0 km/h
104 02-03-2008 20:39:02 12 C 4.26 g/m*3 12 C 0 km/h
105 02-03-2008 20:51:02 12 C 4.26 g/m*3 12 C 0 km/h
106 02-03-2008 21:03:01 11.9 C 4.34 g/m*3 11.9 C 0 km/h
107 02-03-2008 21:15:02 11.8 C 4.32 g/m*3 11.8 C 0 km/h
108 02-03-2008 21:27:02 11.9 C 4.34 g/m*3 11.9 C 0 km/h
109 02-03-2008 21:39:01 11.7 C 4.39 g/m*3 11.7 C 0 km/h
110 02-03-2008 21:51:02 11.8 C 4.42 g/m*3 11.8 C 0 km/h
111 02-03-2008 22:03:02 11.7 C 4.5 g/m*3 11.7 C 0 km/h
112 02-03-2008 22:16:02 11.6 C 4.68 g/m*3 11.6 C 0 km/h
113 02-03-2008 22:28:02 11.4 C 4.72 g/m*3 11.4 C 0 km/h
114 02-03-2008 22:40:02 11.4 C 4.82 g/m*3 11.4 C 0 km/h
115 02-03-2008 22:52:02 11.2 C 5.07 g/m*3 11.2 C 0 km/h
116 02-03-2008 23:04:02 10.5 C 5.72 g/m*3 10.5 C 0 km/h
117 02-03-2008 23:16:02 10.5 C 6.01 g/m*3 10.5 C 0 km/h
118 02-03-2008 23:28:02 10.4 C 6.07 g/m*3 10.4 C 0 km/h
119 02-03-2008 23:40:02 10.4 C 6.07 g/m*3 10.4 C 0 km/h
120 02-03-2008 23:52:02 10.5 C 6.11 g/m*3 10.5 C 0 km/h
121 03-03-2008 00:04:02 10.4 C 6.26 g/m*3 10.4 C 0 km/h
122 03-03-2008 00:16:02 9.8 C 6.96 g/m*3 9.8 C 0 km/h
123 03-03-2008 00:28:02 9.5 C 7.19 g/m*3 9.5 C 0 km/h
124 03-03-2008 00:40:02 9.4 C 7.33 g/m*3 9.4 C 0 km/h
125 03-03-2008 00:52:02 9.3 C 7.19 g/m*3 9.3 C 0 km/h
Sensor: Nr:Datum:Temp:Abs-Feuchte:Windchill:Wind:
Aussen-T/F 126 03-03-2008 01:04:02 9.4 C 6.33 g/m*3 9.4 C 0 km/h
127 03-03-2008 01:16:02 9.6 C 5.31 g/m*3 9.6 C 0 km/h
128 03-03-2008 01:28:02 9.6 C 4.86 g/m*3 9.6 C 0 km/h
129 03-03-2008 01:40:03 9.4 C 4.79 g/m*3 9.4 C 0 km/h
130 03-03-2008 01:52:03 9.1 C 4.88 g/m*3 9.1 C 0 km/h
131 03-03-2008 02:04:03 9 C 4.85 g/m*3 9 C 0 km/h
132 03-03-2008 02:16:03 9 C 5.03 g/m*3 9 C 0 km/h
133 03-03-2008 02:28:03 9 C 5.11 g/m*3 9 C 0 km/h
134 03-03-2008 02:40:03 9 C 5.03 g/m*3 9 C 0 km/h
135 03-03-2008 02:52:03 9 C 4.94 g/m*3 9 C 0 km/h
136 03-03-2008 03:04:03 9 C 4.85 g/m*3 9 C 0 km/h
137 03-03-2008 03:16:03 9.1 C 4.88 g/m*3 9.1 C 0 km/h
138 03-03-2008 03:28:03 9 C 5.03 g/m*3 9 C 0 km/h
139 03-03-2008 03:40:03 8.9 C 5.17 g/m*3 8.9 C 0 km/h
140 03-03-2008 03:52:03 8.9 C 4.99 g/m*3 8.9 C 0 km/h
141 03-03-2008 04:04:03 9 C 4.94 g/m*3 9 C 0 km/h
142 03-03-2008 04:16:03 9 C 4.94 g/m*3 9 C 0 km/h
143 03-03-2008 04:28:03 9 C 4.94 g/m*3 9 C 0 km/h
144 03-03-2008 04:40:03 8.9 C 4.99 g/m*3 8.9 C 0 km/h
145 03-03-2008 04:52:03 8.9 C 5.08 g/m*3 8.9 C 0 km/h
146 03-03-2008 05:04:03 8.9 C 5.08 g/m*3 8.9 C 0 km/h
147 03-03-2008 05:16:03 8.9 C 5.17 g/m*3 8.9 C 0 km/h
148 03-03-2008 05:28:03 8.9 C 5.26 g/m*3 8.9 C 0 km/h
149 03-03-2008 05:40:04 8.7 C 5.53 g/m*3 8.7 C 0 km/h
150 03-03-2008 05:52:04 8.4 C 5.85 g/m*3 8.4 C 0 km/h
Sensor: Nr:Datum:Temp:Abs-Feuchte:Windchill:Wind:
Aussen-T/F 151 03-03-2008 06:04:04 8.3 C 5.9 g/m*3 8.3 C 0 km/h
152 03-03-2008 06:16:04 8.4 C 6.02 g/m*3 8.4 C 0 km/h
153 03-03-2008 06:28:04 8.4 C 5.94 g/m*3 8.4 C 0 km/h
154 03-03-2008 06:40:04 8.5 C 5.89 g/m*3 8.5 C 0 km/h
155 03-03-2008 06:52:04 8.5 C 5.89 g/m*3 8.5 C 0 km/h
156 03-03-2008 07:04:02 8.2 C 5.86 g/m*3 8.2 C 0 km/h
157 03-03-2008 07:16:02 8 C 5.87 g/m*3 8 C 0 km/h
158 03-03-2008 07:28:02 7.9 C 6 g/m*3 7.9 C 0 km/h
159 03-03-2008 07:40:02 7.8 C 6.12 g/m*3 7.8 C 0 km/h
160 03-03-2008 07:52:02 7.6 C 6.12 g/m*3 7.6 C 0 km/h
161 03-03-2008 08:04:02 7.6 C 6.2 g/m*3 7.6 C 0 km/h
162 03-03-2008 08:16:02 7.3 C 6 g/m*3 7.3 C 0 km/h
163 03-03-2008 08:28:02 7.3 C 6.08 g/m*3 7.3 C 0 km/h
164 03-03-2008 08:40:02 7.3 C 6.16 g/m*3 7.3 C 0 km/h
165 03-03-2008 08:52:02 7.3 C 6.16 g/m*3 7.3 C 0 km/h
166 03-03-2008 09:04:03 7.4 C 6.28 g/m*3 7.4 C 0 km/h
167 03-03-2008 09:16:02 7.2 C 6.04 g/m*3 7.2 C 0 km/h
168 03-03-2008 09:28:02 7.3 C 6 g/m*3 7.3 C 0 km/h
169 03-03-2008 09:40:02 7.6 C 5.8 g/m*3 7.6 C 0 km/h
170 03-03-2008 09:52:01 7.7 C 5.51 g/m*3 7.7 C 0 km/h
171 03-03-2008 10:04:02 7.5 C 5.36 g/m*3 7.5 C 0 km/h
172 03-03-2008 10:16:01 7 C 5.27 g/m*3 7 C 0 km/h
173 03-03-2008 10:28:01 6.6 C 5.44 g/m*3 6.6 C 0 km/h
174 03-03-2008 10:40:01 6.7 C 5.62 g/m*3 6.7 C 0 km/h
175 03-03-2008 10:52:01 6.7 C 5.62 g/m*3 6.7 C 0 km/h
Sensor: Nr:Datum:Temp:Abs-Feuchte:Windchill:Wind:
Aussen-T/F 176 03-03-2008 11:04:02 7.2 C 5.65 g/m*3 7.2 C 0 km/h
177 03-03-2008 11:16:02 7.4 C 5.25 g/m*3 7.4 C 0 km/h
178 03-03-2008 11:28:02 7.8 C 5.22 g/m*3 7.8 C 0 km/h
179 03-03-2008 11:40:01 7.8 C 4.98 g/m*3 7.8 C 0 km/h
180 03-03-2008 11:52:02 7.9 C 4.93 g/m*3 7.9 C 0 km/h
181 03-03-2008 12:04:01 8.5 C 4.87 g/m*3 8.5 C 0 km/h
182 03-03-2008 12:16:02 8.5 C 4.87 g/m*3 8.5 C 0 km/h
183 03-03-2008 12:28:02 8.4 C 4.92 g/m*3 8.4 C 0 km/h
184 03-03-2008 12:40:02 8.6 C 4.9 g/m*3 8.6 C 0 km/h
185 03-03-2008 12:52:02 8.6 C 4.55 g/m*3 8.6 C 0 km/h
186 03-03-2008 13:04:02 8.9 C 4.47 g/m*3 8.9 C 0 km/h
187 03-03-2008 13:16:02 8.7 C 4.41 g/m*3 8.7 C 0 km/h
188 03-03-2008 13:28:02 8.8 C 4.35 g/m*3 8.8 C 0 km/h
189 03-03-2008 13:40:02 8.9 C 4.29 g/m*3 8.9 C 0 km/h
190 03-03-2008 13:52:02 9 C 4.23 g/m*3 9 C 0 km/h
191 03-03-2008 14:04:01 9.3 C 3.5 g/m*3 9.3 C 0 km/h
192 03-03-2008 14:16:01 9.4 C 3.44 g/m*3 9.4 C 0 km/h
193 03-03-2008 14:28:01 9.5 C 3.19 g/m*3 9.5 C 0 km/h
194 03-03-2008 14:40:02 9.2 C 3.13 g/m*3 9.2 C 0 km/h
195 03-03-2008 14:52:02 9.2 C 2.86 g/m*3 9.2 C 0 km/h
196 03-03-2008 15:04:02 9.3 C 2.7 g/m*3 9.3 C 0 km/h
197 03-03-2008 15:16:02 9.5 C 2.28 g/m*3 9.5 C 0 km/h
198 03-03-2008 15:28:02 9.8 C 2.32 g/m*3 9.8 C 0 km/h
199 03-03-2008 15:40:03 9.7 C 1.94 g/m*3 9.7 C 0 km/h
200 03-03-2008 15:52:02 9.3 C 1.8 g/m*3 9.3 C 0 km/h
Sensor: Nr:Datum:Temp:Abs-Feuchte:Windchill:Wind:
Aussen-T/F 201 03-03-2008 16:04:02 9 C 2.29 g/m*3 9 C 0 km/h
202 03-03-2008 16:16:02 8.5 C 2.31 g/m*3 8.5 C 0 km/h
203 03-03-2008 16:28:02 9.1 C 1.77 g/m*3 9.1 C 0 km/h
204 03-03-2008 16:40:02 8.7 C 1.73 g/m*3 8.7 C 0 km/h
205 03-03-2008 16:52:02 9.5 C 1.82 g/m*3 9.5 C 0 km/h
206 03-03-2008 17:04:02 9 C 1.76 g/m*3 9 C 0 km/h
207 03-03-2008 17:16:02 8.8 C 1.74 g/m*3 8.8 C 0 km/h
208 03-03-2008 17:28:02 8.4 C 1.7 g/m*3 8.4 C 0 km/h
209 03-03-2008 17:40:02 8.5 C 1.71 g/m*3 8.5 C 0 km/h
210 03-03-2008 17:52:02 8.1 C 1.66 g/m*3 8.1 C 0 km/h
211 03-03-2008 18:04:02 7.6 C 1.61 g/m*3 7.6 C 0 km/h
212 03-03-2008 18:16:03 7.3 C 1.58 g/m*3 7.3 C 0 km/h
213 03-03-2008 18:28:03 7.1 C 1.56 g/m*3 7.1 C 0 km/h
214 03-03-2008 18:40:02 6.9 C 1.54 g/m*3 6.9 C 0 km/h
215 03-03-2008 18:52:02 6.5 C 1.5 g/m*3 6.5 C 0 km/h
216 03-03-2008 19:04:02 6.4 C 1.49 g/m*3 6.4 C 0 km/h
217 03-03-2008 19:16:02 6.3 C 1.48 g/m*3 6.3 C 0 km/h
218 03-03-2008 19:28:02 6.1 C 1.83 g/m*3 6.1 C 0 km/h
219 03-03-2008 19:40:02 5.9 C 1.87 g/m*3 5.9 C 0 km/h
220 03-03-2008 19:52:03 5.5 C 2.04 g/m*3 5.5 C 0 km/h
221 03-03-2008 20:04:02 5.1 C 2.19 g/m*3 5.1 C 0 km/h
222 03-03-2008 20:16:02 4.7 C 2.33 g/m*3 4.7 C 0 km/h
223 03-03-2008 20:28:02 4.5 C 2.37 g/m*3 4.5 C 0 km/h
224 03-03-2008 20:40:03 4.5 C 2.43 g/m*3 4.5 C 0 km/h
225 03-03-2008 20:52:02 4.2 C 2.38 g/m*3 4.2 C 0 km/h
Sensor: Nr:Datum:Temp:Abs-Feuchte:Windchill:Wind:
Aussen-T/F 226 03-03-2008 21:04:02 4.1 C 2.5 g/m*3 4.1 C 0 km/h
227 03-03-2008 21:16:02 3.8 C 2.57 g/m*3 3.8 C 0 km/h
228 03-03-2008 21:28:02 3.7 C 2.62 g/m*3 3.7 C 0 km/h
229 03-03-2008 21:40:02 3.7 C 2.55 g/m*3 3.7 C 0 km/h
230 03-03-2008 21:52:02 3.6 C 2.6 g/m*3 3.6 C 0 km/h
231 03-03-2008 22:04:02 3.4 C 2.63 g/m*3 3.4 C 0 km/h
232 03-03-2008 22:16:02 3.3 C 2.73 g/m*3 3.3 C 0 km/h
233 03-03-2008 22:28:02 3.3 C 2.73 g/m*3 3.3 C 0 km/h
234 03-03-2008 22:41:02 3.2 C 2.71 g/m*3 3.2 C 0 km/h
235 03-03-2008 22:53:02 3.1 C 2.75 g/m*3 3.1 C 0 km/h
236 03-03-2008 23:05:02 3.1 C 2.75 g/m*3 3.1 C 0 km/h
237 03-03-2008 23:17:02 2.9 C 2.78 g/m*3 2.9 C 0 km/h
238 03-03-2008 23:29:02 2.6 C 2.84 g/m*3 2.6 C 0 km/h
239 03-03-2008 23:41:02 2.4 C 2.85 g/m*3 2.4 C 0 km/h
240 03-03-2008 23:53:02 2.2 C 2.93 g/m*3 2.2 C 0 km/h
241 04-03-2008 00:05:02 2.1 C 2.97 g/m*3 2.1 C 0 km/h
242 04-03-2008 00:17:02 2 C 2.95 g/m*3 2 C 0 km/h
243 04-03-2008 00:29:02 2 C 3 g/m*3 2 C 0 km/h
244 04-03-2008 00:41:02 1.9 C 3.04 g/m*3 1.9 C 0 km/h
245 04-03-2008 00:53:02 1.8 C 3.07 g/m*3 1.8 C 0 km/h
246 04-03-2008 01:05:02 2 C 3.06 g/m*3 2 C 0 km/h
247 04-03-2008 01:17:02 2.3 C 3.06 g/m*3 2.3 C 0 km/h
248 04-03-2008 01:29:02 2.3 C 3.12 g/m*3 2.3 C 0 km/h
249 04-03-2008 01:41:02 2.2 C 3.1 g/m*3 2.2 C 0 km/h
250 04-03-2008 01:53:02 2.2 C 3.15 g/m*3 2.2 C 0 km/h
Sensor: Nr:Datum:Temp:Abs-Feuchte:Windchill:Wind:
Aussen-T/F 251 04-03-2008 02:05:02 2.3 C 3.18 g/m*3 2.3 C 0 km/h
252 04-03-2008 02:17:03 2.4 C 3.2 g/m*3 2.4 C 0 km/h
253 04-03-2008 02:29:03 2.5 C 3.22 g/m*3 2.5 C 0 km/h
254 04-03-2008 02:41:03 2.4 C 3.25 g/m*3 2.4 C 0 km/h
255 04-03-2008 02:53:03 2.3 C 3.29 g/m*3 2.3 C 0 km/h
256 04-03-2008 03:05:03 2.3 C 3.29 g/m*3 2.3 C 0 km/h
257 04-03-2008 03:17:03 2.5 C 3.45 g/m*3 2.5 C 0 km/h
258 04-03-2008 03:29:03 2.5 C 3.56 g/m*3 2.5 C 0 km/h
259 04-03-2008 03:41:03 2.5 C 3.74 g/m*3 2.5 C 0 km/h
260 04-03-2008 03:53:03 2.3 C 3.86 g/m*3 2.3 C 0 km/h
261 04-03-2008 04:05:03 2.2 C 3.94 g/m*3 2.2 C 0 km/h
262 04-03-2008 04:17:03 2 C 4.11 g/m*3 2 C 0 km/h
263 04-03-2008 04:29:03 2.2 C 4.28 g/m*3 2.2 C 0 km/h
264 04-03-2008 04:41:03 2 C 4.33 g/m*3 2 C 0 km/h
265 04-03-2008 04:53:03 1.9 C 4.42 g/m*3 1.9 C 0 km/h
266 04-03-2008 05:05:03 1.6 C 4.38 g/m*3 1.6 C 0 km/h
267 04-03-2008 05:17:03 1.5 C 4.4 g/m*3 1.5 C 0 km/h
268 04-03-2008 05:29:03 1.3 C 4.4 g/m*3 1.3 C 0 km/h
269 04-03-2008 05:41:03 1.2 C 4.42 g/m*3 1.2 C 0 km/h
270 04-03-2008 05:53:03 1.1 C 4.44 g/m*3 1.1 C 0 km/h
271 04-03-2008 06:05:03 0.7 C 4.37 g/m*3 0.7 C 0 km/h
272 04-03-2008 06:17:03 0.5 C 4.31 g/m*3 0.5 C 0 km/h
273 04-03-2008 06:29:04 0.5 C 4.36 g/m*3 0.5 C 0 km/h
274 04-03-2008 06:41:04 0.4 C 4.33 g/m*3 0.4 C 0 km/h
275 04-03-2008 06:53:04 0.3 C 4.35 g/m*3 0.3 C 0 km/h
Sensor: Nr:Datum:Temp:Abs-Feuchte:Windchill:Wind:
Aussen-T/F 276 04-03-2008 07:05:04 0.3 C 4.4 g/m*3 0.3 C 0 km/h
277 04-03-2008 07:17:02 0.3 C 4.4 g/m*3 0.3 C 0 km/h
278 04-03-2008 07:29:02 0.2 C 4.37 g/m*3 0.2 C 0 km/h
279 04-03-2008 07:41:02 0.3 C 4.45 g/m*3 0.3 C 0 km/h
280 04-03-2008 07:53:02 0.3 C 4.45 g/m*3 0.3 C 0 km/h
281 04-03-2008 08:05:02 0.3 C 4.45 g/m*3 0.3 C 0 km/h
282 04-03-2008 08:17:02 0.3 C 4.45 g/m*3 0.3 C 0 km/h
283 04-03-2008 08:29:02 0.3 C 4.45 g/m*3 0.3 C 0 km/h
284 04-03-2008 08:41:02 0.3 C 4.5 g/m*3 0.3 C 0 km/h
285 04-03-2008 08:53:01 0.4 C 4.53 g/m*3 0.4 C 0 km/h
286 04-03-2008 09:05:02 0.5 C 4.56 g/m*3 0.5 C 0 km/h
287 04-03-2008 09:17:02 0.5 C 4.51 g/m*3 0.5 C 0 km/h
288 04-03-2008 09:29:02 0.5 C 4.56 g/m*3 0.5 C 0 km/h
289 04-03-2008 09:41:01 0.6 C 4.54 g/m*3 0.6 C 0 km/h
290 04-03-2008 09:53:02 0.6 C 4.54 g/m*3 0.6 C 0 km/h
291 04-03-2008 10:05:02 0.7 C 4.58 g/m*3 0.7 C 0 km/h
292 04-03-2008 10:17:02 0.8 C 4.61 g/m*3 0.8 C 0 km/h
293 04-03-2008 10:29:02 1 C 4.67 g/m*3 1 C 0 km/h
294 04-03-2008 10:41:02 1.2 C 4.68 g/m*3 1.2 C 0 km/h
295 04-03-2008 10:53:02 1.5 C 4.78 g/m*3 1.5 C 0 km/h
296 04-03-2008 11:05:01 1.8 C 4.88 g/m*3 1.8 C 0 km/h
297 04-03-2008 11:17:01 1.9 C 4.91 g/m*3 1.9 C 0 km/h
298 04-03-2008 11:29:01 2.2 C 4.96 g/m*3 2.2 C 0 km/h
299 04-03-2008 11:41:02 2.8 C 5.22 g/m*3 2.8 C 0 km/h
300 04-03-2008 11:53:02 3.2 C 5.18 g/m*3 3.2 C 0 km/h
Sensor: Nr:Datum:Temp:Abs-Feuchte:Windchill:Wind:
Aussen-T/F 301 04-03-2008 12:05:03 3.3 C 4.85 g/m*3 3.3 C 0 km/h
302 04-03-2008 12:17:02 3.8 C 4.64 g/m*3 3.8 C 0 km/h
303 04-03-2008 12:29:03 4 C 4.39 g/m*3 4 C 0 km/h
304 04-03-2008 12:41:02 4.3 C 4.35 g/m*3 4.3 C 0 km/h
305 04-03-2008 12:53:02 4.4 C 4.18 g/m*3 4.4 C 0 km/h
306 04-03-2008 13:05:01 4.7 C 4.26 g/m*3 4.7 C 0 km/h
307 04-03-2008 13:17:01 4.8 C 4.22 g/m*3 4.8 C 0 km/h
308 04-03-2008 13:29:01 4.7 C 4.13 g/m*3 4.7 C 0 km/h
309 04-03-2008 13:41:02 5.3 C 4.37 g/m*3 5.3 C 0 km/h
310 04-03-2008 13:53:02 5 C 4.08 g/m*3 5 C 0 km/h
311 04-03-2008 14:05:03 5 C 4.08 g/m*3 5 C 0 km/h
312 04-03-2008 14:17:02 5.4 C 4.19 g/m*3 5.4 C 0 km/h
313 04-03-2008 14:29:02 5.4 C 4.12 g/m*3 5.4 C 0 km/h
314 04-03-2008 14:41:02 5 C 4.01 g/m*3 5 C 0 km/h
315 04-03-2008 14:53:01 5.3 C 4.09 g/m*3 5.3 C 0 km/h
316 04-03-2008 15:05:02 5.5 C 4.14 g/m*3 5.5 C 0 km/h
317 04-03-2008 15:17:02 6.1 C 4.16 g/m*3 6.1 C 0 km/h
318 04-03-2008 15:29:02 5.5 C 3.93 g/m*3 5.5 C 0 km/h
319 04-03-2008 15:41:01 5.2 C 3.99 g/m*3 5.2 C 0 km/h
320 04-03-2008 15:53:02 5.4 C 4.12 g/m*3 5.4 C 0 km/h
321 04-03-2008 16:05:01 5.7 C 3.91 g/m*3 5.7 C 0 km/h
322 04-03-2008 16:17:01 6 C 3.85 g/m*3 6 C 0 km/h
323 04-03-2008 16:29:01 6.2 C 3.82 g/m*3 6.2 C 0 km/h
324 04-03-2008 16:41:02 6.2 C 3.75 g/m*3 6.2 C 0 km/h
325 04-03-2008 16:53:02 5.5 C 3.86 g/m*3 5.5 C 0 km/h
Sensor: Nr:Datum:Temp:Abs-Feuchte:Windchill:Wind:
Aussen-T/F 326 04-03-2008 17:05:01 5.8 C 3.94 g/m*3 5.8 C 0 km/h
327 04-03-2008 17:17:01 5.3 C 3.88 g/m*3 5.3 C 0 km/h
328 04-03-2008 17:29:01 5.2 C 3.86 g/m*3 5.2 C 0 km/h
329 04-03-2008 17:41:02 4.9 C 3.98 g/m*3 4.9 C 0 km/h
330 04-03-2008 17:53:02 4.8 C 4.02 g/m*3 4.8 C 0 km/h
331 04-03-2008 18:05:02 4.6 C 3.97 g/m*3 4.6 C 0 km/h
332 04-03-2008 18:17:02 4.5 C 3.88 g/m*3 4.5 C 0 km/h
333 04-03-2008 18:29:02 4.3 C 3.83 g/m*3 4.3 C 0 km/h
334 04-03-2008 18:41:02 4.1 C 3.84 g/m*3 4.1 C 0 km/h
335 04-03-2008 18:53:02 3.9 C 3.79 g/m*3 3.9 C 0 km/h
336 04-03-2008 19:05:02 3.4 C 3.66 g/m*3 3.4 C 0 km/h
337 04-03-2008 19:17:02 3.1 C 3.83 g/m*3 3.1 C 0 km/h
338 04-03-2008 19:29:02 3 C 3.86 g/m*3 3 C 0 km/h
339 04-03-2008 19:41:02 3.6 C 3.78 g/m*3 3.6 C 0 km/h
340 04-03-2008 19:53:02 3.8 C 3.64 g/m*3 3.8 C 0 km/h
341 04-03-2008 20:05:02 4 C 3.62 g/m*3 4 C 0 km/h
342 04-03-2008 20:17:03 3.9 C 3.73 g/m*3 3.9 C 0 km/h
343 04-03-2008 20:29:03 3.7 C 3.61 g/m*3 3.7 C 0 km/h
344 04-03-2008 20:41:02 3.3 C 3.52 g/m*3 3.3 C 0 km/h
345 04-03-2008 20:53:02 3 C 3.45 g/m*3 3 C 0 km/h
346 04-03-2008 21:05:02 3 C 3.51 g/m*3 3 C 0 km/h
347 04-03-2008 21:17:01 3.5 C 3.32 g/m*3 3.5 C 0 km/h
348 04-03-2008 21:29:01 3.3 C 3.46 g/m*3 3.3 C 0 km/h
349 04-03-2008 21:42:02 3.1 C 3.65 g/m*3 3.1 C 0 km/h
350 04-03-2008 21:54:02 3 C 3.81 g/m*3 3 C 0 km/h
Sensor: Nr:Datum:Temp:Abs-Feuchte:Windchill:Wind:
Aussen-T/F 351 04-03-2008 22:06:02 2.5 C 3.91 g/m*3 2.5 C 0 km/h
352 04-03-2008 22:18:02 2 C 3.83 g/m*3 2 C 0 km/h
353 04-03-2008 22:30:02 1.7 C 3.92 g/m*3 1.7 C 0 km/h
354 04-03-2008 22:42:02 1.4 C 3.89 g/m*3 1.4 C 0 km/h
355 04-03-2008 22:54:03 1.5 C 4.03 g/m*3 1.5 C 0 km/h
356 04-03-2008 23:06:03 1.7 C 4.08 g/m*3 1.7 C 0 km/h
357 04-03-2008 23:18:03 1.5 C 3.97 g/m*3 1.5 C 0 km/h
358 04-03-2008 23:30:03 1.5 C 4.03 g/m*3 1.5 C 0 km/h
359 04-03-2008 23:42:03 1.7 C 4.03 g/m*3 1.7 C 0 km/h
360 04-03-2008 23:54:03 2 C 3.89 g/m*3 2 C 0 km/h
361 05-03-2008 00:06:03 1.9 C 3.92 g/m*3 1.9 C 0 km/h
362 05-03-2008 00:18:03 1.9 C 3.92 g/m*3 1.9 C 0 km/h
363 05-03-2008 00:30:03 1.7 C 3.92 g/m*3 1.7 C 0 km/h
364 05-03-2008 00:42:03 1.5 C 3.71 g/m*3 1.5 C 0 km/h
365 05-03-2008 00:54:03 1.5 C 3.6 g/m*3 1.5 C 0 km/h
366 05-03-2008 01:06:03 1.4 C 3.57 g/m*3 1.4 C 0 km/h
367 05-03-2008 01:18:03 1.3 C 3.6 g/m*3 1.3 C 0 km/h
368 05-03-2008 01:30:03 1.3 C 3.5 g/m*3 1.3 C 0 km/h
369 05-03-2008 01:42:03 1.2 C 3.53 g/m*3 1.2 C 0 km/h
370 05-03-2008 01:54:03 0.9 C 3.51 g/m*3 0.9 C 0 km/h
371 05-03-2008 02:06:03 0.7 C 3.51 g/m*3 0.7 C 0 km/h
372 05-03-2008 02:18:03 0.5 C 3.46 g/m*3 0.5 C 0 km/h
373 05-03-2008 02:30:03 0.4 C 3.39 g/m*3 0.4 C 0 km/h
374 05-03-2008 02:42:03 0.3 C 3.36 g/m*3 0.3 C 0 km/h
375 05-03-2008 02:54:04 0.1 C 3.27 g/m*3 0.1 C 0 km/h
Sensor: Nr:Datum:Temp:Abs-Feuchte:Windchill:Wind:
Aussen-T/F 376 05-03-2008 03:06:04 0.1 C 3.27 g/m*3 0.1 C 0 km/h
377 05-03-2008 03:18:04 0 C 3.25 g/m*3 0 C 0 km/h
378 05-03-2008 03:30:04 -0.2 C 3.3 g/m*3 -0.2 C 0 km/h
379 05-03-2008 03:42:04 -0.4 C 3.25 g/m*3 -0.4 C 0 km/h
380 05-03-2008 03:54:04 -0.5 C 3.32 g/m*3 -0.5 C 0 km/h
381 05-03-2008 04:06:04 -0.5 C 3.37 g/m*3 -0.5 C 0 km/h
382 05-03-2008 04:18:04 -0.4 C 3.35 g/m*3 -0.4 C 0 km/h
383 05-03-2008 04:30:04 -0.4 C 3.35 g/m*3 -0.4 C 0 km/h
384 05-03-2008 04:42:04 -0.6 C 3.3 g/m*3 -0.6 C 0 km/h
385 05-03-2008 04:54:04 -0.6 C 3.39 g/m*3 -0.6 C 0 km/h
386 05-03-2008 05:06:04 -0.5 C 3.46 g/m*3 -0.5 C 0 km/h
387 05-03-2008 05:18:04 -0.3 C 3.51 g/m*3 -0.3 C 0 km/h
388 05-03-2008 05:30:04 -0.4 C 3.44 g/m*3 -0.4 C 0 km/h
389 05-03-2008 05:42:04 -0.4 C 3.44 g/m*3 -0.4 C 0 km/h
390 05-03-2008 05:54:04 -0.7 C 3.42 g/m*3 -0.7 C 0 km/h
391 05-03-2008 06:06:04 -0.7 C 3.42 g/m*3 -0.7 C 0 km/h
392 05-03-2008 06:18:04 -0.5 C 3.42 g/m*3 -0.5 C 0 km/h
393 05-03-2008 06:30:04 -0.9 C 3.32 g/m*3 -0.9 C 0 km/h
394 05-03-2008 06:42:04 -0.9 C 3.37 g/m*3 -0.9 C 0 km/h
395 05-03-2008 06:54:04 -0.8 C 3.39 g/m*3 -0.8 C 0 km/h
396 05-03-2008 07:06:02 -0.8 C 3.35 g/m*3 -0.8 C 0 km/h
397 05-03-2008 07:18:02 -1 C 3.35 g/m*3 -1 C 0 km/h
398 05-03-2008 07:30:02 -0.9 C 3.37 g/m*3 -0.9 C 0 km/h
399 05-03-2008 07:42:02 -0.5 C 3.42 g/m*3 -0.5 C 0 km/h
400 05-03-2008 07:54:02 -0.4 C 3.35 g/m*3 -0.4 C 0 km/h
Sensor: Nr:Datum:Temp:Abs-Feuchte:Windchill:Wind:
Aussen-T/F 401 05-03-2008 08:06:04 -0.2 C 3.35 g/m*3 -0.2 C 0 km/h
402 05-03-2008 08:18:02 0 C 3.34 g/m*3 0 C 0 km/h
403 05-03-2008 08:30:02 0 C 3.29 g/m*3 0 C 0 km/h
404 05-03-2008 08:42:02 0 C 3.2 g/m*3 0 C 0 km/h
405 05-03-2008 08:54:02 -0.1 C 3.18 g/m*3 -0.1 C 0 km/h
406 05-03-2008 09:06:03 0.5 C 3.31 g/m*3 0.5 C 0 km/h
407 05-03-2008 09:18:02 0.6 C 3.18 g/m*3 0.6 C 0 km/h
408 05-03-2008 09:30:02 0.9 C 3.2 g/m*3 0.9 C 0 km/h
409 05-03-2008 09:42:02 0.8 C 3.12 g/m*3 0.8 C 0 km/h
410 05-03-2008 09:54:01 0.6 C 3.13 g/m*3 0.6 C 0 km/h
411 05-03-2008 10:06:01 0.9 C 3.14 g/m*3 0.9 C 0 km/h
412 05-03-2008 10:18:02 1.4 C 3.09 g/m*3 1.4 C 0 km/h
413 05-03-2008 10:30:02 1.7 C 3.1 g/m*3 1.7 C 0 km/h
414 05-03-2008 10:42:02 2.2 C 3.1 g/m*3 2.2 C 0 km/h
415 05-03-2008 10:54:02 2.5 C 2.99 g/m*3 2.5 C 0 km/h
416 05-03-2008 11:06:02 3.1 C 2.93 g/m*3 3.1 C 0 km/h
417 05-03-2008 11:18:02 2.8 C 2.87 g/m*3 2.8 C 0 km/h
418 05-03-2008 11:30:02 2.5 C 2.87 g/m*3 2.5 C 0 km/h
419 05-03-2008 11:42:02 3.1 C 2.81 g/m*3 3.1 C 0 km/h
420 05-03-2008 11:54:02 3.2 C 2.59 g/m*3 3.2 C 0 km/h
421 05-03-2008 12:06:02 3 C 2.62 g/m*3 3 C 0 km/h
422 05-03-2008 12:18:01 3.8 C 2.63 g/m*3 3.8 C 0 km/h
423 05-03-2008 12:30:01 4.3 C 2.27 g/m*3 4.3 C 0 km/h
424 05-03-2008 12:42:01 3.5 C 2.52 g/m*3 3.5 C 0 km/h
425 05-03-2008 12:54:02 4.3 C 2.53 g/m*3 4.3 C 0 km/h
Sensor: Nr:Datum:Temp:Abs-Feuchte:Windchill:Wind:
Aussen-T/F 426 05-03-2008 13:06:02 4.6 C 2.25 g/m*3 4.6 C 0 km/h
427 05-03-2008 13:18:02 5.3 C 2.08 g/m*3 5.3 C 0 km/h
428 05-03-2008 13:30:02 4.3 C 1.82 g/m*3 4.3 C 0 km/h
429 05-03-2008 13:42:02 5.7 C 1.85 g/m*3 5.7 C 0 km/h
430 05-03-2008 13:54:02 3.8 C 2.63 g/m*3 3.8 C 0 km/h
431 05-03-2008 14:06:02 3.7 C 2.87 g/m*3 3.7 C 0 km/h
432 05-03-2008 14:18:01 4.8 C 2.62 g/m*3 4.8 C 0 km/h
433 05-03-2008 14:30:01 5.3 C 2.5 g/m*3 5.3 C 0 km/h
434 05-03-2008 14:42:02 6 C 2.18 g/m*3 6 C 0 km/h
435 05-03-2008 14:54:02 6.5 C 2.02 g/m*3 6.5 C 0 km/h
436 05-03-2008 15:06:01 4.9 C 2.23 g/m*3 4.9 C 0 km/h
437 05-03-2008 15:18:01 4.5 C 2.43 g/m*3 4.5 C 0 km/h
438 05-03-2008 15:30:01 6.1 C 2.34 g/m*3 6.1 C 0 km/h
439 05-03-2008 15:42:01 6.7 C 2.13 g/m*3 6.7 C 0 km/h
440 05-03-2008 15:54:02 5.4 C 2.3 g/m*3 5.4 C 0 km/h
441 05-03-2008 16:06:01 5.2 C 2.27 g/m*3 5.2 C 0 km/h
442 05-03-2008 16:18:02 5.5 C 2.18 g/m*3 5.5 C 0 km/h
443 05-03-2008 16:30:02 6.1 C 2.05 g/m*3 6.1 C 0 km/h
444 05-03-2008 16:42:02 6.9 C 2.31 g/m*3 6.9 C 0 km/h
445 05-03-2008 16:54:02 6.7 C 2.05 g/m*3 6.7 C 0 km/h
446 05-03-2008 17:06:02 6.3 C 1.85 g/m*3 6.3 C 0 km/h
447 05-03-2008 17:18:02 5.7 C 1.78 g/m*3 5.7 C 0 km/h
448 05-03-2008 17:30:03 6.1 C 1.9 g/m*3 6.1 C 0 km/h
449 05-03-2008 17:42:02 5.7 C 1.92 g/m*3 5.7 C 0 km/h
450 05-03-2008 17:54:02 5 C 2.04 g/m*3 5 C 0 km/h
Sensor: Nr:Datum:Temp:Abs-Feuchte:Windchill:Wind:
Aussen-T/F 451 05-03-2008 18:06:02 4.4 C 2.09 g/m*3 4.4 C 0 km/h
452 05-03-2008 18:18:02 3.8 C 2.57 g/m*3 3.8 C 0 km/h
453 05-03-2008 18:30:02 3.2 C 2.59 g/m*3 3.2 C 0 km/h
454 05-03-2008 18:42:03 2.7 C 2.74 g/m*3 2.7 C 0 km/h
455 05-03-2008 18:54:02 2.3 C 2.67 g/m*3 2.3 C 0 km/h
456 05-03-2008 19:06:02 2 C 2.67 g/m*3 2 C 0 km/h
457 05-03-2008 19:18:02 1.7 C 2.72 g/m*3 1.7 C 0 km/h
458 05-03-2008 19:30:02 1.5 C 2.79 g/m*3 1.5 C 0 km/h
459 05-03-2008 19:42:01 1.3 C 2.86 g/m*3 1.3 C 0 km/h
460 05-03-2008 19:54:02 1.2 C 2.89 g/m*3 1.2 C 0 km/h
461 05-03-2008 20:06:02 0.9 C 2.94 g/m*3 0.9 C 0 km/h
462 05-03-2008 20:18:02 0.7 C 2.95 g/m*3 0.7 C 0 km/h
463 05-03-2008 20:30:02 0.6 C 2.88 g/m*3 0.6 C 0 km/h
464 05-03-2008 20:42:02 0.5 C 2.86 g/m*3 0.5 C 0 km/h
465 05-03-2008 20:54:02 0.4 C 2.89 g/m*3 0.4 C 0 km/h
466 05-03-2008 21:06:01 0.3 C 2.82 g/m*3 0.3 C 0 km/h
467 05-03-2008 21:18:02 0.1 C 2.83 g/m*3 0.1 C 0 km/h
468 05-03-2008 21:30:02 0 C 2.91 g/m*3 0 C 0 km/h
469 05-03-2008 21:42:01 0 C 2.91 g/m*3 0 C 0 km/h
470 05-03-2008 21:54:02 -0.2 C 2.91 g/m*3 -0.2 C 0 km/h
471 05-03-2008 22:07:02 -0.2 C 2.91 g/m*3 -0.2 C 0 km/h
472 05-03-2008 22:19:02 -0.3 C 2.94 g/m*3 -0.3 C 0 km/h
473 05-03-2008 22:31:02 -0.5 C 2.9 g/m*3 -0.5 C 0 km/h
474 05-03-2008 22:43:02 -0.7 C 2.86 g/m*3 -0.7 C 0 km/h
475 05-03-2008 22:55:02 -0.8 C 2.89 g/m*3 -0.8 C 0 km/h
Sensor: Nr:Datum:Temp:Abs-Feuchte:Windchill:Wind:
Aussen-T/F 476 05-03-2008 23:07:02 -0.9 C 2.91 g/m*3 -0.9 C 0 km/h
477 05-03-2008 23:19:02 -1 C 2.89 g/m*3 -1 C 0 km/h
478 05-03-2008 23:31:02 -1.1 C 2.87 g/m*3 -1.1 C 0 km/h
479 05-03-2008 23:43:02 -1.1 C 2.92 g/m*3 -1.1 C 0 km/h
480 05-03-2008 23:55:02 -1.2 C 2.94 g/m*3 -1.2 C 0 km/h
481 06-03-2008 00:07:02 -1.1 C 2.92 g/m*3 -1.1 C 0 km/h
482 06-03-2008 00:19:02 -1.3 C 2.92 g/m*3 -1.3 C 0 km/h
483 06-03-2008 00:31:02 -1.4 C 2.9 g/m*3 -1.4 C 0 km/h
484 06-03-2008 00:43:03 -1.3 C 2.92 g/m*3 -1.3 C 0 km/h
485 06-03-2008 00:55:03 -1.3 C 2.97 g/m*3 -1.3 C 0 km/h
486 06-03-2008 01:07:03 -1.3 C 2.97 g/m*3 -1.3 C 0 km/h
487 06-03-2008 01:19:03 -1.3 C 2.97 g/m*3 -1.3 C 0 km/h
488 06-03-2008 01:31:03 -1.2 C 2.94 g/m*3 -1.2 C 0 km/h
489 06-03-2008 01:43:03 -1.2 C 2.94 g/m*3 -1.2 C 0 km/h
490 06-03-2008 01:55:03 -1.2 C 2.94 g/m*3 -1.2 C 0 km/h
491 06-03-2008 02:07:03 -1.2 C 2.9 g/m*3 -1.2 C 0 km/h
492 06-03-2008 02:19:03 -1.1 C 2.92 g/m*3 -1.1 C 0 km/h
493 06-03-2008 02:31:03 -1.1 C 2.92 g/m*3 -1.1 C 0 km/h
494 06-03-2008 02:43:03 -1.2 C 2.9 g/m*3 -1.2 C 0 km/h
495 06-03-2008 02:55:03 -1.3 C 2.88 g/m*3 -1.3 C 0 km/h
496 06-03-2008 03:07:03 -1.3 C 2.92 g/m*3 -1.3 C 0 km/h
497 06-03-2008 03:19:03 -1.3 C 2.88 g/m*3 -1.3 C 0 km/h
498 06-03-2008 03:31:03 -1.3 C 2.88 g/m*3 -1.3 C 0 km/h
499 06-03-2008 03:43:03 -1.3 C 2.88 g/m*3 -1.3 C 0 km/h
500 06-03-2008 03:55:03 -1.4 C 2.86 g/m*3 -1.4 C 0 km/h
Sensor: Nr:Datum:Temp:Abs-Feuchte:Windchill:Wind:
Aussen-T/F 501 06-03-2008 04:07:03 -1.3 C 2.88 g/m*3 -1.3 C 0 km/h
502 06-03-2008 04:19:03 -1.4 C 2.86 g/m*3 -1.4 C 0 km/h
503 06-03-2008 04:31:03 -1.2 C 2.85 g/m*3 -1.2 C 0 km/h
504 06-03-2008 04:43:03 -1.2 C 2.85 g/m*3 -1.2 C 0 km/h
505 06-03-2008 04:55:04 -1.5 C 2.79 g/m*3 -1.5 C 0 km/h
506 06-03-2008 05:07:04 -1.4 C 2.81 g/m*3 -1.4 C 0 km/h
507 06-03-2008 05:19:04 -1.5 C 2.75 g/m*3 -1.5 C 0 km/h
508 06-03-2008 05:31:04 -1.3 C 2.79 g/m*3 -1.3 C 0 km/h
509 06-03-2008 05:43:04 -1 C 2.71 g/m*3 -1 C 0 km/h
510 06-03-2008 05:55:04 -0.5 C 2.62 g/m*3 -0.5 C 0 km/h
511 06-03-2008 06:07:04 -0.2 C 2.58 g/m*3 -0.2 C 0 km/h
512 06-03-2008 06:19:04 0.3 C 2.57 g/m*3 0.3 C 0 km/h
513 06-03-2008 06:31:04 0.6 C 2.52 g/m*3 0.6 C 0 km/h
514 06-03-2008 06:43:04 0.8 C 2.56 g/m*3 0.8 C 0 km/h
515 06-03-2008 06:55:04 0.8 C 2.56 g/m*3 0.8 C 0 km/h
516 06-03-2008 07:07:02 0.9 C 2.63 g/m*3 0.9 C 0 km/h
517 06-03-2008 07:19:02 0.9 C 2.63 g/m*3 0.9 C 0 km/h
518 06-03-2008 07:31:02 0.8 C 2.66 g/m*3 0.8 C 0 km/h
519 06-03-2008 07:43:02 0.8 C 2.61 g/m*3 0.8 C 0 km/h
520 06-03-2008 07:55:02 0.9 C 2.58 g/m*3 0.9 C 0 km/h
521 06-03-2008 08:07:02 1 C 2.54 g/m*3 1 C 0 km/h
522 06-03-2008 08:19:02 1.1 C 2.56 g/m*3 1.1 C 0 km/h
523 06-03-2008 08:31:03 1.1 C 2.56 g/m*3 1.1 C 0 km/h
524 06-03-2008 08:43:03 1.3 C 2.54 g/m*3 1.3 C 0 km/h
525 06-03-2008 08:55:02 1.5 C 2.58 g/m*3 1.5 C 0 km/h
Sensor: Nr:Datum:Temp:Abs-Feuchte:Windchill:Wind:
Aussen-T/F 526 06-03-2008 09:07:02 1.5 C 2.58 g/m*3 1.5 C 0 km/h
527 06-03-2008 09:19:01 1.7 C 2.61 g/m*3 1.7 C 0 km/h
528 06-03-2008 09:31:02 1.8 C 2.58 g/m*3 1.8 C 0 km/h
529 06-03-2008 09:43:02 2 C 2.56 g/m*3 2 C 0 km/h
530 06-03-2008 09:55:02 2.1 C 2.57 g/m*3 2.1 C 0 km/h
531 06-03-2008 10:07:01 2.2 C 2.59 g/m*3 2.2 C 0 km/h
532 06-03-2008 10:19:01 2.4 C 2.63 g/m*3 2.4 C 0 km/h
533 06-03-2008 10:31:02 2.6 C 2.66 g/m*3 2.6 C 0 km/h
534 06-03-2008 10:43:02 2.8 C 2.64 g/m*3 2.8 C 0 km/h
535 06-03-2008 10:55:02 3 C 2.62 g/m*3 3 C 0 km/h
536 06-03-2008 11:07:02 3.2 C 2.65 g/m*3 3.2 C 0 km/h
537 06-03-2008 11:19:02 3.5 C 2.64 g/m*3 3.5 C 0 km/h
538 06-03-2008 11:31:02 4 C 2.67 g/m*3 4 C 0 km/h
539 06-03-2008 11:43:02 4 C 2.61 g/m*3 4 C 0 km/h
540 06-03-2008 11:55:01 4 C 2.61 g/m*3 4 C 0 km/h
541 06-03-2008 12:07:01 4.4 C 2.68 g/m*3 4.4 C 0 km/h
542 06-03-2008 12:19:02 4.5 C 2.63 g/m*3 4.5 C 0 km/h
543 06-03-2008 12:31:01 4.3 C 2.66 g/m*3 4.3 C 0 km/h
544 06-03-2008 12:43:01 4.2 C 2.71 g/m*3 4.2 C 0 km/h
545 06-03-2008 12:55:02 4.3 C 2.72 g/m*3 4.3 C 0 km/h
546 06-03-2008 13:07:01 4.6 C 2.71 g/m*3 4.6 C 0 km/h
547 06-03-2008 13:19:02 4.8 C 2.68 g/m*3 4.8 C 0 km/h
548 06-03-2008 13:31:02 4.8 C 2.75 g/m*3 4.8 C 0 km/h
549 06-03-2008 13:43:03 5.2 C 2.75 g/m*3 5.2 C 0 km/h
550 06-03-2008 13:55:02 5.2 C 2.69 g/m*3 5.2 C 0 km/h
Sensor: Nr:Datum:Temp:Abs-Feuchte:Windchill:Wind:
Aussen-T/F 551 06-03-2008 14:07:02 5.4 C 2.79 g/m*3 5.4 C 0 km/h
552 06-03-2008 14:19:02 5.4 C 2.79 g/m*3 5.4 C 0 km/h
553 06-03-2008 14:31:02 5.6 C 2.83 g/m*3 5.6 C 0 km/h
554 06-03-2008 14:43:02 5.5 C 2.81 g/m*3 5.5 C 0 km/h
555 06-03-2008 14:55:02 5.8 C 2.87 g/m*3 5.8 C 0 km/h
556 06-03-2008 15:07:02 5.7 C 2.85 g/m*3 5.7 C 0 km/h
557 06-03-2008 15:19:01 6.1 C 2.92 g/m*3 6.1 C 0 km/h
558 06-03-2008 15:31:02 5.9 C 2.88 g/m*3 5.9 C 0 km/h
559 06-03-2008 15:43:02 6 C 2.98 g/m*3 6 C 0 km/h
560 06-03-2008 15:55:01 6.1 C 2.92 g/m*3 6.1 C 0 km/h
561 06-03-2008 16:07:02 6.1 C 2.92 g/m*3 6.1 C 0 km/h
562 06-03-2008 16:19:02 6.2 C 3.02 g/m*3 6.2 C 0 km/h
563 06-03-2008 16:31:01 6.2 C 3.02 g/m*3 6.2 C 0 km/h
564 06-03-2008 16:43:01 6.3 C 3.03 g/m*3 6.3 C 0 km/h
565 06-03-2008 16:55:02 6.3 C 3.03 g/m*3 6.3 C 0 km/h
566 06-03-2008 17:07:01 6.2 C 3.02 g/m*3 6.2 C 0 km/h
567 06-03-2008 17:19:02 6.1 C 3.07 g/m*3 6.1 C 0 km/h
568 06-03-2008 17:31:02 6.1 C 3.14 g/m*3 6.1 C 0 km/h
569 06-03-2008 17:43:02 5.9 C 3.24 g/m*3 5.9 C 0 km/h
570 06-03-2008 17:55:02 5.7 C 3.2 g/m*3 5.7 C 0 km/h
571 06-03-2008 18:07:02 5.7 C 3.2 g/m*3 5.7 C 0 km/h
572 06-03-2008 18:19:02 5.6 C 3.25 g/m*3 5.6 C 0 km/h
573 06-03-2008 18:31:02 5.4 C 3.28 g/m*3 5.4 C 0 km/h
574 06-03-2008 18:43:02 5.3 C 3.26 g/m*3 5.3 C 0 km/h
575 06-03-2008 18:55:02 5.3 C 3.33 g/m*3 5.3 C 0 km/h
Sensor: Nr:Datum:Temp:Abs-Feuchte:Windchill:Wind:
Aussen-T/F 576 06-03-2008 19:07:02 5.3 C 3.33 g/m*3 5.3 C 0 km/h
577 06-03-2008 19:19:02 5.4 C 3.28 g/m*3 5.4 C 0 km/h
578 06-03-2008 19:31:02 5.4 C 3.35 g/m*3 5.4 C 0 km/h
579 06-03-2008 19:43:02 5.4 C 3.49 g/m*3 5.4 C 0 km/h
580 06-03-2008 19:55:02 5.3 C 3.53 g/m*3 5.3 C 0 km/h
581 06-03-2008 20:07:01 5.2 C 3.44 g/m*3 5.2 C 0 km/h
582 06-03-2008 20:19:02 5.3 C 3.4 g/m*3 5.3 C 0 km/h
583 06-03-2008 20:31:02 5.3 C 3.47 g/m*3 5.3 C 0 km/h
584 06-03-2008 20:43:02 5.2 C 3.51 g/m*3 5.2 C 0 km/h
585 06-03-2008 20:55:02 5.1 C 3.56 g/m*3 5.1 C 0 km/h
586 06-03-2008 21:07:02 5.2 C 3.51 g/m*3 5.2 C 0 km/h
587 06-03-2008 21:19:02 5.2 C 3.58 g/m*3 5.2 C 0 km/h
588 06-03-2008 21:31:03 5.1 C 3.56 g/m*3 5.1 C 0 km/h
589 06-03-2008 21:43:03 5.2 C 3.58 g/m*3 5.2 C 0 km/h
590 06-03-2008 21:56:02 5.2 C 3.65 g/m*3 5.2 C 0 km/h
591 06-03-2008 22:08:02 5.3 C 3.6 g/m*3 5.3 C 0 km/h
592 06-03-2008 22:20:02 5.2 C 3.65 g/m*3 5.2 C 0 km/h
593 06-03-2008 22:32:02 5.2 C 3.65 g/m*3 5.2 C 0 km/h
594 06-03-2008 22:44:02 5.1 C 3.63 g/m*3 5.1 C 0 km/h
595 06-03-2008 22:56:02 5.1 C 3.56 g/m*3 5.1 C 0 km/h
596 06-03-2008 23:08:02 5.1 C 3.63 g/m*3 5.1 C 0 km/h
597 06-03-2008 23:20:03 5.1 C 3.63 g/m*3 5.1 C 0 km/h
598 06-03-2008 23:32:03 5.1 C 3.63 g/m*3 5.1 C 0 km/h
599 06-03-2008 23:44:03 5 C 3.67 g/m*3 5 C 0 km/h
600 06-03-2008 23:56:03 5.1 C 3.69 g/m*3 5.1 C 0 km/h
Sensor: Nr:Datum:Temp:Abs-Feuchte:Windchill:Wind:
Aussen-T/F 601 07-03-2008 00:08:03 5 C 3.74 g/m*3 5 C 0 km/h
602 07-03-2008 00:20:03 5 C 3.67 g/m*3 5 C 0 km/h
603 07-03-2008 00:32:03 5 C 3.87 g/m*3 5 C 0 km/h
604 07-03-2008 00:44:03 5 C 3.81 g/m*3 5 C 0 km/h
605 07-03-2008 00:56:03 4.9 C 3.92 g/m*3 4.9 C 0 km/h
606 07-03-2008 01:08:03 5 C 3.87 g/m*3 5 C 0 km/h
607 07-03-2008 01:20:03 5 C 3.87 g/m*3 5 C 0 km/h
608 07-03-2008 01:32:03 4.9 C 3.98 g/m*3 4.9 C 0 km/h
609 07-03-2008 01:44:03 4.9 C 3.98 g/m*3 4.9 C 0 km/h
610 07-03-2008 01:56:03 4.9 C 3.92 g/m*3 4.9 C 0 km/h
611 07-03-2008 02:08:03 4.8 C 3.82 g/m*3 4.8 C 0 km/h
612 07-03-2008 02:20:03 4.8 C 3.89 g/m*3 4.8 C 0 km/h
613 07-03-2008 02:32:03 4.8 C 3.89 g/m*3 4.8 C 0 km/h
614 07-03-2008 02:44:03 4.8 C 3.96 g/m*3 4.8 C 0 km/h
615 07-03-2008 02:56:03 4.8 C 3.96 g/m*3 4.8 C 0 km/h
616 07-03-2008 03:08:03 4.8 C 3.96 g/m*3 4.8 C 0 km/h
617 07-03-2008 03:20:04 4.8 C 4.02 g/m*3 4.8 C 0 km/h
618 07-03-2008 03:32:04 4.8 C 4.02 g/m*3 4.8 C 0 km/h
619 07-03-2008 03:44:04 4.8 C 4.02 g/m*3 4.8 C 0 km/h
620 07-03-2008 03:56:04 4.8 C 4.02 g/m*3 4.8 C 0 km/h
621 07-03-2008 04:08:04 4.8 C 4.02 g/m*3 4.8 C 0 km/h
622 07-03-2008 04:20:04 4.8 C 4.09 g/m*3 4.8 C 0 km/h
623 07-03-2008 04:32:04 4.8 C 4.16 g/m*3 4.8 C 0 km/h
624 07-03-2008 04:44:04 4.7 C 4.2 g/m*3 4.7 C 0 km/h
625 07-03-2008 04:56:04 4.5 C 4.27 g/m*3 4.5 C 0 km/h
Sensor: Nr:Datum:Temp:Abs-Feuchte:Windchill:Wind:
Aussen-T/F 626 07-03-2008 05:08:04 4.4 C 4.44 g/m*3 4.4 C 0 km/h
627 07-03-2008 05:20:04 4.3 C 4.61 g/m*3 4.3 C 0 km/h
628 07-03-2008 05:32:04 4.2 C 4.7 g/m*3 4.2 C 0 km/h
629 07-03-2008 05:44:04 4.3 C 4.74 g/m*3 4.3 C 0 km/h
630 07-03-2008 05:56:04 4.4 C 4.77 g/m*3 4.4 C 0 km/h
631 07-03-2008 06:08:04 4.2 C 4.77 g/m*3 4.2 C 0 km/h
632 07-03-2008 06:20:04 3.9 C 4.74 g/m*3 3.9 C 0 km/h
633 07-03-2008 06:32:04 3.7 C 4.8 g/m*3 3.7 C 0 km/h
634 07-03-2008 06:44:04 3.4 C 4.76 g/m*3 3.4 C 0 km/h
635 07-03-2008 06:56:04 3.4 C 4.83 g/m*3 3.4 C 0 km/h
636 07-03-2008 07:08:03 3.3 C 4.79 g/m*3 3.3 C 0 km/h
637 07-03-2008 07:20:03 3 C 4.7 g/m*3 3 C 0 km/h
638 07-03-2008 07:32:02 2.9 C 4.78 g/m*3 2.9 C 0 km/h
639 07-03-2008 07:44:02 2.7 C 4.72 g/m*3 2.7 C 0 km/h
640 07-03-2008 07:56:01 2.8 C 4.87 g/m*3 2.8 C 0 km/h
641 07-03-2008 08:08:02 3 C 4.88 g/m*3 3 C 0 km/h
642 07-03-2008 08:20:02 3.2 C 5 g/m*3 3.2 C 0 km/h
643 07-03-2008 08:32:01 3.7 C 5.23 g/m*3 3.7 C 0 km/h
644 07-03-2008 08:44:01 4.4 C 5.42 g/m*3 4.4 C 0 km/h
645 07-03-2008 08:56:01 5 C 5.5 g/m*3 5 C 0 km/h
646 07-03-2008 09:08:02 5.4 C 5.3 g/m*3 5.4 C 0 km/h
647 07-03-2008 09:20:02 5.8 C 5.23 g/m*3 5.8 C 0 km/h
648 07-03-2008 09:32:02 6.2 C 5.07 g/m*3 6.2 C 0 km/h
649 07-03-2008 09:44:02 6.3 C 4.89 g/m*3 6.3 C 0 km/h
650 07-03-2008 09:56:02 6.4 C 4.84 g/m*3 6.4 C 0 km/h
Sensor: Nr:Datum:Temp:Abs-Feuchte:Windchill:Wind:
Aussen-T/F 651 07-03-2008 10:08:02 6.9 C 5 g/m*3 6.9 C 0 km/h
652 07-03-2008 10:20:02 7 C 4.8 g/m*3 7 C 0 km/h
653 07-03-2008 10:32:02 7.4 C 4.93 g/m*3 7.4 C 0 km/h
654 07-03-2008 10:44:02 7.4 C 4.77 g/m*3 7.4 C 0 km/h
655 07-03-2008 10:56:02 7.6 C 4.83 g/m*3 7.6 C 0 km/h
656 07-03-2008 11:08:02 7.8 C 4.9 g/m*3 7.8 C 0 km/h
657 07-03-2008 11:20:01 7.7 C 4.78 g/m*3 7.7 C 0 km/h
658 07-03-2008 11:32:01 7.9 C 4.85 g/m*3 7.9 C 0 km/h
659 07-03-2008 11:44:01 8.1 C 4.83 g/m*3 8.1 C 0 km/h
660 07-03-2008 11:56:01 8.4 C 4.84 g/m*3 8.4 C 0 km/h
661 07-03-2008 12:08:02 8.5 C 4.78 g/m*3 8.5 C 0 km/h
662 07-03-2008 12:20:02 8.4 C 4.75 g/m*3 8.4 C 0 km/h
663 07-03-2008 12:32:01 8.3 C 4.72 g/m*3 8.3 C 0 km/h
664 07-03-2008 12:44:01 8.5 C 4.78 g/m*3 8.5 C 0 km/h
665 07-03-2008 12:56:01 8.6 C 4.81 g/m*3 8.6 C 0 km/h
666 07-03-2008 13:08:02 8.8 C 4.79 g/m*3 8.8 C 0 km/h
667 07-03-2008 13:20:02 9.6 C 4.76 g/m*3 9.6 C 0 km/h
668 07-03-2008 13:32:02 10.5 C 4.75 g/m*3 10.5 C 0 km/h
669 07-03-2008 13:44:02 10.5 C 4.56 g/m*3 10.5 C 0 km/h
670 07-03-2008 13:56:02 10.5 C 4.56 g/m*3 10.5 C 0 km/h
671 07-03-2008 14:08:02 10.7 C 4.62 g/m*3 10.7 C 0 km/h
672 07-03-2008 14:20:02 10.7 C 4.52 g/m*3 10.7 C 0 km/h
673 07-03-2008 14:32:02 11 C 4.6 g/m*3 11 C 0 km/h
674 07-03-2008 14:44:02 10.9 C 4.48 g/m*3 10.9 C 0 km/h
675 07-03-2008 14:56:01 10.8 C 4.55 g/m*3 10.8 C 0 km/h
Sensor: Nr:Datum:Temp:Abs-Feuchte:Windchill:Wind:
Aussen-T/F 676 07-03-2008 15:08:01 11.6 C 4.68 g/m*3 11.6 C 0 km/h
677 07-03-2008 15:20:02 11.8 C 4.74 g/m*3 11.8 C 0 km/h
678 07-03-2008 15:32:01 11.1 C 4.53 g/m*3 11.1 C 0 km/h
679 07-03-2008 15:44:01 10.6 C 4.59 g/m*3 10.6 C 0 km/h
680 07-03-2008 15:56:02 10.3 C 4.6 g/m*3 10.3 C 0 km/h
681 07-03-2008 16:08:02 10.1 C 4.73 g/m*3 10.1 C 0 km/h
682 07-03-2008 16:20:02 9.9 C 4.76 g/m*3 9.9 C 0 km/h
683 07-03-2008 16:32:03 9.8 C 4.82 g/m*3 9.8 C 0 km/h
684 07-03-2008 16:44:03 9.5 C 4.73 g/m*3 9.5 C 0 km/h
685 07-03-2008 16:56:03 9.2 C 4.73 g/m*3 9.2 C 0 km/h
686 07-03-2008 17:08:02 9.3 C 4.85 g/m*3 9.3 C 0 km/h
687 07-03-2008 17:20:02 9.4 C 4.88 g/m*3 9.4 C 0 km/h
688 07-03-2008 17:32:03 9.5 C 4.92 g/m*3 9.5 C 0 km/h
689 07-03-2008 17:44:04 9.4 C 4.97 g/m*3 9.4 C 0 km/h
690 07-03-2008 17:56:02 9.3 C 5.03 g/m*3 9.3 C 0 km/h
691 07-03-2008 18:08:01 9.2 C 5.09 g/m*3 9.2 C 0 km/h
692 07-03-2008 18:20:01 9 C 5.11 g/m*3 9 C 0 km/h
693 07-03-2008 18:32:01 8.8 C 5.22 g/m*3 8.8 C 0 km/h
694 07-03-2008 18:44:01 8.6 C 5.24 g/m*3 8.6 C 0 km/h
695 07-03-2008 18:56:02 8.5 C 5.21 g/m*3 8.5 C 0 km/h
696 07-03-2008 19:08:01 8.4 C 5.17 g/m*3 8.4 C 0 km/h
697 07-03-2008 19:20:02 8.4 C 5.09 g/m*3 8.4 C 0 km/h
698 07-03-2008 19:32:02 8.4 C 5.01 g/m*3 8.4 C 0 km/h
699 07-03-2008 19:44:02 8.4 C 4.67 g/m*3 8.4 C 0 km/h
700 07-03-2008 19:56:02 8.2 C 4.77 g/m*3 8.2 C 0 km/h
Sensor: Nr:Datum:Temp:Abs-Feuchte:Windchill:Wind:
Aussen-T/F 701 07-03-2008 20:08:02 7.9 C 4.93 g/m*3 7.9 C 0 km/h
702 07-03-2008 20:20:03 7.7 C 5.11 g/m*3 7.7 C 0 km/h
703 07-03-2008 20:32:02 7.7 C 5.19 g/m*3 7.7 C 0 km/h
704 07-03-2008 20:44:03 7.7 C 5.11 g/m*3 7.7 C 0 km/h
705 07-03-2008 20:56:02 7.6 C 5.08 g/m*3 7.6 C 0 km/h
706 07-03-2008 21:08:02 7.6 C 5.08 g/m*3 7.6 C 0 km/h
707 07-03-2008 21:20:02 7.5 C 5.04 g/m*3 7.5 C 0 km/h
708 07-03-2008 21:32:02 7.5 C 4.96 g/m*3 7.5 C 0 km/h
709 07-03-2008 21:44:02 7.5 C 4.96 g/m*3 7.5 C 0 km/h
710 07-03-2008 21:56:02 7.4 C 4.93 g/m*3 7.4 C 0 km/h
711 07-03-2008 22:09:02 7.4 C 5.01 g/m*3 7.4 C 0 km/h
712 07-03-2008 22:21:02 7.4 C 5.01 g/m*3 7.4 C 0 km/h
713 07-03-2008 22:33:03 7.3 C 4.9 g/m*3 7.3 C 0 km/h
714 07-03-2008 22:45:03 7.2 C 4.95 g/m*3 7.2 C 0 km/h
715 07-03-2008 22:57:03 7.1 C 4.99 g/m*3 7.1 C 0 km/h
716 07-03-2008 23:09:03 7.1 C 4.99 g/m*3 7.1 C 0 km/h
717 07-03-2008 23:21:03 7 C 4.96 g/m*3 7 C 0 km/h
718 07-03-2008 23:33:03 7.1 C 4.91 g/m*3 7.1 C 0 km/h
719 07-03-2008 23:45:03 7.1 C 4.84 g/m*3 7.1 C 0 km/h
720 07-03-2008 23:57:03 7.1 C 4.84 g/m*3 7.1 C 0 km/h
721 08-03-2008 00:09:03 7 C 4.8 g/m*3 7 C 0 km/h
722 08-03-2008 00:21:03 7.1 C 4.84 g/m*3 7.1 C 0 km/h
723 08-03-2008 00:33:03 7 C 4.88 g/m*3 7 C 0 km/h
724 08-03-2008 00:45:03 6.9 C 5 g/m*3 6.9 C 0 km/h
725 08-03-2008 00:57:03 6.8 C 5.05 g/m*3 6.8 C 0 km/h
Sensor: Nr:Datum:Temp:Abs-Feuchte:Windchill:Wind:
Aussen-T/F 726 08-03-2008 01:09:03 6.7 C 5.17 g/m*3 6.7 C 0 km/h
727 08-03-2008 01:21:03 6.7 C 5.24 g/m*3 6.7 C 0 km/h
728 08-03-2008 01:33:03 6.7 C 5.24 g/m*3 6.7 C 0 km/h
729 08-03-2008 01:45:03 6.7 C 5.24 g/m*3 6.7 C 0 km/h
730 08-03-2008 01:57:03 6.7 C 5.17 g/m*3 6.7 C 0 km/h
731 08-03-2008 02:09:03 6.7 C 5.17 g/m*3 6.7 C 0 km/h
732 08-03-2008 02:21:04 6.7 C 5.24 g/m*3 6.7 C 0 km/h
733 08-03-2008 02:33:04 6.4 C 5.29 g/m*3 6.4 C 0 km/h
734 08-03-2008 02:45:04 6.2 C 5.44 g/m*3 6.2 C 0 km/h
735 08-03-2008 02:57:04 6.1 C 5.48 g/m*3 6.1 C 0 km/h
736 08-03-2008 03:09:04 6.1 C 5.55 g/m*3 6.1 C 0 km/h
737 08-03-2008 03:21:04 6 C 5.59 g/m*3 6 C 0 km/h
738 08-03-2008 03:33:04 5.9 C 5.7 g/m*3 5.9 C 0 km/h
739 08-03-2008 03:45:04 5.9 C 5.77 g/m*3 5.9 C 0 km/h
740 08-03-2008 03:57:04 5.9 C 5.77 g/m*3 5.9 C 0 km/h
741 08-03-2008 04:09:04 5.9 C 5.77 g/m*3 5.9 C 0 km/h
742 08-03-2008 04:21:04 5.8 C 5.73 g/m*3 5.8 C 0 km/h
743 08-03-2008 04:33:04 5.7 C 5.76 g/m*3 5.7 C 0 km/h
744 08-03-2008 04:45:04 5.7 C 5.84 g/m*3 5.7 C 0 km/h
745 08-03-2008 04:57:04 5.7 C 5.76 g/m*3 5.7 C 0 km/h
746 08-03-2008 05:09:04 5.7 C 5.76 g/m*3 5.7 C 0 km/h
747 08-03-2008 05:21:04 5.5 C 5.69 g/m*3 5.5 C 0 km/h
748 08-03-2008 05:33:04 5.3 C 5.61 g/m*3 5.3 C 0 km/h
749 08-03-2008 05:45:04 5.2 C 5.65 g/m*3 5.2 C 0 km/h
750 08-03-2008 05:57:04 4.9 C 5.54 g/m*3 4.9 C 0 km/h
Sensor: Nr:Datum:Temp:Abs-Feuchte:Windchill:Wind:
Aussen-T/F 751 08-03-2008 06:09:04 4.6 C 5.43 g/m*3 4.6 C 0 km/h
752 08-03-2008 06:21:05 4.4 C 5.35 g/m*3 4.4 C 0 km/h
753 08-03-2008 06:33:05 4.2 C 5.28 g/m*3 4.2 C 0 km/h
754 08-03-2008 06:45:05 4.2 C 5.35 g/m*3 4.2 C 0 km/h
755 08-03-2008 06:57:05 3.9 C 5.31 g/m*3 3.9 C 0 km/h
756 08-03-2008 07:09:05 4.2 C 5.41 g/m*3 4.2 C 0 km/h
757 08-03-2008 07:21:05 4.1 C 5.44 g/m*3 4.1 C 0 km/h
758 08-03-2008 07:33:05 4.1 C 5.5 g/m*3 4.1 C 0 km/h
759 08-03-2008 07:45:05 4.1 C 5.5 g/m*3 4.1 C 0 km/h
760 08-03-2008 07:57:05 4.4 C 5.68 g/m*3 4.4 C 0 km/h
761 08-03-2008 08:09:05 4.4 C 5.62 g/m*3 4.4 C 0 km/h
762 08-03-2008 08:21:05 4.3 C 5.58 g/m*3 4.3 C 0 km/h
763 08-03-2008 08:33:05 4 C 5.4 g/m*3 4 C 0 km/h
764 08-03-2008 08:45:05 4 C 5.53 g/m*3 4 C 0 km/h
765 08-03-2008 08:57:05 4.1 C 5.63 g/m*3 4.1 C 0 km/h
766 08-03-2008 09:09:05 4.4 C 5.75 g/m*3 4.4 C 0 km/h
767 08-03-2008 09:21:05 4.5 C 5.72 g/m*3 4.5 C 0 km/h
768 08-03-2008 09:33:05 4.8 C 5.77 g/m*3 4.8 C 0 km/h
769 08-03-2008 09:45:02 5.2 C 5.58 g/m*3 5.2 C 0 km/h
770 08-03-2008 09:57:02 5.6 C 5.37 g/m*3 5.6 C 0 km/h
771 08-03-2008 10:09:02 6 C 4.94 g/m*3 6 C 0 km/h
772 08-03-2008 10:21:02 6.4 C 4.62 g/m*3 6.4 C 0 km/h
773 08-03-2008 10:33:02 6.8 C 4.13 g/m*3 6.8 C 0 km/h
774 08-03-2008 10:45:01 6.9 C 4.16 g/m*3 6.9 C 0 km/h
775 08-03-2008 10:57:01 7.3 C 3.87 g/m*3 7.3 C 0 km/h
Sensor: Nr:Datum:Temp:Abs-Feuchte:Windchill:Wind:
Aussen-T/F 776 08-03-2008 11:09:02 7.4 C 3.9 g/m*3 7.4 C 0 km/h
777 08-03-2008 11:21:01 7.6 C 3.63 g/m*3 7.6 C 0 km/h
778 08-03-2008 11:33:01 8.1 C 3.33 g/m*3 8.1 C 0 km/h
779 08-03-2008 11:45:02 8.2 C 3.18 g/m*3 8.2 C 0 km/h
780 08-03-2008 11:57:02 8.6 C 3.27 g/m*3 8.6 C 0 km/h
781 08-03-2008 12:09:03 8.8 C 3.22 g/m*3 8.8 C 0 km/h
782 08-03-2008 12:21:02 9.1 C 3.28 g/m*3 9.1 C 0 km/h
783 08-03-2008 12:33:02 9.1 C 3.37 g/m*3 9.1 C 0 km/h
784 08-03-2008 12:45:01 9.4 C 3.35 g/m*3 9.4 C 0 km/h
785 08-03-2008 12:57:01 9.7 C 3.41 g/m*3 9.7 C 0 km/h
786 08-03-2008 13:09:01 10 C 3.29 g/m*3 10 C 0 km/h
787 08-03-2008 13:21:01 10.3 C 3.26 g/m*3 10.3 C 0 km/h
788 08-03-2008 13:33:01 10.9 C 3.08 g/m*3 10.9 C 0 km/h
789 08-03-2008 13:45:02 11 C 3.1 g/m*3 11 C 0 km/h
790 08-03-2008 13:57:02 11.2 C 3.14 g/m*3 11.2 C 0 km/h
791 08-03-2008 14:09:02 11.3 C 3.26 g/m*3 11.3 C 0 km/h
792 08-03-2008 14:21:02 11.1 C 3.22 g/m*3 11.1 C 0 km/h
793 08-03-2008 14:33:01 11.1 C 3.22 g/m*3 11.1 C 0 km/h
794 08-03-2008 14:45:01 10.6 C 3.42 g/m*3 10.6 C 0 km/h
795 08-03-2008 14:57:01 10.3 C 3.35 g/m*3 10.3 C 0 km/h
796 08-03-2008 15:09:02 10.7 C 3.44 g/m*3 10.7 C 0 km/h
797 08-03-2008 15:21:01 11.2 C 3.34 g/m*3 11.2 C 0 km/h
798 08-03-2008 15:33:01 10.8 C 3.46 g/m*3 10.8 C 0 km/h
799 08-03-2008 15:45:01 11.2 C 3.45 g/m*3 11.2 C 0 km/h
800 08-03-2008 15:57:01 11.3 C 3.37 g/m*3 11.3 C 0 km/h
Sensor: Nr:Datum:Temp:Abs-Feuchte:Windchill:Wind:
Aussen-T/F 801 08-03-2008 16:09:01 10.9 C 3.18 g/m*3 10.9 C 0 km/h
802 08-03-2008 16:21:02 10.6 C 3.22 g/m*3 10.6 C 0 km/h
803 08-03-2008 16:33:01 10.4 C 3.28 g/m*3 10.4 C 0 km/h
804 08-03-2008 16:45:02 10.4 C 3.28 g/m*3 10.4 C 0 km/h
805 08-03-2008 16:57:02 10.1 C 3.31 g/m*3 10.1 C 0 km/h
806 08-03-2008 17:09:01 9.9 C 3.36 g/m*3 9.9 C 0 km/h
807 08-03-2008 17:21:02 9.7 C 3.23 g/m*3 9.7 C 0 km/h
808 08-03-2008 17:33:02 9.7 C 3.23 g/m*3 9.7 C 0 km/h
809 08-03-2008 17:45:02 9.6 C 3.21 g/m*3 9.6 C 0 km/h
810 08-03-2008 17:57:02 9.5 C 3.28 g/m*3 9.5 C 0 km/h
811 08-03-2008 18:09:02 8.9 C 3.5 g/m*3 8.9 C 0 km/h
812 08-03-2008 18:21:02 8.3 C 3.54 g/m*3 8.3 C 0 km/h
813 08-03-2008 18:33:02 7.6 C 3.71 g/m*3 7.6 C 0 km/h
814 08-03-2008 18:45:01 7.5 C 3.6 g/m*3 7.5 C 0 km/h
815 08-03-2008 18:57:01 7.4 C 3.5 g/m*3 7.4 C 0 km/h
816 08-03-2008 19:09:02 7.3 C 3.48 g/m*3 7.3 C 0 km/h
817 08-03-2008 19:21:02 7.1 C 3.43 g/m*3 7.1 C 0 km/h
818 08-03-2008 19:33:01 6.9 C 3.46 g/m*3 6.9 C 0 km/h
819 08-03-2008 19:45:02 6.8 C 3.44 g/m*3 6.8 C 0 km/h
820 08-03-2008 19:57:02 6.7 C 3.57 g/m*3 6.7 C 0 km/h
821 08-03-2008 20:09:02 6.2 C 3.6 g/m*3 6.2 C 0 km/h
822 08-03-2008 20:21:02 6.1 C 3.65 g/m*3 6.1 C 0 km/h
823 08-03-2008 20:33:01 6 C 3.63 g/m*3 6 C 0 km/h
824 08-03-2008 20:45:02 6 C 3.63 g/m*3 6 C 0 km/h
825 08-03-2008 20:57:02 5.8 C 3.72 g/m*3 5.8 C 0 km/h
Sensor: Nr:Datum:Temp:Abs-Feuchte:Windchill:Wind:
Aussen-T/F 826 08-03-2008 21:09:02 5.5 C 3.79 g/m*3 5.5 C 0 km/h
827 08-03-2008 21:21:02 5.6 C 3.68 g/m*3 5.6 C 0 km/h
828 08-03-2008 21:33:02 5.4 C 3.7 g/m*3 5.4 C 0 km/h
829 08-03-2008 21:45:03 5.4 C 3.7 g/m*3 5.4 C 0 km/h
830 08-03-2008 21:57:03 5.2 C 3.79 g/m*3 5.2 C 0 km/h
831 08-03-2008 22:09:02 5 C 3.74 g/m*3 5 C 0 km/h
832 08-03-2008 22:21:02 4.8 C 3.76 g/m*3 4.8 C 0 km/h
833 08-03-2008 22:34:03 4.6 C 3.77 g/m*3 4.6 C 0 km/h
834 08-03-2008 22:46:03 4.5 C 3.81 g/m*3 4.5 C 0 km/h
835 08-03-2008 22:58:03 4.5 C 3.88 g/m*3 4.5 C 0 km/h
836 08-03-2008 23:10:03 4.5 C 3.88 g/m*3 4.5 C 0 km/h
837 08-03-2008 23:22:04 4.5 C 3.94 g/m*3 4.5 C 0 km/h
838 08-03-2008 23:34:04 4.3 C 3.96 g/m*3 4.3 C 0 km/h
839 08-03-2008 23:46:04 4.4 C 4.05 g/m*3 4.4 C 0 km/h
840 08-03-2008 23:58:04 4.5 C 4.14 g/m*3 4.5 C 0 km/h
841 09-03-2008 00:10:04 4.4 C 4.11 g/m*3 4.4 C 0 km/h
842 09-03-2008 00:22:04 4.4 C 4.11 g/m*3 4.4 C 0 km/h
843 09-03-2008 00:34:04 4.1 C 4.1 g/m*3 4.1 C 0 km/h
844 09-03-2008 00:46:04 4 C 4.13 g/m*3 4 C 0 km/h
845 09-03-2008 00:58:04 3.8 C 4.2 g/m*3 3.8 C 0 km/h
846 09-03-2008 01:10:04 4 C 4.26 g/m*3 4 C 0 km/h
847 09-03-2008 01:22:04 4.1 C 4.29 g/m*3 4.1 C 0 km/h
848 09-03-2008 01:34:04 4.2 C 4.38 g/m*3 4.2 C 0 km/h
849 09-03-2008 01:46:04 4.2 C 4.32 g/m*3 4.2 C 0 km/h
850 09-03-2008 01:58:04 4 C 4.32 g/m*3 4 C 0 km/h
Sensor: Nr:Datum:Temp:Abs-Feuchte:Windchill:Wind:
Aussen-T/F 851 09-03-2008 02:10:04 4.1 C 4.48 g/m*3 4.1 C 0 km/h
852 09-03-2008 02:22:04 4.6 C 4.7 g/m*3 4.6 C 0 km/h
853 09-03-2008 02:34:04 4.8 C 4.69 g/m*3 4.8 C 0 km/h
854 09-03-2008 02:46:04 5 C 4.69 g/m*3 5 C 0 km/h
855 09-03-2008 02:58:04 5.3 C 4.57 g/m*3 5.3 C 0 km/h
856 09-03-2008 03:10:05 5.5 C 4.49 g/m*3 5.5 C 0 km/h
857 09-03-2008 03:22:05 5.7 C 4.48 g/m*3 5.7 C 0 km/h
858 09-03-2008 03:34:05 5.7 C 4.41 g/m*3 5.7 C 0 km/h
859 09-03-2008 03:46:05 5.8 C 4.37 g/m*3 5.8 C 0 km/h
860 09-03-2008 03:58:05 5.9 C 4.25 g/m*3 5.9 C 0 km/h
861 09-03-2008 04:10:05 5.9 C 4.25 g/m*3 5.9 C 0 km/h
862 09-03-2008 04:22:05 5.9 C 4.25 g/m*3 5.9 C 0 km/h
863 09-03-2008 04:34:05 5.8 C 4.3 g/m*3 5.8 C 0 km/h
864 09-03-2008 04:46:05 5.8 C 4.3 g/m*3 5.8 C 0 km/h
865 09-03-2008 04:58:05 5.8 C 4.3 g/m*3 5.8 C 0 km/h
866 09-03-2008 05:10:05 5.7 C 4.27 g/m*3 5.7 C 0 km/h
867 09-03-2008 05:22:05 5.5 C 4.21 g/m*3 5.5 C 0 km/h
868 09-03-2008 05:34:05 5.4 C 4.19 g/m*3 5.4 C 0 km/h
869 09-03-2008 05:46:05 5.3 C 4.23 g/m*3 5.3 C 0 km/h
870 09-03-2008 05:58:05 5.2 C 4.27 g/m*3 5.2 C 0 km/h
871 09-03-2008 06:10:05 5.2 C 4.27 g/m*3 5.2 C 0 km/h
872 09-03-2008 06:22:05 5.2 C 4.34 g/m*3 5.2 C 0 km/h
873 09-03-2008 06:34:05 5.2 C 4.34 g/m*3 5.2 C 0 km/h
874 09-03-2008 06:46:05 5.4 C 4.33 g/m*3 5.4 C 0 km/h
875 09-03-2008 06:58:05 5.5 C 4.28 g/m*3 5.5 C 0 km/h
Sensor: Nr:Datum:Temp:Abs-Feuchte:Windchill:Wind:
Aussen-T/F 876 09-03-2008 07:10:06 5.6 C 4.31 g/m*3 5.6 C 0 km/h
877 09-03-2008 07:22:06 5.8 C 4.3 g/m*3 5.8 C 0 km/h
878 09-03-2008 07:34:06 6 C 4.21 g/m*3 6 C 0 km/h
879 09-03-2008 07:46:06 6.1 C 4.24 g/m*3 6.1 C 0 km/h
880 09-03-2008 07:58:06 6.2 C 4.19 g/m*3 6.2 C 0 km/h
881 09-03-2008 08:10:06 6.5 C 4.27 g/m*3 6.5 C 0 km/h
882 09-03-2008 08:22:06 6.7 C 4.26 g/m*3 6.7 C 0 km/h
883 09-03-2008 08:34:06 6.8 C 4.21 g/m*3 6.8 C 0 km/h
884 09-03-2008 08:46:01 7 C 4.18 g/m*3 7 C 0 km/h
885 09-03-2008 08:58:01 7.2 C 4.16 g/m*3 7.2 C 0 km/h
886 09-03-2008 09:10:02 7.7 C 4.14 g/m*3 7.7 C 0 km/h
887 09-03-2008 09:22:02 8 C 4.05 g/m*3 8 C 0 km/h
888 09-03-2008 09:34:01 7.9 C 4.11 g/m*3 7.9 C 0 km/h
889 09-03-2008 09:46:03 7.8 C 4.08 g/m*3 7.8 C 0 km/h
890 09-03-2008 09:58:03 8 C 4.05 g/m*3 8 C 0 km/h
891 09-03-2008 10:10:02 8.1 C 3.99 g/m*3 8.1 C 0 km/h
892 09-03-2008 10:22:02 8.4 C 4.07 g/m*3 8.4 C 0 km/h
893 09-03-2008 10:34:02 9 C 4.06 g/m*3 9 C 0 km/h
894 09-03-2008 10:46:02 9.3 C 3.95 g/m*3 9.3 C 0 km/h
895 09-03-2008 10:58:02 10.1 C 3.97 g/m*3 10.1 C 0 km/h
896 09-03-2008 11:10:03 10 C 3.85 g/m*3 10 C 0 km/h
897 09-03-2008 11:22:02 9.9 C 3.92 g/m*3 9.9 C 0 km/h
898 09-03-2008 11:34:02 10.1 C 3.97 g/m*3 10.1 C 0 km/h
899 09-03-2008 11:46:02 10 C 3.95 g/m*3 10 C 0 km/h
900 09-03-2008 11:58:02 9.9 C 4.01 g/m*3 9.9 C 0 km/h
Sensor: Nr:Datum:Temp:Abs-Feuchte:Windchill:Wind:
Aussen-T/F 901 09-03-2008 12:10:02 10 C 3.95 g/m*3 10 C 0 km/h
902 09-03-2008 12:22:03 9.8 C 3.99 g/m*3 9.8 C 0 km/h
903 09-03-2008 12:34:02 9.8 C 3.99 g/m*3 9.8 C 0 km/h
904 09-03-2008 12:46:02 9.9 C 4.01 g/m*3 9.9 C 0 km/h
905 09-03-2008 12:58:02 9.8 C 3.99 g/m*3 9.8 C 0 km/h
906 09-03-2008 13:10:01 10.3 C 3.93 g/m*3 10.3 C 0 km/h
907 09-03-2008 13:22:02 10.1 C 3.88 g/m*3 10.1 C 0 km/h
908 09-03-2008 13:34:02 10.1 C 3.88 g/m*3 10.1 C 0 km/h
909 09-03-2008 13:46:02 10.1 C 3.88 g/m*3 10.1 C 0 km/h
910 09-03-2008 13:58:02 10 C 3.85 g/m*3 10 C 0 km/h
911 09-03-2008 14:10:02 10 C 3.85 g/m*3 10 C 0 km/h
912 09-03-2008 14:22:02 10.2 C 3.9 g/m*3 10.2 C 0 km/h
913 09-03-2008 14:34:02 10.5 C 3.98 g/m*3 10.5 C 0 km/h
914 09-03-2008 14:46:02 10.6 C 3.81 g/m*3 10.6 C 0 km/h
915 09-03-2008 14:58:02 10.9 C 3.68 g/m*3 10.9 C 0 km/h
916 09-03-2008 15:10:01 11.2 C 3.55 g/m*3 11.2 C 0 km/h
917 09-03-2008 15:22:01 11.2 C 3.55 g/m*3 11.2 C 0 km/h
918 09-03-2008 15:34:02 11.3 C 3.47 g/m*3 11.3 C 0 km/h
919 09-03-2008 15:46:03 11.4 C 3.49 g/m*3 11.4 C 0 km/h
920 09-03-2008 15:58:03 11.1 C 3.32 g/m*3 11.1 C 0 km/h
921 09-03-2008 16:10:03 10.8 C 3.46 g/m*3 10.8 C 0 km/h
922 09-03-2008 16:22:02 10.9 C 3.48 g/m*3 10.9 C 0 km/h
923 09-03-2008 16:34:02 10.8 C 3.46 g/m*3 10.8 C 0 km/h
924 09-03-2008 16:46:02 10.6 C 3.42 g/m*3 10.6 C 0 km/h
925 09-03-2008 16:58:03 10.5 C 3.49 g/m*3 10.5 C 0 km/h
Sensor: Nr:Datum:Temp:Abs-Feuchte:Windchill:Wind:
Aussen-T/F 926 09-03-2008 17:10:01 10.4 C 3.57 g/m*3 10.4 C 0 km/h
927 09-03-2008 17:22:02 10.3 C 3.54 g/m*3 10.3 C 0 km/h
928 09-03-2008 17:34:02 10.2 C 3.52 g/m*3 10.2 C 0 km/h
929 09-03-2008 17:46:02 10.1 C 3.69 g/m*3 10.1 C 0 km/h
930 09-03-2008 17:58:02 10 C 3.57 g/m*3 10 C 0 km/h
931 09-03-2008 18:10:02 10 C 3.57 g/m*3 10 C 0 km/h
932 09-03-2008 18:22:02 10 C 3.57 g/m*3 10 C 0 km/h
933 09-03-2008 18:34:02 9.8 C 3.62 g/m*3 9.8 C 0 km/h
934 09-03-2008 18:46:02 9.6 C 3.66 g/m*3 9.6 C 0 km/h
935 09-03-2008 18:58:02 9.4 C 3.62 g/m*3 9.4 C 0 km/h
936 09-03-2008 19:10:02 9.3 C 3.59 g/m*3 9.3 C 0 km/h
937 09-03-2008 19:22:02 9.4 C 3.71 g/m*3 9.4 C 0 km/h
938 09-03-2008 19:34:02 9.1 C 3.73 g/m*3 9.1 C 0 km/h
939 09-03-2008 19:46:02 9.1 C 3.73 g/m*3 9.1 C 0 km/h
940 09-03-2008 19:58:02 9.1 C 3.73 g/m*3 9.1 C 0 km/h
941 09-03-2008 20:10:02 9.1 C 3.82 g/m*3 9.1 C 0 km/h
942 09-03-2008 20:22:02 9.1 C 3.73 g/m*3 9.1 C 0 km/h
943 09-03-2008 20:34:02 9.1 C 3.73 g/m*3 9.1 C 0 km/h
944 09-03-2008 20:46:02 9.1 C 3.73 g/m*3 9.1 C 0 km/h
945 09-03-2008 20:58:02 9.2 C 3.66 g/m*3 9.2 C 0 km/h
946 09-03-2008 21:10:02 9.3 C 3.77 g/m*3 9.3 C 0 km/h
947 09-03-2008 21:22:02 9.4 C 3.71 g/m*3 9.4 C 0 km/h
948 09-03-2008 21:34:02 9.7 C 3.78 g/m*3 9.7 C 0 km/h
949 09-03-2008 21:46:02 9.7 C 3.78 g/m*3 9.7 C 0 km/h
950 09-03-2008 21:58:02 9.6 C 3.94 g/m*3 9.6 C 0 km/h
Sensor: Nr:Datum:Temp:Abs-Feuchte:Windchill:Wind:
Aussen-T/F 951 09-03-2008 22:10:03 9.6 C 4.12 g/m*3 9.6 C 0 km/h
952 09-03-2008 22:23:02 9.5 C 4.19 g/m*3 9.5 C 0 km/h
953 09-03-2008 22:35:02 9.5 C 4.19 g/m*3 9.5 C 0 km/h
954 09-03-2008 22:47:02 9.5 C 4.28 g/m*3 9.5 C 0 km/h
955 09-03-2008 22:59:02 9.3 C 4.31 g/m*3 9.3 C 0 km/h
956 09-03-2008 23:11:02 9.1 C 4.26 g/m*3 9.1 C 0 km/h
957 09-03-2008 23:23:02 9.1 C 4.44 g/m*3 9.1 C 0 km/h
958 09-03-2008 23:35:02 9.1 C 4.44 g/m*3 9.1 C 0 km/h
959 09-03-2008 23:47:02 8.9 C 4.47 g/m*3 8.9 C 0 km/h
960 09-03-2008 23:59:02 8.9 C 4.47 g/m*3 8.9 C 0 km/h
961 10-03-2008 00:11:03 8.7 C 4.41 g/m*3 8.7 C 0 km/h
962 10-03-2008 00:23:03 8.6 C 4.38 g/m*3 8.6 C 0 km/h
963 10-03-2008 00:35:03 8.2 C 4.27 g/m*3 8.2 C 0 km/h
964 10-03-2008 00:47:03 7.9 C 4.35 g/m*3 7.9 C 0 km/h
965 10-03-2008 00:59:03 7.9 C 4.35 g/m*3 7.9 C 0 km/h
966 10-03-2008 01:11:03 7.5 C 4.32 g/m*3 7.5 C 0 km/h
967 10-03-2008 01:23:03 7.3 C 4.42 g/m*3 7.3 C 0 km/h
968 10-03-2008 01:35:03 7.3 C 4.42 g/m*3 7.3 C 0 km/h
969 10-03-2008 01:47:03 7.6 C 4.51 g/m*3 7.6 C 0 km/h
970 10-03-2008 01:59:03 7.8 C 4.49 g/m*3 7.8 C 0 km/h
971 10-03-2008 02:11:03 7.8 C 4.49 g/m*3 7.8 C 0 km/h
972 10-03-2008 02:23:03 7.9 C 4.44 g/m*3 7.9 C 0 km/h
973 10-03-2008 02:35:03 8 C 4.38 g/m*3 8 C 0 km/h
974 10-03-2008 02:47:03 8 C 4.3 g/m*3 8 C 0 km/h
975 10-03-2008 02:59:03 7.7 C 4.62 g/m*3 7.7 C 0 km/h
Sensor: Nr:Datum:Temp:Abs-Feuchte:Windchill:Wind:
Aussen-T/F 976 10-03-2008 03:11:03 7.2 C 4.87 g/m*3 7.2 C 0 km/h
977 10-03-2008 03:23:03 7.1 C 4.91 g/m*3 7.1 C 0 km/h
978 10-03-2008 03:35:03 7.1 C 4.91 g/m*3 7.1 C 0 km/h
979 10-03-2008 03:47:03 7.5 C 4.88 g/m*3 7.5 C 0 km/h
980 10-03-2008 03:59:03 7.7 C 4.62 g/m*3 7.7 C 0 km/h
981 10-03-2008 04:11:04 7.8 C 4.57 g/m*3 7.8 C 0 km/h
982 10-03-2008 04:23:04 7.6 C 4.51 g/m*3 7.6 C 0 km/h
983 10-03-2008 04:35:04 7.4 C 4.53 g/m*3 7.4 C 0 km/h
984 10-03-2008 04:47:04 7.2 C 4.4 g/m*3 7.2 C 0 km/h
985 10-03-2008 04:59:04 7.1 C 4.29 g/m*3 7.1 C 0 km/h
986 10-03-2008 05:11:04 6.8 C 4.36 g/m*3 6.8 C 0 km/h
987 10-03-2008 05:23:04 6.6 C 4.23 g/m*3 6.6 C 0 km/h
988 10-03-2008 05:35:04 6.7 C 4.26 g/m*3 6.7 C 0 km/h
989 10-03-2008 05:47:04 7.1 C 4.21 g/m*3 7.1 C 0 km/h
990 10-03-2008 05:59:04 7.5 C 4.16 g/m*3 7.5 C 0 km/h
991 10-03-2008 06:11:04 7.5 C 4.08 g/m*3 7.5 C 0 km/h
992 10-03-2008 06:23:04 7.4 C 4.06 g/m*3 7.4 C 0 km/h
993 10-03-2008 06:35:04 7.2 C 4.08 g/m*3 7.2 C 0 km/h
994 10-03-2008 06:47:04 7.1 C 4.21 g/m*3 7.1 C 0 km/h
995 10-03-2008 06:59:04 6.3 C 4.59 g/m*3 6.3 C 0 km/h
996 10-03-2008 07:11:02 5.9 C 4.76 g/m*3 5.9 C 0 km/h
997 10-03-2008 07:23:02 5.7 C 4.77 g/m*3 5.7 C 0 km/h
998 10-03-2008 07:35:02 5.8 C 4.87 g/m*3 5.8 C 0 km/h
999 10-03-2008 07:47:01 6 C 4.79 g/m*3 6 C 0 km/h
1000 10-03-2008 07:59:01 6.2 C 4.78 g/m*3 6.2 C 0 km/h
Sensor: Nr:Datum:Temp:Abs-Feuchte:Windchill:Wind:
Aussen-T/F 1001 10-03-2008 08:11:01 6.7 C 4.71 g/m*3 6.7 C 0 km/h
1002 10-03-2008 08:23:02 7.1 C 4.68 g/m*3 7.1 C 0 km/h
1003 10-03-2008 08:35:01 7.4 C 4.61 g/m*3 7.4 C 0 km/h
1004 10-03-2008 08:47:01 7.5 C 4 g/m*3 7.5 C 0 km/h
1005 10-03-2008 08:59:01 7.5 C 4 g/m*3 7.5 C 0 km/h
1006 10-03-2008 09:11:01 7.7 C 4.05 g/m*3 7.7 C 0 km/h
1007 10-03-2008 09:23:02 8.1 C 3.99 g/m*3 8.1 C 0 km/h
1008 10-03-2008 09:35:01 8.5 C 4.1 g/m*3 8.5 C 0 km/h
1009 10-03-2008 09:47:01 9.1 C 3.99 g/m*3 9.1 C 0 km/h
1010 10-03-2008 09:59:01 9.3 C 3.68 g/m*3 9.3 C 0 km/h
1011 10-03-2008 10:11:01 9.5 C 3.64 g/m*3 9.5 C 0 km/h
1012 10-03-2008 10:23:02 9.6 C 3.57 g/m*3 9.6 C 0 km/h
1013 10-03-2008 10:35:01 9.6 C 3.57 g/m*3 9.6 C 0 km/h
1014 10-03-2008 10:47:02 9.7 C 3.5 g/m*3 9.7 C 0 km/h
1015 10-03-2008 10:59:02 10 C 3.29 g/m*3 10 C 0 km/h
1016 10-03-2008 11:11:01 10 C 3.1 g/m*3 10 C 0 km/h
1017 10-03-2008 11:23:02 9.9 C 3.08 g/m*3 9.9 C 0 km/h
1018 10-03-2008 11:35:02 10.1 C 3.03 g/m*3 10.1 C 0 km/h
1019 10-03-2008 11:47:02 10.4 C 2.99 g/m*3 10.4 C 0 km/h
1020 10-03-2008 11:59:02 10.5 C 3.01 g/m*3 10.5 C 0 km/h
1021 10-03-2008 12:11:02 10.9 C 3.18 g/m*3 10.9 C 0 km/h
1022 10-03-2008 12:23:02 10.8 C 3.06 g/m*3 10.8 C 0 km/h
1023 10-03-2008 12:35:02 10.8 C 2.97 g/m*3 10.8 C 0 km/h
1024 10-03-2008 12:47:02 10.9 C 2.98 g/m*3 10.9 C 0 km/h
1025 10-03-2008 12:59:02 11.4 C 3.08 g/m*3 11.4 C 0 km/h
Sensor: Nr:Datum:Temp:Abs-Feuchte:Windchill:Wind:
Aussen-T/F 1026 10-03-2008 13:11:02 11.8 C 2.95 g/m*3 11.8 C 0 km/h
1027 10-03-2008 13:23:02 11.8 C 2.95 g/m*3 11.8 C 0 km/h
1028 10-03-2008 13:35:02 12 C 2.77 g/m*3 12 C 0 km/h
1029 10-03-2008 13:47:01 12 C 2.66 g/m*3 12 C 0 km/h
1030 10-03-2008 13:59:01 11.9 C 2.75 g/m*3 11.9 C 0 km/h
1031 10-03-2008 14:11:01 11.6 C 2.81 g/m*3 11.6 C 0 km/h
1032 10-03-2008 14:23:02 11.3 C 3.26 g/m*3 11.3 C 0 km/h
1033 10-03-2008 14:35:01 10.7 C 3.83 g/m*3 10.7 C 0 km/h
1034 10-03-2008 14:47:01 11 C 3.5 g/m*3 11 C 0 km/h
1035 10-03-2008 14:59:01 10.7 C 3.44 g/m*3 10.7 C 0 km/h
1036 10-03-2008 15:11:01 10.8 C 3.56 g/m*3 10.8 C 0 km/h
1037 10-03-2008 15:23:02 10.7 C 3.44 g/m*3 10.7 C 0 km/h
1038 10-03-2008 15:35:01 10.8 C 3.06 g/m*3 10.8 C 0 km/h
1039 10-03-2008 15:47:02 11.1 C 2.62 g/m*3 11.1 C 0 km/h
1040 10-03-2008 15:59:02 10.5 C 3.01 g/m*3 10.5 C 0 km/h
1041 10-03-2008 16:11:01 10.2 C 3.33 g/m*3 10.2 C 0 km/h
1042 10-03-2008 16:23:02 9.7 C 3.69 g/m*3 9.7 C 0 km/h
1043 10-03-2008 16:35:01 8.5 C 4.27 g/m*3 8.5 C 0 km/h
1044 10-03-2008 16:47:01 7.6 C 4.75 g/m*3 7.6 C 0 km/h
1045 10-03-2008 16:59:01 7.1 C 4.99 g/m*3 7.1 C 0 km/h
1046 10-03-2008 17:11:02 6.7 C 5.24 g/m*3 6.7 C 0 km/h
1047 10-03-2008 17:23:02 6.6 C 5.44 g/m*3 6.6 C 0 km/h
1048 10-03-2008 17:35:01 6.3 C 5.33 g/m*3 6.3 C 0 km/h
1049 10-03-2008 17:47:02 6.1 C 5.33 g/m*3 6.1 C 0 km/h
1050 10-03-2008 17:59:02 6 C 5.52 g/m*3 6 C 0 km/h
Sensor: Nr:Datum:Temp:Abs-Feuchte:Windchill:Wind:
Aussen-T/F 1051 10-03-2008 18:11:02 5.9 C 5.62 g/m*3 5.9 C 0 km/h
1052 10-03-2008 18:23:01 5.9 C 5.7 g/m*3 5.9 C 0 km/h
1053 10-03-2008 18:35:01 5.8 C 5.66 g/m*3 5.8 C 0 km/h
1054 10-03-2008 18:47:02 5.8 C 5.73 g/m*3 5.8 C 0 km/h
1055 10-03-2008 18:59:02 5.8 C 5.8 g/m*3 5.8 C 0 km/h
1056 10-03-2008 19:11:03 6.2 C 5.74 g/m*3 6.2 C 0 km/h
1057 10-03-2008 19:23:02 6.5 C 5.62 g/m*3 6.5 C 0 km/h
1058 10-03-2008 19:35:02 7 C 5.42 g/m*3 7 C 0 km/h
1059 10-03-2008 19:47:01 7 C 5.27 g/m*3 7 C 0 km/h
1060 10-03-2008 19:59:01 7 C 5.04 g/m*3 7 C 0 km/h
1061 10-03-2008 20:11:01 7.2 C 4.87 g/m*3 7.2 C 0 km/h
1062 10-03-2008 20:23:02 7.4 C 4.77 g/m*3 7.4 C 0 km/h
1063 10-03-2008 20:35:01 7.4 C 4.61 g/m*3 7.4 C 0 km/h
1064 10-03-2008 20:47:02 7.4 C 4.61 g/m*3 7.4 C 0 km/h
1065 10-03-2008 20:59:02 7.5 C 4.56 g/m*3 7.5 C 0 km/h
1066 10-03-2008 21:11:02 7.6 C 4.51 g/m*3 7.6 C 0 km/h
1067 10-03-2008 21:23:01 7.7 C 4.54 g/m*3 7.7 C 0 km/h
1068 10-03-2008 21:35:02 7.8 C 4.41 g/m*3 7.8 C 0 km/h
1069 10-03-2008 21:47:02 7.8 C 4.49 g/m*3 7.8 C 0 km/h
1070 10-03-2008 21:59:02 8 C 4.22 g/m*3 8 C 0 km/h
1071 10-03-2008 22:12:03 8 C 4.13 g/m*3 8 C 0 km/h
1072 10-03-2008 22:24:03 8 C 4.13 g/m*3 8 C 0 km/h
1073 10-03-2008 22:36:03 8 C 4.05 g/m*3 8 C 0 km/h
1074 10-03-2008 22:48:03 8 C 4.05 g/m*3 8 C 0 km/h
1075 10-03-2008 23:00:03 8 C 4.05 g/m*3 8 C 0 km/h
Sensor: Nr:Datum:Temp:Abs-Feuchte:Windchill:Wind:
Aussen-T/F 1076 10-03-2008 23:12:03 8 C 4.13 g/m*3 8 C 0 km/h
1077 10-03-2008 23:24:03 8.1 C 4.16 g/m*3 8.1 C 0 km/h
1078 10-03-2008 23:36:03 8.1 C 4.16 g/m*3 8.1 C 0 km/h
1079 10-03-2008 23:48:03 8.2 C 4.19 g/m*3 8.2 C 0 km/h
1080 11-03-2008 00:00:03 8.1 C 4.16 g/m*3 8.1 C 0 km/h
1081 11-03-2008 00:12:03 8.1 C 4.24 g/m*3 8.1 C 0 km/h
1082 11-03-2008 00:24:03 8 C 4.22 g/m*3 8 C 0 km/h
1083 11-03-2008 00:36:04 8 C 4.3 g/m*3 8 C 0 km/h
1084 11-03-2008 00:48:04 7.9 C 4.44 g/m*3 7.9 C 0 km/h
1085 11-03-2008 01:00:04 8 C 4.38 g/m*3 8 C 0 km/h
1086 11-03-2008 01:12:04 7.9 C 4.6 g/m*3 7.9 C 0 km/h
1087 11-03-2008 01:24:04 7.9 C 4.6 g/m*3 7.9 C 0 km/h
1088 11-03-2008 01:36:04 8.1 C 4.58 g/m*3 8.1 C 0 km/h
1089 11-03-2008 01:48:04 8.1 C 4.49 g/m*3 8.1 C 0 km/h
1090 11-03-2008 02:00:04 8.1 C 4.49 g/m*3 8.1 C 0 km/h
1091 11-03-2008 02:12:04 8 C 4.55 g/m*3 8 C 0 km/h
1092 11-03-2008 02:24:04 8.1 C 4.58 g/m*3 8.1 C 0 km/h
1093 11-03-2008 02:36:04 8.1 C 4.58 g/m*3 8.1 C 0 km/h
1094 11-03-2008 02:48:04 8.1 C 4.66 g/m*3 8.1 C 0 km/h
1095 11-03-2008 03:00:04 7.9 C 4.85 g/m*3 7.9 C 0 km/h
1096 11-03-2008 03:12:04 7.8 C 4.9 g/m*3 7.8 C 0 km/h
1097 11-03-2008 03:24:04 7.6 C 5.08 g/m*3 7.6 C 0 km/h
1098 11-03-2008 03:36:04 7.5 C 5.2 g/m*3 7.5 C 0 km/h
1099 11-03-2008 03:48:04 7.5 C 5.2 g/m*3 7.5 C 0 km/h
1100 11-03-2008 04:00:04 7.4 C 5.25 g/m*3 7.4 C 0 km/h
Sensor: Nr:Datum:Temp:Abs-Feuchte:Windchill:Wind:
Aussen-T/F 1101 11-03-2008 04:12:04 7.5 C 5.12 g/m*3 7.5 C 0 km/h
1102 11-03-2008 04:24:04 7.6 C 5.08 g/m*3 7.6 C 0 km/h
1103 11-03-2008 04:36:05 7.6 C 5.08 g/m*3 7.6 C 0 km/h
1104 11-03-2008 04:48:05 7.6 C 4.91 g/m*3 7.6 C 0 km/h
1105 11-03-2008 05:00:05 7.5 C 4.96 g/m*3 7.5 C 0 km/h
1106 11-03-2008 05:12:05 7.4 C 5.01 g/m*3 7.4 C 0 km/h
1107 11-03-2008 05:24:05 7.3 C 5.06 g/m*3 7.3 C 0 km/h
1108 11-03-2008 05:36:05 7 C 5.11 g/m*3 7 C 0 km/h
1109 11-03-2008 05:48:05 6.9 C 5.23 g/m*3 6.9 C 0 km/h
1110 11-03-2008 06:00:05 6.8 C 5.28 g/m*3 6.8 C 0 km/h
1111 11-03-2008 06:12:05 6.9 C 5.23 g/m*3 6.9 C 0 km/h
1112 11-03-2008 06:24:05 7 C 5.11 g/m*3 7 C 0 km/h
1113 11-03-2008 06:36:05 7.2 C 4.95 g/m*3 7.2 C 0 km/h
1114 11-03-2008 06:48:05 7.3 C 4.9 g/m*3 7.3 C 0 km/h
1115 11-03-2008 07:00:05 7.2 C 4.95 g/m*3 7.2 C 0 km/h
1116 11-03-2008 07:12:02 7.1 C 5.07 g/m*3 7.1 C 0 km/h
1117 11-03-2008 07:24:02 6.7 C 5.32 g/m*3 6.7 C 0 km/h
1118 11-03-2008 07:36:02 6.4 C 5.59 g/m*3 6.4 C 0 km/h
1119 11-03-2008 07:48:02 6.4 C 5.66 g/m*3 6.4 C 0 km/h
1120 11-03-2008 08:00:03 6.3 C 5.63 g/m*3 6.3 C 0 km/h
1121 11-03-2008 08:12:01 6.3 C 5.77 g/m*3 6.3 C 0 km/h
1122 11-03-2008 08:24:02 6.1 C 5.48 g/m*3 6.1 C 0 km/h
1123 11-03-2008 08:36:01 6.1 C 5.48 g/m*3 6.1 C 0 km/h
1124 11-03-2008 08:48:02 6.2 C 5.52 g/m*3 6.2 C 0 km/h
1125 11-03-2008 09:00:02 6 C 5.44 g/m*3 6 C 0 km/h
Sensor: Nr:Datum:Temp:Abs-Feuchte:Windchill:Wind:
Aussen-T/F 1126 11-03-2008 09:12:01 5.9 C 5.41 g/m*3 5.9 C 0 km/h
1127 11-03-2008 09:24:02 6.1 C 5.48 g/m*3 6.1 C 0 km/h
1128 11-03-2008 09:36:02 6.2 C 5.59 g/m*3 6.2 C 0 km/h
1129 11-03-2008 09:48:02 6.4 C 5.66 g/m*3 6.4 C 0 km/h
1130 11-03-2008 10:00:03 6.8 C 5.66 g/m*3 6.8 C 0 km/h
1131 11-03-2008 10:12:02 7.5 C 5.44 g/m*3 7.5 C 0 km/h
1132 11-03-2008 10:24:02 7.9 C 5.26 g/m*3 7.9 C 0 km/h
1133 11-03-2008 10:36:02 8.3 C 5.14 g/m*3 8.3 C 0 km/h
1134 11-03-2008 10:48:02 8.5 C 5.04 g/m*3 8.5 C 0 km/h
1135 11-03-2008 11:00:02 8.8 C 4.96 g/m*3 8.8 C 0 km/h
1136 11-03-2008 11:12:01 9.2 C 4.82 g/m*3 9.2 C 0 km/h
1137 11-03-2008 11:24:02 9.2 C 4.82 g/m*3 9.2 C 0 km/h
1138 11-03-2008 11:36:02 9 C 4.58 g/m*3 9 C 0 km/h
1139 11-03-2008 11:48:02 9 C 4.67 g/m*3 9 C 0 km/h
1140 11-03-2008 12:00:02 8.8 C 4.79 g/m*3 8.8 C 0 km/h
1141 11-03-2008 12:12:02 9.5 C 5.01 g/m*3 9.5 C 0 km/h
1142 11-03-2008 12:24:02 8.3 C 5.14 g/m*3 8.3 C 0 km/h
1143 11-03-2008 12:36:02 8 C 5.37 g/m*3 8 C 0 km/h
1144 11-03-2008 12:48:02 8.5 C 5.72 g/m*3 8.5 C 0 km/h
1145 11-03-2008 13:00:02 9.1 C 4.88 g/m*3 9.1 C 0 km/h
1146 11-03-2008 13:12:02 9.8 C 4.55 g/m*3 9.8 C 0 km/h
1147 11-03-2008 13:24:03 10.4 C 4.14 g/m*3 10.4 C 0 km/h
1148 11-03-2008 13:36:02 9.7 C 4.24 g/m*3 9.7 C 0 km/h
1149 11-03-2008 13:48:01 9.9 C 4.2 g/m*3 9.9 C 0 km/h
1150 11-03-2008 14:00:01 9.9 C 4.01 g/m*3 9.9 C 0 km/h
Sensor: Nr:Datum:Temp:Abs-Feuchte:Windchill:Wind:
Aussen-T/F 1151 11-03-2008 14:12:01 9.6 C 3.85 g/m*3 9.6 C 0 km/h
1152 11-03-2008 14:24:02 9.8 C 4.08 g/m*3 9.8 C 0 km/h
1153 11-03-2008 14:36:01 10 C 3.76 g/m*3 10 C 0 km/h
1154 11-03-2008 14:48:01 9.7 C 3.69 g/m*3 9.7 C 0 km/h
1155 11-03-2008 15:00:01 9.5 C 3.73 g/m*3 9.5 C 0 km/h
1156 11-03-2008 15:12:02 9.8 C 3.71 g/m*3 9.8 C 0 km/h
1157 11-03-2008 15:24:02 9.8 C 3.71 g/m*3 9.8 C 0 km/h
1158 11-03-2008 15:36:01 9.7 C 3.69 g/m*3 9.7 C 0 km/h
1159 11-03-2008 15:48:01 10 C 3.76 g/m*3 10 C 0 km/h
1160 11-03-2008 16:00:01 10 C 3.76 g/m*3 10 C 0 km/h
1161 11-03-2008 16:12:02 9.9 C 3.83 g/m*3 9.9 C 0 km/h
1162 11-03-2008 16:24:02 9.8 C 3.9 g/m*3 9.8 C 0 km/h
1163 11-03-2008 16:36:01 9.1 C 4.35 g/m*3 9.1 C 0 km/h
1164 11-03-2008 16:48:01 8.7 C 4.67 g/m*3 8.7 C 0 km/h
1165 11-03-2008 17:00:01 8.6 C 4.73 g/m*3 8.6 C 0 km/h
1166 11-03-2008 17:12:02 8.4 C 4.75 g/m*3 8.4 C 0 km/h
1167 11-03-2008 17:24:01 8.4 C 4.84 g/m*3 8.4 C 0 km/h
1168 11-03-2008 17:36:01 8 C 5.04 g/m*3 8 C 0 km/h
1169 11-03-2008 17:48:01 7.6 C 5.24 g/m*3 7.6 C 0 km/h
1170 11-03-2008 18:00:01 7.4 C 5.49 g/m*3 7.4 C 0 km/h
1171 11-03-2008 18:12:02 7.3 C 5.53 g/m*3 7.3 C 0 km/h
1172 11-03-2008 18:24:01 7.6 C 5.64 g/m*3 7.6 C 0 km/h
1173 11-03-2008 18:36:01 7.6 C 5.72 g/m*3 7.6 C 0 km/h
1174 11-03-2008 18:48:01 7.4 C 5.96 g/m*3 7.4 C 0 km/h
1175 11-03-2008 19:00:01 7.4 C 6.2 g/m*3 7.4 C 0 km/h
Sensor: Nr:Datum:Temp:Abs-Feuchte:Windchill:Wind:
Aussen-T/F 1176 11-03-2008 19:12:01 7.5 C 6.32 g/m*3 7.5 C 0 km/h
1177 11-03-2008 19:24:02 8 C 6.37 g/m*3 8 C 0 km/h
1178 11-03-2008 19:36:01 8.4 C 6.36 g/m*3 8.4 C 0 km/h
1179 11-03-2008 19:48:02 8.4 C 6.28 g/m*3 8.4 C 0 km/h
1180 11-03-2008 20:00:02 8.6 C 6.44 g/m*3 8.6 C 0 km/h
1181 11-03-2008 20:12:01 8.5 C 6.57 g/m*3 8.5 C 0 km/h
1182 11-03-2008 20:24:02 8.6 C 6.62 g/m*3 8.6 C 0 km/h
1183 11-03-2008 20:36:02 8.9 C 6.75 g/m*3 8.9 C 0 km/h
1184 11-03-2008 20:48:02 9.2 C 6.79 g/m*3 9.2 C 0 km/h
1185 11-03-2008 21:00:02 9.5 C 6.83 g/m*3 9.5 C 0 km/h
1186 11-03-2008 21:12:02 9.8 C 6.77 g/m*3 9.8 C 0 km/h
1187 11-03-2008 21:24:03 9.8 C 6.77 g/m*3 9.8 C 0 km/h
1188 11-03-2008 21:36:02 9.8 C 6.96 g/m*3 9.8 C 0 km/h
1189 11-03-2008 21:48:02 9.7 C 7.1 g/m*3 9.7 C 0 km/h
1190 11-03-2008 22:00:02 9.9 C 7.28 g/m*3 9.9 C 0 km/h
1191 11-03-2008 22:12:02 10.1 C 7.38 g/m*3 10.1 C 0 km/h
1192 11-03-2008 22:25:01 10.5 C 7.47 g/m*3 10.5 C 0 km/h
1193 11-03-2008 22:37:01 10.7 C 7.56 g/m*3 10.7 C 0 km/h
1194 11-03-2008 22:49:01 10.7 C 7.66 g/m*3 10.7 C 0 km/h
1195 11-03-2008 23:01:01 11 C 7.61 g/m*3 11 C 0 km/h
1196 11-03-2008 23:13:01 11.3 C 7.75 g/m*3 11.3 C 0 km/h
1197 11-03-2008 23:25:01 11.1 C 7.96 g/m*3 11.1 C 0 km/h
1198 11-03-2008 23:37:01 11.1 C 8.06 g/m*3 11.1 C 0 km/h
1199 11-03-2008 23:49:01 11.1 C 8.16 g/m*3 11.1 C 0 km/h
1200 12-03-2008 00:01:02 11.3 C 8.16 g/m*3 11.3 C 0 km/h
Sensor: Nr:Datum:Temp:Abs-Feuchte:Windchill:Wind:
Aussen-T/F 1201 12-03-2008 00:13:02 11.9 C 7.2 g/m*3 11.9 C 0 km/h
1202 12-03-2008 00:25:02 12.2 C 6.47 g/m*3 12.2 C 0 km/h
1203 12-03-2008 00:37:02 12.4 C 6.34 g/m*3 12.4 C 0 km/h
1204 12-03-2008 00:49:02 12.4 C 6.01 g/m*3 12.4 C 0 km/h
1205 12-03-2008 01:01:02 12.6 C 5.53 g/m*3 12.6 C 0 km/h
1206 12-03-2008 01:13:02 12.3 C 5.43 g/m*3 12.3 C 0 km/h
1207 12-03-2008 01:25:02 11.9 C 5.61 g/m*3 11.9 C 0 km/h
1208 12-03-2008 01:37:02 11.7 C 5.23 g/m*3 11.7 C 0 km/h
1209 12-03-2008 01:49:02 11.5 C 5.27 g/m*3 11.5 C 0 km/h
1210 12-03-2008 02:01:02 11.1 C 5.24 g/m*3 11.1 C 0 km/h
1211 12-03-2008 02:13:02 10.9 C 5.47 g/m*3 10.9 C 0 km/h
1212 12-03-2008 02:25:02 9.9 C 6.07 g/m*3 9.9 C 0 km/h
1213 12-03-2008 02:37:02 9.5 C 6.37 g/m*3 9.5 C 0 km/h
1214 12-03-2008 02:49:02 9.2 C 6.61 g/m*3 9.2 C 0 km/h
1215 12-03-2008 03:01:02 9.2 C 6.61 g/m*3 9.2 C 0 km/h
1216 12-03-2008 03:13:02 9.1 C 6.57 g/m*3 9.1 C 0 km/h
1217 12-03-2008 03:25:02 9.1 C 6.57 g/m*3 9.1 C 0 km/h
1218 12-03-2008 03:37:02 9 C 6.7 g/m*3 9 C 0 km/h
1219 12-03-2008 03:49:02 9 C 6.7 g/m*3 9 C 0 km/h
1220 12-03-2008 04:01:02 9.2 C 6.43 g/m*3 9.2 C 0 km/h
1221 12-03-2008 04:13:03 9.5 C 6.28 g/m*3 9.5 C 0 km/h
1222 12-03-2008 04:25:03 9.4 C 6.06 g/m*3 9.4 C 0 km/h
1223 12-03-2008 04:37:03 9.2 C 5.89 g/m*3 9.2 C 0 km/h
1224 12-03-2008 04:49:03 9.4 C 5.88 g/m*3 9.4 C 0 km/h
1225 12-03-2008 05:01:03 9.3 C 5.66 g/m*3 9.3 C 0 km/h
Sensor: Nr:Datum:Temp:Abs-Feuchte:Windchill:Wind:
Aussen-T/F 1226 12-03-2008 05:13:03 9.2 C 5.54 g/m*3 9.2 C 0 km/h
1227 12-03-2008 05:25:03 9.1 C 5.5 g/m*3 9.1 C 0 km/h
1228 12-03-2008 05:37:03 9.3 C 5.39 g/m*3 9.3 C 0 km/h
1229 12-03-2008 05:49:03 9 C 5.29 g/m*3 9 C 0 km/h
1230 12-03-2008 06:01:03 9.2 C 5.18 g/m*3 9.2 C 0 km/h
1231 12-03-2008 06:13:03 9.1 C 5.06 g/m*3 9.1 C 0 km/h
1232 12-03-2008 06:25:03 9 C 5.11 g/m*3 9 C 0 km/h
1233 12-03-2008 06:37:03 9.1 C 4.97 g/m*3 9.1 C 0 km/h
1234 12-03-2008 06:49:03 9.1 C 4.79 g/m*3 9.1 C 0 km/h
1235 12-03-2008 07:01:01 9.1 C 4.79 g/m*3 9.1 C 0 km/h
1236 12-03-2008 07:13:01 9.1 C 4.79 g/m*3 9.1 C 0 km/h
1237 12-03-2008 07:25:02 9.1 C 4.79 g/m*3 9.1 C 0 km/h
1238 12-03-2008 07:37:02 9.3 C 4.76 g/m*3 9.3 C 0 km/h
1239 12-03-2008 07:49:02 9.3 C 4.76 g/m*3 9.3 C 0 km/h
1240 12-03-2008 08:01:02 9.3 C 4.67 g/m*3 9.3 C 0 km/h
1241 12-03-2008 08:13:02 9.4 C 4.61 g/m*3 9.4 C 0 km/h
1242 12-03-2008 08:25:02 9.5 C 4.55 g/m*3 9.5 C 0 km/h
1243 12-03-2008 08:37:02 9.3 C 4.67 g/m*3 9.3 C 0 km/h
1244 12-03-2008 08:49:02 8.8 C 4.87 g/m*3 8.8 C 0 km/h
1245 12-03-2008 09:01:02 9.4 C 4.25 g/m*3 9.4 C 0 km/h
1246 12-03-2008 09:13:02 9.6 C 4.12 g/m*3 9.6 C 0 km/h
1247 12-03-2008 09:25:02 8.1 C 4.66 g/m*3 8.1 C 0 km/h
1248 12-03-2008 09:37:02 7.9 C 5.09 g/m*3 7.9 C 0 km/h
1249 12-03-2008 09:49:02 8.4 C 4.75 g/m*3 8.4 C 0 km/h
1250 12-03-2008 10:01:02 8.7 C 4.32 g/m*3 8.7 C 0 km/h
Sensor: Nr:Datum:Temp:Abs-Feuchte:Windchill:Wind:
Aussen-T/F 1251 12-03-2008 10:13:02 9.2 C 3.66 g/m*3 9.2 C 0 km/h
1252 12-03-2008 10:25:01 8.1 C 3.49 g/m*3 8.1 C 0 km/h
1253 12-03-2008 10:37:02 8.2 C 3.68 g/m*3 8.2 C 0 km/h
1254 12-03-2008 10:49:02 8.5 C 3.5 g/m*3 8.5 C 0 km/h
1255 12-03-2008 11:01:01 8.8 C 3.22 g/m*3 8.8 C 0 km/h
1256 12-03-2008 11:13:01 8.9 C 3.33 g/m*3 8.9 C 0 km/h
1257 12-03-2008 11:25:01 8.6 C 3.27 g/m*3 8.6 C 0 km/h
1258 12-03-2008 11:37:01 9 C 3.09 g/m*3 9 C 0 km/h
1259 12-03-2008 11:49:01 9.8 C 2.6 g/m*3 9.8 C 0 km/h
1260 12-03-2008 12:01:02 10.1 C 2.46 g/m*3 10.1 C 0 km/h
1261 12-03-2008 12:13:02 10.2 C 2.47 g/m*3 10.2 C 0 km/h
1262 12-03-2008 12:25:01 10.7 C 2.75 g/m*3 10.7 C 0 km/h
1263 12-03-2008 12:37:01 11.5 C 2.58 g/m*3 11.5 C 0 km/h
1264 12-03-2008 12:49:01 11.3 C 2.04 g/m*3 11.3 C 0 km/h
1265 12-03-2008 13:01:02 11.1 C 2.01 g/m*3 11.1 C 0 km/h
1266 12-03-2008 13:13:02 10.9 C 2.19 g/m*3 10.9 C 0 km/h
1267 12-03-2008 13:25:02 10.9 C 2.19 g/m*3 10.9 C 0 km/h
1268 12-03-2008 13:37:01 10.9 C 2.09 g/m*3 10.9 C 0 km/h
1269 12-03-2008 13:49:02 11 C 2.1 g/m*3 11 C 0 km/h
1270 12-03-2008 14:01:02 10.9 C 2.49 g/m*3 10.9 C 0 km/h
1271 12-03-2008 14:13:02 10.6 C 2.54 g/m*3 10.6 C 0 km/h
1272 12-03-2008 14:25:02 10.6 C 2.44 g/m*3 10.6 C 0 km/h
1273 12-03-2008 14:37:02 10.5 C 2.62 g/m*3 10.5 C 0 km/h
1274 12-03-2008 14:49:02 10 C 2.82 g/m*3 10 C 0 km/h
1275 12-03-2008 15:01:02 9.8 C 2.97 g/m*3 9.8 C 0 km/h
Sensor: Nr:Datum:Temp:Abs-Feuchte:Windchill:Wind:
Aussen-T/F 1276 12-03-2008 15:13:02 9.6 C 3.02 g/m*3 9.6 C 0 km/h
1277 12-03-2008 15:25:03 9.6 C 3.02 g/m*3 9.6 C 0 km/h
1278 12-03-2008 15:37:02 9.4 C 3.17 g/m*3 9.4 C 0 km/h
1279 12-03-2008 15:49:02 9.5 C 3.19 g/m*3 9.5 C 0 km/h
1280 12-03-2008 16:01:01 10 C 3.1 g/m*3 10 C 0 km/h
1281 12-03-2008 16:13:01 9.5 C 3.46 g/m*3 9.5 C 0 km/h
1282 12-03-2008 16:25:01 9.7 C 3.69 g/m*3 9.7 C 0 km/h
1283 12-03-2008 16:37:02 9.2 C 3.66 g/m*3 9.2 C 0 km/h
1284 12-03-2008 16:49:02 9 C 3.7 g/m*3 9 C 0 km/h
1285 12-03-2008 17:01:02 8.8 C 3.74 g/m*3 8.8 C 0 km/h
1286 12-03-2008 17:13:02 8.7 C 3.81 g/m*3 8.7 C 0 km/h
1287 12-03-2008 17:25:01 8.9 C 3.85 g/m*3 8.9 C 0 km/h
1288 12-03-2008 17:37:01 9 C 3.7 g/m*3 9 C 0 km/h
1289 12-03-2008 17:49:01 8.9 C 3.77 g/m*3 8.9 C 0 km/h
1290 12-03-2008 18:01:02 8.4 C 3.73 g/m*3 8.4 C 0 km/h
1291 12-03-2008 18:13:02 8.1 C 3.74 g/m*3 8.1 C 0 km/h
1292 12-03-2008 18:25:01 7.9 C 3.78 g/m*3 7.9 C 0 km/h
1293 12-03-2008 18:37:01 7.9 C 3.78 g/m*3 7.9 C 0 km/h
1294 12-03-2008 18:49:02 7.8 C 3.67 g/m*3 7.8 C 0 km/h
1295 12-03-2008 19:01:01 7.8 C 3.67 g/m*3 7.8 C 0 km/h
1296 12-03-2008 19:13:01 7.6 C 3.71 g/m*3 7.6 C 0 km/h
1297 12-03-2008 19:25:02 7.5 C 3.68 g/m*3 7.5 C 0 km/h
1298 12-03-2008 19:37:02 7.6 C 3.71 g/m*3 7.6 C 0 km/h
1299 12-03-2008 19:49:02 7.5 C 3.68 g/m*3 7.5 C 0 km/h
1300 12-03-2008 20:01:02 7.5 C 3.68 g/m*3 7.5 C 0 km/h
Sensor: Nr:Datum:Temp:Abs-Feuchte:Windchill:Wind:
Aussen-T/F 1301 12-03-2008 20:13:02 7.4 C 3.66 g/m*3 7.4 C 0 km/h
1302 12-03-2008 20:25:02 7.4 C 3.58 g/m*3 7.4 C 0 km/h
1303 12-03-2008 20:37:02 7.4 C 3.66 g/m*3 7.4 C 0 km/h
1304 12-03-2008 20:49:02 7.4 C 3.58 g/m*3 7.4 C 0 km/h
1305 12-03-2008 21:01:02 7.4 C 3.58 g/m*3 7.4 C 0 km/h
1306 12-03-2008 21:13:02 7.4 C 3.58 g/m*3 7.4 C 0 km/h
1307 12-03-2008 21:25:01 7.3 C 3.56 g/m*3 7.3 C 0 km/h
1308 12-03-2008 21:37:02 7.1 C 3.51 g/m*3 7.1 C 0 km/h
1309 12-03-2008 21:49:02 7 C 3.49 g/m*3 7 C 0 km/h
1310 12-03-2008 22:01:02 7 C 3.41 g/m*3 7 C 0 km/h
1311 12-03-2008 22:13:02 7 C 3.25 g/m*3 7 C 0 km/h
1312 12-03-2008 22:25:02 6.8 C 3.29 g/m*3 6.8 C 0 km/h
1313 12-03-2008 22:37:02 6.7 C 3.27 g/m*3 6.7 C 0 km/h
1314 12-03-2008 22:49:02 6.4 C 3.28 g/m*3 6.4 C 0 km/h
1315 12-03-2008 23:01:02 6.4 C 3.28 g/m*3 6.4 C 0 km/h
1316 12-03-2008 23:13:02 6.2 C 3.24 g/m*3 6.2 C 0 km/h
1317 12-03-2008 23:25:02 6 C 3.27 g/m*3 6 C 0 km/h
1318 12-03-2008 23:37:02 6 C 3.27 g/m*3 6 C 0 km/h
1319 12-03-2008 23:49:02 5.8 C 3.3 g/m*3 5.8 C 0 km/h
1320 13-03-2008 00:01:02 5.8 C 3.3 g/m*3 5.8 C 0 km/h
1321 13-03-2008 00:13:02 5.7 C 3.27 g/m*3 5.7 C 0 km/h
1322 13-03-2008 00:25:02 5.7 C 3.27 g/m*3 5.7 C 0 km/h
1323 13-03-2008 00:37:02 5.8 C 3.3 g/m*3 5.8 C 0 km/h
1324 13-03-2008 00:49:02 6 C 3.27 g/m*3 6 C 0 km/h
1325 13-03-2008 01:01:03 6.1 C 3.29 g/m*3 6.1 C 0 km/h
Sensor: Nr:Datum:Temp:Abs-Feuchte:Windchill:Wind:
Aussen-T/F 1326 13-03-2008 01:13:03 6.2 C 3.31 g/m*3 6.2 C 0 km/h
1327 13-03-2008 01:25:03 6.1 C 3.29 g/m*3 6.1 C 0 km/h
1328 13-03-2008 01:37:02 6.2 C 3.31 g/m*3 6.2 C 0 km/h
1329 13-03-2008 01:49:01 6.4 C 3.35 g/m*3 6.4 C 0 km/h
1330 13-03-2008 02:01:02 6.3 C 3.33 g/m*3 6.3 C 0 km/h
1331 13-03-2008 02:13:02 6.2 C 3.31 g/m*3 6.2 C 0 km/h
1332 13-03-2008 02:25:02 6.2 C 3.31 g/m*3 6.2 C 0 km/h
1333 13-03-2008 02:37:01 6.2 C 3.31 g/m*3 6.2 C 0 km/h
1334 13-03-2008 02:50:03 6.1 C 3.36 g/m*3 6.1 C 0 km/h
1335 13-03-2008 03:02:03 6.1 C 3.36 g/m*3 6.1 C 0 km/h
1336 13-03-2008 03:14:04 5.9 C 3.39 g/m*3 5.9 C 0 km/h
1337 13-03-2008 03:26:04 5.8 C 3.44 g/m*3 5.8 C 0 km/h
1338 13-03-2008 03:38:01 5.9 C 3.46 g/m*3 5.9 C 0 km/h
1339 13-03-2008 03:50:01 5.8 C 3.44 g/m*3 5.8 C 0 km/h
1340 13-03-2008 04:02:02 6 C 3.41 g/m*3 6 C 0 km/h
1341 13-03-2008 04:14:02 5.9 C 3.46 g/m*3 5.9 C 0 km/h
1342 13-03-2008 04:26:02 6 C 3.41 g/m*3 6 C 0 km/h
1343 13-03-2008 04:38:01 5.8 C 3.51 g/m*3 5.8 C 0 km/h
1344 13-03-2008 04:50:01 5.6 C 3.53 g/m*3 5.6 C 0 km/h
1345 13-03-2008 05:02:02 5.6 C 3.61 g/m*3 5.6 C 0 km/h
1346 13-03-2008 05:14:02 5.6 C 3.61 g/m*3 5.6 C 0 km/h
1347 13-03-2008 05:26:02 5.6 C 3.68 g/m*3 5.6 C 0 km/h
1348 13-03-2008 05:38:01 5.6 C 3.68 g/m*3 5.6 C 0 km/h
1349 13-03-2008 05:50:01 5.6 C 3.75 g/m*3 5.6 C 0 km/h
1350 13-03-2008 06:02:02 5.7 C 3.84 g/m*3 5.7 C 0 km/h
Sensor: Nr:Datum:Temp:Abs-Feuchte:Windchill:Wind:
Aussen-T/F 1351 13-03-2008 06:14:02 5.6 C 3.89 g/m*3 5.6 C 0 km/h
1352 13-03-2008 06:26:01 5.8 C 3.94 g/m*3 5.8 C 0 km/h
1353 13-03-2008 06:38:02 5.8 C 3.87 g/m*3 5.8 C 0 km/h
1354 13-03-2008 06:50:02 5.7 C 3.84 g/m*3 5.7 C 0 km/h
1355 13-03-2008 07:02:01 5.8 C 3.94 g/m*3 5.8 C 0 km/h
1356 13-03-2008 07:14:02 5.8 C 4.01 g/m*3 5.8 C 0 km/h
1357 13-03-2008 07:26:01 5.5 C 4.35 g/m*3 5.5 C 0 km/h
1358 13-03-2008 07:38:02 5.3 C 4.44 g/m*3 5.3 C 0 km/h
1359 13-03-2008 07:50:02 5.3 C 4.44 g/m*3 5.3 C 0 km/h
1360 13-03-2008 08:02:02 5 C 4.48 g/m*3 5 C 0 km/h
1361 13-03-2008 08:14:02 5 C 4.62 g/m*3 5 C 0 km/h
1362 13-03-2008 08:26:01 5.4 C 4.67 g/m*3 5.4 C 0 km/h
1363 13-03-2008 08:38:02 5.4 C 4.54 g/m*3 5.4 C 0 km/h
1364 13-03-2008 08:50:02 5.4 C 4.47 g/m*3 5.4 C 0 km/h
1365 13-03-2008 09:02:02 5.6 C 4.38 g/m*3 5.6 C 0 km/h
1366 13-03-2008 09:14:02 5.7 C 4.41 g/m*3 5.7 C 0 km/h
1367 13-03-2008 09:26:03 6.2 C 4.34 g/m*3 6.2 C 0 km/h
1368 13-03-2008 09:38:02 6.6 C 4.38 g/m*3 6.6 C 0 km/h
1369 13-03-2008 09:50:01 7 C 4.26 g/m*3 7 C 0 km/h
1370 13-03-2008 10:02:01 7.4 C 4.29 g/m*3 7.4 C 0 km/h
1371 13-03-2008 10:14:01 7.5 C 4.32 g/m*3 7.5 C 0 km/h
1372 13-03-2008 10:26:02 7.8 C 4.41 g/m*3 7.8 C 0 km/h
1373 13-03-2008 10:38:01 8.2 C 4.02 g/m*3 8.2 C 0 km/h
1374 13-03-2008 10:50:02 8.3 C 3.88 g/m*3 8.3 C 0 km/h
1375 13-03-2008 11:02:01 8.4 C 3.82 g/m*3 8.4 C 0 km/h
Sensor: Nr:Datum:Temp:Abs-Feuchte:Windchill:Wind:
Aussen-T/F 1376 13-03-2008 11:14:01 8.1 C 3.91 g/m*3 8.1 C 0 km/h
1377 13-03-2008 11:26:02 7.7 C 4.46 g/m*3 7.7 C 0 km/h
1378 13-03-2008 11:38:02 8 C 4.38 g/m*3 8 C 0 km/h
1379 13-03-2008 11:50:02 8.5 C 4.1 g/m*3 8.5 C 0 km/h
1380 13-03-2008 12:02:02 8.4 C 3.99 g/m*3 8.4 C 0 km/h
1381 13-03-2008 12:14:02 8.5 C 4.1 g/m*3 8.5 C 0 km/h
1382 13-03-2008 12:26:02 8.5 C 3.93 g/m*3 8.5 C 0 km/h
1383 13-03-2008 12:38:02 8.7 C 3.81 g/m*3 8.7 C 0 km/h
1384 13-03-2008 12:50:02 8.9 C 3.85 g/m*3 8.9 C 0 km/h
1385 13-03-2008 13:02:01 9 C 3.88 g/m*3 9 C 0 km/h
1386 13-03-2008 13:14:01 8.7 C 4.15 g/m*3 8.7 C 0 km/h
1387 13-03-2008 13:26:01 9.4 C 4.16 g/m*3 9.4 C 0 km/h
1388 13-03-2008 13:38:01 9.3 C 4.04 g/m*3 9.3 C 0 km/h
1389 13-03-2008 13:50:02 9.1 C 4.17 g/m*3 9.1 C 0 km/h
1390 13-03-2008 14:02:02 9.5 C 4.19 g/m*3 9.5 C 0 km/h
1391 13-03-2008 14:14:02 10.5 C 4.07 g/m*3 10.5 C 0 km/h
1392 13-03-2008 14:26:02 10.5 C 4.07 g/m*3 10.5 C 0 km/h
1393 13-03-2008 14:38:02 10.7 C 3.83 g/m*3 10.7 C 0 km/h
1394 13-03-2008 14:50:02 10.5 C 3.59 g/m*3 10.5 C 0 km/h
1395 13-03-2008 15:02:03 10.4 C 3.47 g/m*3 10.4 C 0 km/h
1396 13-03-2008 15:14:03 10.8 C 3.66 g/m*3 10.8 C 0 km/h
1397 13-03-2008 15:26:02 11.1 C 3.63 g/m*3 11.1 C 0 km/h
1398 13-03-2008 15:38:02 11.3 C 3.57 g/m*3 11.3 C 0 km/h
1399 13-03-2008 15:50:01 11.4 C 3.49 g/m*3 11.4 C 0 km/h
1400 13-03-2008 16:02:01 11 C 3.5 g/m*3 11 C 0 km/h
Sensor: Nr:Datum:Temp:Abs-Feuchte:Windchill:Wind:
Aussen-T/F 1401 13-03-2008 16:14:01 10.8 C 3.46 g/m*3 10.8 C 0 km/h
1402 13-03-2008 16:26:02 10.6 C 3.42 g/m*3 10.6 C 0 km/h
1403 13-03-2008 16:38:01 10.4 C 3.37 g/m*3 10.4 C 0 km/h
1404 13-03-2008 16:50:02 10.1 C 3.4 g/m*3 10.1 C 0 km/h
1405 13-03-2008 17:02:01 10 C 3.66 g/m*3 10 C 0 km/h
1406 13-03-2008 17:14:01 9.8 C 3.8 g/m*3 9.8 C 0 km/h
1407 13-03-2008 17:26:01 9.2 C 4.02 g/m*3 9.2 C 0 km/h
1408 13-03-2008 17:38:02 8.1 C 4.74 g/m*3 8.1 C 0 km/h
1409 13-03-2008 17:50:03 8 C 5.04 g/m*3 8 C 0 km/h
1410 13-03-2008 18:02:02 8.1 C 5.08 g/m*3 8.1 C 0 km/h
1411 13-03-2008 18:14:02 8.1 C 4.91 g/m*3 8.1 C 0 km/h
1412 13-03-2008 18:26:02 8.1 C 4.99 g/m*3 8.1 C 0 km/h
1413 13-03-2008 18:38:03 8.1 C 4.99 g/m*3 8.1 C 0 km/h
1414 13-03-2008 18:50:03 8.2 C 4.69 g/m*3 8.2 C 0 km/h
1415 13-03-2008 19:02:02 8.4 C 4.75 g/m*3 8.4 C 0 km/h
1416 13-03-2008 19:14:03 8.5 C 4.61 g/m*3 8.5 C 0 km/h
1417 13-03-2008 19:26:02 8.6 C 4.47 g/m*3 8.6 C 0 km/h
1418 13-03-2008 19:38:02 8.7 C 4.32 g/m*3 8.7 C 0 km/h
1419 13-03-2008 19:50:02 8.8 C 4.35 g/m*3 8.8 C 0 km/h
1420 13-03-2008 20:02:03 8.8 C 4.35 g/m*3 8.8 C 0 km/h
1421 13-03-2008 20:14:03 8.6 C 4.55 g/m*3 8.6 C 0 km/h
1422 13-03-2008 20:26:02 8.2 C 4.77 g/m*3 8.2 C 0 km/h
1423 13-03-2008 20:38:02 8.3 C 4.55 g/m*3 8.3 C 0 km/h
1424 13-03-2008 20:50:01 8.3 C 4.55 g/m*3 8.3 C 0 km/h
1425 13-03-2008 21:02:01 8.4 C 4.5 g/m*3 8.4 C 0 km/h
Sensor: Nr:Datum:Temp:Abs-Feuchte:Windchill:Wind:
Aussen-T/F 1426 13-03-2008 21:14:01 8.5 C 4.53 g/m*3 8.5 C 0 km/h
1427 13-03-2008 21:26:02 8.5 C 4.53 g/m*3 8.5 C 0 km/h
1428 13-03-2008 21:38:02 8.4 C 4.58 g/m*3 8.4 C 0 km/h
1429 13-03-2008 21:50:02 8.3 C 4.64 g/m*3 8.3 C 0 km/h
1430 13-03-2008 22:03:03 8.2 C 4.61 g/m*3 8.2 C 0 km/h
1431 13-03-2008 22:15:03 8.2 C 4.69 g/m*3 8.2 C 0 km/h
1432 13-03-2008 22:27:03 8.2 C 4.69 g/m*3 8.2 C 0 km/h
1433 13-03-2008 22:39:03 8.2 C 4.69 g/m*3 8.2 C 0 km/h
1434 13-03-2008 22:51:03 8.4 C 4.75 g/m*3 8.4 C 0 km/h
1435 13-03-2008 23:03:03 8.4 C 4.75 g/m*3 8.4 C 0 km/h
1436 13-03-2008 23:15:03 8.3 C 4.72 g/m*3 8.3 C 0 km/h
1437 13-03-2008 23:27:03 8.3 C 4.72 g/m*3 8.3 C 0 km/h
1438 13-03-2008 23:39:03 8.4 C 4.84 g/m*3 8.4 C 0 km/h
1439 13-03-2008 23:51:03 8.2 C 4.77 g/m*3 8.2 C 0 km/h
1440 14-03-2008 00:03:03 8.3 C 4.8 g/m*3 8.3 C 0 km/h
1441 14-03-2008 00:15:03 7.9 C 4.93 g/m*3 7.9 C 0 km/h
1442 14-03-2008 00:27:04 7.5 C 5.2 g/m*3 7.5 C 0 km/h
1443 14-03-2008 00:39:04 7.2 C 5.42 g/m*3 7.2 C 0 km/h
1444 14-03-2008 00:51:04 7 C 5.58 g/m*3 7 C 0 km/h
1445 14-03-2008 01:03:04 6.8 C 5.74 g/m*3 6.8 C 0 km/h
1446 14-03-2008 01:15:04 6.8 C 5.81 g/m*3 6.8 C 0 km/h
1447 14-03-2008 01:27:04 6.7 C 6 g/m*3 6.7 C 0 km/h
1448 14-03-2008 01:39:04 6.7 C 6.15 g/m*3 6.7 C 0 km/h
1449 14-03-2008 01:51:04 6.5 C 6.15 g/m*3 6.5 C 0 km/h
1450 14-03-2008 02:03:04 6.5 C 6.3 g/m*3 6.5 C 0 km/h
Sensor: Nr:Datum:Temp:Abs-Feuchte:Windchill:Wind:
Aussen-T/F 1451 14-03-2008 02:15:04 6.5 C 6.37 g/m*3 6.5 C 0 km/h
1452 14-03-2008 02:27:04 6.5 C 6.37 g/m*3 6.5 C 0 km/h
1453 14-03-2008 02:39:04 6.4 C 6.41 g/m*3 6.4 C 0 km/h
1454 14-03-2008 02:51:04 6.4 C 6.48 g/m*3 6.4 C 0 km/h
1455 14-03-2008 03:03:04 6.4 C 6.48 g/m*3 6.4 C 0 km/h
1456 14-03-2008 03:15:04 6.3 C 6.51 g/m*3 6.3 C 0 km/h
1457 14-03-2008 03:27:04 6.3 C 6.51 g/m*3 6.3 C 0 km/h
1458 14-03-2008 03:39:04 6.4 C 6.63 g/m*3 6.4 C 0 km/h
1459 14-03-2008 03:51:04 6.4 C 6.63 g/m*3 6.4 C 0 km/h
1460 14-03-2008 04:03:04 6.4 C 6.71 g/m*3 6.4 C 0 km/h
1461 14-03-2008 04:15:04 6.4 C 6.71 g/m*3 6.4 C 0 km/h
1462 14-03-2008 04:27:05 6.5 C 6.82 g/m*3 6.5 C 0 km/h
1463 14-03-2008 04:39:05 6.9 C 7.01 g/m*3 6.9 C 0 km/h
1464 14-03-2008 04:51:05 7.1 C 7.02 g/m*3 7.1 C 0 km/h
1465 14-03-2008 05:03:05 7.2 C 7.06 g/m*3 7.2 C 0 km/h
1466 14-03-2008 05:15:05 7.3 C 7.11 g/m*3 7.3 C 0 km/h
1467 14-03-2008 05:27:05 7.3 C 7.11 g/m*3 7.3 C 0 km/h
1468 14-03-2008 05:39:05 7.4 C 7.16 g/m*3 7.4 C 0 km/h
1469 14-03-2008 05:51:05 7.5 C 7.28 g/m*3 7.5 C 0 km/h
1470 14-03-2008 06:03:05 7.6 C 7.33 g/m*3 7.6 C 0 km/h
1471 14-03-2008 06:15:05 7.7 C 7.38 g/m*3 7.7 C 0 km/h
1472 14-03-2008 06:27:05 7.8 C 7.43 g/m*3 7.8 C 0 km/h
1473 14-03-2008 06:39:05 7.9 C 7.47 g/m*3 7.9 C 0 km/h
1474 14-03-2008 06:51:05 7.9 C 7.47 g/m*3 7.9 C 0 km/h
1475 14-03-2008 07:03:02 8.1 C 7.57 g/m*3 8.1 C 0 km/h
Sensor: Nr:Datum:Temp:Abs-Feuchte:Windchill:Wind:
Aussen-T/F 1476 14-03-2008 07:15:02 8.3 C 7.67 g/m*3 8.3 C 0 km/h
1477 14-03-2008 07:27:02 8.7 C 7.87 g/m*3 8.7 C 0 km/h
1478 14-03-2008 07:39:03 9.2 C 7.86 g/m*3 9.2 C 0 km/h
1479 14-03-2008 07:51:02 9.3 C 7.73 g/m*3 9.3 C 0 km/h
1480 14-03-2008 08:03:02 9.3 C 7.64 g/m*3 9.3 C 0 km/h
1481 14-03-2008 08:15:02 9.5 C 7.74 g/m*3 9.5 C 0 km/h
1482 14-03-2008 08:27:02 9.6 C 7.69 g/m*3 9.6 C 0 km/h
1483 14-03-2008 08:39:02 9.7 C 7.65 g/m*3 9.7 C 0 km/h
1484 14-03-2008 08:51:02 9.7 C 7.65 g/m*3 9.7 C 0 km/h
1485 14-03-2008 09:03:01 9.7 C 7.74 g/m*3 9.7 C 0 km/h
1486 14-03-2008 09:15:02 9.7 C 7.74 g/m*3 9.7 C 0 km/h
1487 14-03-2008 09:27:02 9.7 C 7.74 g/m*3 9.7 C 0 km/h
1488 14-03-2008 09:39:02 9.9 C 7.66 g/m*3 9.9 C 0 km/h
1489 14-03-2008 09:51:02 10.1 C 7.47 g/m*3 10.1 C 0 km/h
1490 14-03-2008 10:03:02 10.4 C 7.32 g/m*3 10.4 C 0 km/h
1491 14-03-2008 10:15:02 10.6 C 7.12 g/m*3 10.6 C 0 km/h
1492 14-03-2008 10:27:02 10.9 C 6.37 g/m*3 10.9 C 0 km/h
1493 14-03-2008 10:39:02 11.2 C 5.98 g/m*3 11.2 C 0 km/h
1494 14-03-2008 10:51:02 11.2 C 5.88 g/m*3 11.2 C 0 km/h
1495 14-03-2008 11:03:02 11.2 C 5.98 g/m*3 11.2 C 0 km/h
1496 14-03-2008 11:15:03 11.2 C 5.88 g/m*3 11.2 C 0 km/h
1497 14-03-2008 11:27:03 11.6 C 5.82 g/m*3 11.6 C 0 km/h
1498 14-03-2008 11:39:02 11.6 C 5.72 g/m*3 11.6 C 0 km/h
1499 14-03-2008 11:51:01 11.7 C 5.65 g/m*3 11.7 C 0 km/h
1500 14-03-2008 12:03:02 11.9 C 5.51 g/m*3 11.9 C 0 km/h
Sensor: Nr:Datum:Temp:Abs-Feuchte:Windchill:Wind:
Aussen-T/F 1501 14-03-2008 12:15:02 12.1 C 5.25 g/m*3 12.1 C 0 km/h
1502 14-03-2008 12:27:02 12.1 C 5.04 g/m*3 12.1 C 0 km/h
1503 14-03-2008 12:39:01 12 C 5.01 g/m*3 12 C 0 km/h
1504 14-03-2008 12:51:01 11.9 C 5.61 g/m*3 11.9 C 0 km/h
1505 14-03-2008 13:03:02 11.9 C 5.61 g/m*3 11.9 C 0 km/h
1506 14-03-2008 13:15:02 12 C 5.01 g/m*3 12 C 0 km/h
1507 14-03-2008 13:27:02 12 C 4.8 g/m*3 12 C 0 km/h
1508 14-03-2008 13:39:01 12 C 4.9 g/m*3 12 C 0 km/h
1509 14-03-2008 13:51:01 12.5 C 4.84 g/m*3 12.5 C 0 km/h
1510 14-03-2008 14:03:02 12.6 C 4.65 g/m*3 12.6 C 0 km/h
1511 14-03-2008 14:15:02 12.5 C 4.51 g/m*3 12.5 C 0 km/h
1512 14-03-2008 14:27:02 12.8 C 4.59 g/m*3 12.8 C 0 km/h
1513 14-03-2008 14:39:01 13 C 4.42 g/m*3 13 C 0 km/h
1514 14-03-2008 14:51:01 12.8 C 4.37 g/m*3 12.8 C 0 km/h
1515 14-03-2008 15:03:02 13 C 4.08 g/m*3 13 C 0 km/h
1516 14-03-2008 15:15:02 13 C 4.08 g/m*3 13 C 0 km/h
1517 14-03-2008 15:27:02 12.9 C 4.51 g/m*3 12.9 C 0 km/h
1518 14-03-2008 15:39:02 13 C 4.31 g/m*3 13 C 0 km/h
1519 14-03-2008 15:51:02 13 C 4.31 g/m*3 13 C 0 km/h
1520 14-03-2008 16:03:02 13.2 C 4.25 g/m*3 13.2 C 0 km/h
1521 14-03-2008 16:15:02 13 C 3.97 g/m*3 13 C 0 km/h
1522 14-03-2008 16:27:02 12.9 C 3.83 g/m*3 12.9 C 0 km/h
1523 14-03-2008 16:39:02 12.8 C 3.47 g/m*3 12.8 C 0 km/h
1524 14-03-2008 16:51:02 12.7 C 3.34 g/m*3 12.7 C 0 km/h
1525 14-03-2008 17:03:03 12.5 C 3.41 g/m*3 12.5 C 0 km/h
Sensor: Nr:Datum:Temp:Abs-Feuchte:Windchill:Wind:
Aussen-T/F 1526 14-03-2008 17:15:03 12.4 C 3.82 g/m*3 12.4 C 0 km/h
1527 14-03-2008 17:27:03 12 C 4.05 g/m*3 12 C 0 km/h
1528 14-03-2008 17:39:02 11.7 C 4.29 g/m*3 11.7 C 0 km/h
1529 14-03-2008 17:51:02 11.4 C 4.31 g/m*3 11.4 C 0 km/h
1530 14-03-2008 18:03:01 11.1 C 4.03 g/m*3 11.1 C 0 km/h
1531 14-03-2008 18:15:02 11 C 3.6 g/m*3 11 C 0 km/h
1532 14-03-2008 18:27:02 10.5 C 3.98 g/m*3 10.5 C 0 km/h
1533 14-03-2008 18:39:02 10.1 C 4.26 g/m*3 10.1 C 0 km/h
1534 14-03-2008 18:51:02 9.8 C 4.36 g/m*3 9.8 C 0 km/h
1535 14-03-2008 19:03:02 9.4 C 4.34 g/m*3 9.4 C 0 km/h
1536 14-03-2008 19:15:02 9.2 C 4.29 g/m*3 9.2 C 0 km/h
1537 14-03-2008 19:27:02 8.8 C 4.35 g/m*3 8.8 C 0 km/h
1538 14-03-2008 19:39:02 8.5 C 4.35 g/m*3 8.5 C 0 km/h
1539 14-03-2008 19:51:02 8.5 C 4.44 g/m*3 8.5 C 0 km/h
1540 14-03-2008 20:03:01 8.3 C 4.38 g/m*3 8.3 C 0 km/h
1541 14-03-2008 20:15:02 8.2 C 4.44 g/m*3 8.2 C 0 km/h
1542 14-03-2008 20:27:02 7.9 C 4.52 g/m*3 7.9 C 0 km/h
1543 14-03-2008 20:39:02 7.5 C 4.56 g/m*3 7.5 C 0 km/h
1544 14-03-2008 20:51:02 7.1 C 4.68 g/m*3 7.1 C 0 km/h
1545 14-03-2008 21:03:02 7.1 C 4.76 g/m*3 7.1 C 0 km/h
1546 14-03-2008 21:15:02 6.9 C 4.77 g/m*3 6.9 C 0 km/h
1547 14-03-2008 21:27:02 6.8 C 4.89 g/m*3 6.8 C 0 km/h
1548 14-03-2008 21:39:02 6.7 C 4.79 g/m*3 6.7 C 0 km/h
1549 14-03-2008 21:51:01 6.5 C 4.72 g/m*3 6.5 C 0 km/h
1550 14-03-2008 22:03:01 6.4 C 4.77 g/m*3 6.4 C 0 km/h
Sensor: Nr:Datum:Temp:Abs-Feuchte:Windchill:Wind:
Aussen-T/F 1551 14-03-2008 22:15:02 6.1 C 4.75 g/m*3 6.1 C 0 km/h
1552 14-03-2008 22:27:02 6 C 4.79 g/m*3 6 C 0 km/h
1553 14-03-2008 22:39:01 5.9 C 4.83 g/m*3 5.9 C 0 km/h
1554 14-03-2008 22:51:02 5.8 C 4.8 g/m*3 5.8 C 0 km/h
1555 14-03-2008 23:03:02 5.6 C 4.81 g/m*3 5.6 C 0 km/h
1556 14-03-2008 23:16:03 5.5 C 4.78 g/m*3 5.5 C 0 km/h
1557 14-03-2008 23:28:03 5.4 C 4.81 g/m*3 5.4 C 0 km/h
1558 14-03-2008 23:40:03 5.3 C 4.78 g/m*3 5.3 C 0 km/h
1559 14-03-2008 23:52:03 5.3 C 4.78 g/m*3 5.3 C 0 km/h
1560 15-03-2008 00:04:03 5 C 4.62 g/m*3 5 C 0 km/h
1561 15-03-2008 00:16:03 4.8 C 4.69 g/m*3 4.8 C 0 km/h
1562 15-03-2008 00:28:03 4.5 C 4.67 g/m*3 4.5 C 0 km/h
1563 15-03-2008 00:40:03 4.4 C 4.7 g/m*3 4.4 C 0 km/h
1564 15-03-2008 00:52:03 4.2 C 4.7 g/m*3 4.2 C 0 km/h
1565 15-03-2008 01:04:03 4.1 C 4.74 g/m*3 4.1 C 0 km/h
1566 15-03-2008 01:16:03 3.9 C 4.74 g/m*3 3.9 C 0 km/h
1567 15-03-2008 01:28:03 3.8 C 4.71 g/m*3 3.8 C 0 km/h
1568 15-03-2008 01:40:03 3.7 C 4.67 g/m*3 3.7 C 0 km/h
1569 15-03-2008 01:52:03 3.8 C 4.77 g/m*3 3.8 C 0 km/h
1570 15-03-2008 02:04:04 3.7 C 4.8 g/m*3 3.7 C 0 km/h
1571 15-03-2008 02:16:04 3.6 C 4.77 g/m*3 3.6 C 0 km/h
1572 15-03-2008 02:28:04 3.4 C 4.7 g/m*3 3.4 C 0 km/h
1573 15-03-2008 02:40:04 3.2 C 4.64 g/m*3 3.2 C 0 km/h
1574 15-03-2008 02:52:04 2.9 C 4.61 g/m*3 2.9 C 0 km/h
1575 15-03-2008 03:04:04 2.7 C 4.54 g/m*3 2.7 C 0 km/h
Sensor: Nr:Datum:Temp:Abs-Feuchte:Windchill:Wind:
Aussen-T/F 1576 15-03-2008 03:16:04 2.7 C 4.6 g/m*3 2.7 C 0 km/h
1577 15-03-2008 03:28:04 2.6 C 4.63 g/m*3 2.6 C 0 km/h
1578 15-03-2008 03:40:04 2.5 C 4.6 g/m*3 2.5 C 0 km/h
1579 15-03-2008 03:52:04 2.4 C 4.57 g/m*3 2.4 C 0 km/h
1580 15-03-2008 04:04:04 2.5 C 4.66 g/m*3 2.5 C 0 km/h
1581 15-03-2008 04:16:04 3 C 4.88 g/m*3 3 C 0 km/h
1582 15-03-2008 04:28:04 3.2 C 4.94 g/m*3 3.2 C 0 km/h
1583 15-03-2008 04:40:04 3.2 C 4.82 g/m*3 3.2 C 0 km/h
1584 15-03-2008 04:52:04 3.4 C 4.89 g/m*3 3.4 C 0 km/h
1585 15-03-2008 05:04:04 3.6 C 4.89 g/m*3 3.6 C 0 km/h
1586 15-03-2008 05:16:04 3.7 C 4.86 g/m*3 3.7 C 0 km/h
1587 15-03-2008 05:28:04 3.7 C 4.86 g/m*3 3.7 C 0 km/h
1588 15-03-2008 05:40:04 3.8 C 4.83 g/m*3 3.8 C 0 km/h
1589 15-03-2008 05:52:04 3.8 C 4.83 g/m*3 3.8 C 0 km/h
1590 15-03-2008 06:04:04 3.9 C 4.86 g/m*3 3.9 C 0 km/h
1591 15-03-2008 06:16:05 4 C 4.77 g/m*3 4 C 0 km/h
1592 15-03-2008 06:28:05 4 C 4.77 g/m*3 4 C 0 km/h
1593 15-03-2008 06:40:05 4.1 C 4.8 g/m*3 4.1 C 0 km/h
1594 15-03-2008 06:52:05 4.2 C 4.83 g/m*3 4.2 C 0 km/h
1595 15-03-2008 07:04:05 4.3 C 4.86 g/m*3 4.3 C 0 km/h
1596 15-03-2008 07:16:05 4.4 C 4.9 g/m*3 4.4 C 0 km/h
1597 15-03-2008 07:28:05 4.4 C 4.96 g/m*3 4.4 C 0 km/h
1598 15-03-2008 07:40:05 4.6 C 5.03 g/m*3 4.6 C 0 km/h
1599 15-03-2008 07:52:05 4.9 C 5.13 g/m*3 4.9 C 0 km/h
1600 15-03-2008 08:04:05 5.1 C 5.06 g/m*3 5.1 C 0 km/h
Sensor: Nr:Datum:Temp:Abs-Feuchte:Windchill:Wind:
Aussen-T/F 1601 15-03-2008 08:16:05 5.5 C 5.13 g/m*3 5.5 C 0 km/h
1602 15-03-2008 08:28:05 5.7 C 5.05 g/m*3 5.7 C 0 km/h
1603 15-03-2008 08:40:05 6.1 C 5.04 g/m*3 6.1 C 0 km/h
1604 15-03-2008 08:52:02 6.5 C 5.02 g/m*3 6.5 C 0 km/h
1605 15-03-2008 09:04:02 6.6 C 4.83 g/m*3 6.6 C 0 km/h
1606 15-03-2008 09:16:02 7.1 C 4.99 g/m*3 7.1 C 0 km/h
1607 15-03-2008 09:28:02 7.6 C 4.99 g/m*3 7.6 C 0 km/h
1608 15-03-2008 09:40:02 7.7 C 5.03 g/m*3 7.7 C 0 km/h
1609 15-03-2008 09:52:02 8.1 C 5.24 g/m*3 8.1 C 0 km/h
1610 15-03-2008 10:04:02 8.6 C 5.24 g/m*3 8.6 C 0 km/h
1611 15-03-2008 10:16:02 8.9 C 5.17 g/m*3 8.9 C 0 km/h
1612 15-03-2008 10:28:02 9.2 C 5.09 g/m*3 9.2 C 0 km/h
1613 15-03-2008 10:40:02 9.5 C 5.01 g/m*3 9.5 C 0 km/h
1614 15-03-2008 10:52:02 9.4 C 4.97 g/m*3 9.4 C 0 km/h
1615 15-03-2008 11:04:02 10.1 C 5.2 g/m*3 10.1 C 0 km/h
1616 15-03-2008 11:16:02 10.7 C 5.11 g/m*3 10.7 C 0 km/h
1617 15-03-2008 11:28:02 11.3 C 5.1 g/m*3 11.3 C 0 km/h
1618 15-03-2008 11:40:01 12.1 C 5.15 g/m*3 12.1 C 0 km/h
1619 15-03-2008 11:52:01 12.5 C 5.28 g/m*3 12.5 C 0 km/h
1620 15-03-2008 12:04:02 13.1 C 5.36 g/m*3 13.1 C 0 km/h
1621 15-03-2008 12:16:02 13.5 C 5.38 g/m*3 13.5 C 0 km/h
1622 15-03-2008 12:28:02 14.2 C 5.49 g/m*3 14.2 C 0 km/h
1623 15-03-2008 12:40:02 15 C 5.39 g/m*3 15 C 0 km/h
1624 15-03-2008 12:52:02 15.4 C 5.39 g/m*3 15.4 C 0 km/h
1625 15-03-2008 13:04:02 15.9 C 5.42 g/m*3 15.9 C 0 km/h
Sensor: Nr:Datum:Temp:Abs-Feuchte:Windchill:Wind:
Aussen-T/F 1626 15-03-2008 13:16:01 17.1 C 5.24 g/m*3 17.1 C 0 km/h
1627 15-03-2008 13:28:01 16.3 C 4.86 g/m*3 16.3 C 0 km/h
1628 15-03-2008 13:40:02 16.6 C 5.09 g/m*3 16.6 C 0 km/h
1629 15-03-2008 13:52:02 17.8 C 5.16 g/m*3 17.8 C 0 km/h
1630 15-03-2008 14:04:02 17.2 C 4.83 g/m*3 17.2 C 0 km/h
1631 15-03-2008 14:16:02 17.3 C 4.71 g/m*3 17.3 C 0 km/h
1632 15-03-2008 14:28:02 17.5 C 4.77 g/m*3 17.5 C 0 km/h
1633 15-03-2008 14:40:02 17.5 C 4.77 g/m*3 17.5 C 0 km/h
1634 15-03-2008 14:52:02 17.2 C 4.83 g/m*3 17.2 C 0 km/h
1635 15-03-2008 15:04:02 17.5 C 4.77 g/m*3 17.5 C 0 km/h
1636 15-03-2008 15:16:01 17.5 C 4.62 g/m*3 17.5 C 0 km/h
1637 15-03-2008 15:28:01 16.8 C 4.58 g/m*3 16.8 C 0 km/h
1638 15-03-2008 15:40:02 16.5 C 4.77 g/m*3 16.5 C 0 km/h
1639 15-03-2008 15:52:02 16.2 C 4.83 g/m*3 16.2 C 0 km/h
1640 15-03-2008 16:04:02 16.4 C 4.75 g/m*3 16.4 C 0 km/h
1641 15-03-2008 16:16:03 16.6 C 4.8 g/m*3 16.6 C 0 km/h
1642 15-03-2008 16:28:03 16.5 C 4.63 g/m*3 16.5 C 0 km/h
1643 15-03-2008 16:40:02 15.9 C 4.74 g/m*3 15.9 C 0 km/h
1644 15-03-2008 16:52:02 15.6 C 4.79 g/m*3 15.6 C 0 km/h
1645 15-03-2008 17:04:02 15.1 C 4.9 g/m*3 15.1 C 0 km/h
1646 15-03-2008 17:16:02 14.8 C 5.19 g/m*3 14.8 C 0 km/h
1647 15-03-2008 17:28:02 14.7 C 5.29 g/m*3 14.7 C 0 km/h
1648 15-03-2008 17:40:01 14.5 C 5.35 g/m*3 14.5 C 0 km/h
1649 15-03-2008 17:52:02 14.1 C 5.46 g/m*3 14.1 C 0 km/h
1650 15-03-2008 18:04:02 13.8 C 5.6 g/m*3 13.8 C 0 km/h
Sensor: Nr:Datum:Temp:Abs-Feuchte:Windchill:Wind:
Aussen-T/F 1651 15-03-2008 18:16:02 13.2 C 5.74 g/m*3 13.2 C 0 km/h
1652 15-03-2008 18:28:02 12.9 C 5.75 g/m*3 12.9 C 0 km/h
1653 15-03-2008 18:40:02 12.6 C 5.86 g/m*3 12.6 C 0 km/h
1654 15-03-2008 18:52:02 12.2 C 5.83 g/m*3 12.2 C 0 km/h
1655 15-03-2008 19:04:02 12 C 5.86 g/m*3 12 C 0 km/h
1656 15-03-2008 19:16:02 11.7 C 5.96 g/m*3 11.7 C 0 km/h
1657 15-03-2008 19:28:02 11.6 C 6.03 g/m*3 11.6 C 0 km/h
1658 15-03-2008 19:40:01 11.5 C 5.99 g/m*3 11.5 C 0 km/h
1659 15-03-2008 19:52:01 11.4 C 6.06 g/m*3 11.4 C 0 km/h
1660 15-03-2008 20:04:02 11.2 C 5.98 g/m*3 11.2 C 0 km/h
1661 15-03-2008 20:16:02 10.9 C 6.07 g/m*3 10.9 C 0 km/h
1662 15-03-2008 20:28:02 10.8 C 6.03 g/m*3 10.8 C 0 km/h
1663 15-03-2008 20:40:01 10.6 C 6.05 g/m*3 10.6 C 0 km/h
1664 15-03-2008 20:52:01 10.4 C 5.98 g/m*3 10.4 C 0 km/h
1665 15-03-2008 21:04:02 10.2 C 6 g/m*3 10.2 C 0 km/h
1666 15-03-2008 21:16:02 10.1 C 6.05 g/m*3 10.1 C 0 km/h
1667 15-03-2008 21:28:02 9.9 C 6.07 g/m*3 9.9 C 0 km/h
1668 15-03-2008 21:40:02 9.8 C 6.03 g/m*3 9.8 C 0 km/h
1669 15-03-2008 21:52:02 9.8 C 6.03 g/m*3 9.8 C 0 km/h
1670 15-03-2008 22:04:02 9.6 C 6.05 g/m*3 9.6 C 0 km/h
1671 15-03-2008 22:16:01 9.5 C 6.1 g/m*3 9.5 C 0 km/h
1672 15-03-2008 22:28:01 9.5 C 6.1 g/m*3 9.5 C 0 km/h
1673 15-03-2008 22:40:02 9.6 C 6.23 g/m*3 9.6 C 0 km/h
1674 15-03-2008 22:52:03 9.6 C 6.14 g/m*3 9.6 C 0 km/h
1675 15-03-2008 23:04:02 9.6 C 6.23 g/m*3 9.6 C 0 km/h
Sensor: Nr:Datum:Temp:Abs-Feuchte:Windchill:Wind:
Aussen-T/F 1676 15-03-2008 23:16:02 9.6 C 6.23 g/m*3 9.6 C 0 km/h
1677 15-03-2008 23:28:02 9.6 C 6.14 g/m*3 9.6 C 0 km/h
1678 15-03-2008 23:40:03 9.6 C 6.23 g/m*3 9.6 C 0 km/h
1679 15-03-2008 23:52:02 9.6 C 6.14 g/m*3 9.6 C 0 km/h
1680 16-03-2008 00:05:03 9.5 C 6.19 g/m*3 9.5 C 0 km/h
1681 16-03-2008 00:17:03 9.4 C 6.15 g/m*3 9.4 C 0 km/h
1682 16-03-2008 00:29:03 9.2 C 6.07 g/m*3 9.2 C 0 km/h
1683 16-03-2008 00:41:03 9.3 C 6.2 g/m*3 9.3 C 0 km/h
1684 16-03-2008 00:53:03 9.2 C 6.16 g/m*3 9.2 C 0 km/h
1685 16-03-2008 01:05:03 9.2 C 6.16 g/m*3 9.2 C 0 km/h
1686 16-03-2008 01:17:03 9.1 C 6.21 g/m*3 9.1 C 0 km/h
1687 16-03-2008 01:29:03 9.1 C 6.3 g/m*3 9.1 C 0 km/h
1688 16-03-2008 01:41:03 9.1 C 6.57 g/m*3 9.1 C 0 km/h
1689 16-03-2008 01:53:03 9.2 C 6.97 g/m*3 9.2 C 0 km/h
1690 16-03-2008 02:05:03 9.1 C 7.19 g/m*3 9.1 C 0 km/h
1691 16-03-2008 02:17:03 9.3 C 7.55 g/m*3 9.3 C 0 km/h
1692 16-03-2008 02:29:03 9.8 C 7.98 g/m*3 9.8 C 0 km/h
1693 16-03-2008 02:41:04 10.3 C 8.33 g/m*3 10.3 C 0 km/h
1694 16-03-2008 02:53:04 10.5 C 8.24 g/m*3 10.5 C 0 km/h
1695 16-03-2008 03:05:04 10.4 C 7.9 g/m*3 10.4 C 0 km/h
1696 16-03-2008 03:17:04 10.6 C 7.52 g/m*3 10.6 C 0 km/h
1697 16-03-2008 03:29:04 10.4 C 7.13 g/m*3 10.4 C 0 km/h
1698 16-03-2008 03:41:04 10.3 C 7.09 g/m*3 10.3 C 0 km/h
1699 16-03-2008 03:53:04 10.3 C 7.09 g/m*3 10.3 C 0 km/h
1700 16-03-2008 04:05:04 10.3 C 6.9 g/m*3 10.3 C 0 km/h
Sensor: Nr:Datum:Temp:Abs-Feuchte:Windchill:Wind:
Aussen-T/F 1701 16-03-2008 04:17:04 10.3 C 6.8 g/m*3 10.3 C 0 km/h
1702 16-03-2008 04:29:04 10.2 C 6.66 g/m*3 10.2 C 0 km/h
1703 16-03-2008 04:41:04 10.2 C 6.38 g/m*3 10.2 C 0 km/h
1704 16-03-2008 04:53:04 10.1 C 6.24 g/m*3 10.1 C 0 km/h
1705 16-03-2008 05:05:04 10 C 6.3 g/m*3 10 C 0 km/h
1706 16-03-2008 05:17:04 10.1 C 6.24 g/m*3 10.1 C 0 km/h
1707 16-03-2008 05:29:04 10 C 5.92 g/m*3 10 C 0 km/h
1708 16-03-2008 05:41:04 9.7 C 5.9 g/m*3 9.7 C 0 km/h
1709 16-03-2008 05:53:04 9.7 C 5.9 g/m*3 9.7 C 0 km/h
1710 16-03-2008 06:05:04 9.6 C 5.59 g/m*3 9.6 C 0 km/h
1711 16-03-2008 06:17:04 9.4 C 5.61 g/m*3 9.4 C 0 km/h
1712 16-03-2008 06:29:05 9.4 C 5.7 g/m*3 9.4 C 0 km/h
1713 16-03-2008 06:41:03 9.4 C 5.7 g/m*3 9.4 C 0 km/h
1714 16-03-2008 06:53:02 9.3 C 5.66 g/m*3 9.3 C 0 km/h
1715 16-03-2008 07:05:03 9.6 C 5.77 g/m*3 9.6 C 0 km/h
1716 16-03-2008 07:17:02 9.6 C 5.86 g/m*3 9.6 C 0 km/h
1717 16-03-2008 07:29:02 9.7 C 5.72 g/m*3 9.7 C 0 km/h
1718 16-03-2008 07:41:02 9.6 C 5.68 g/m*3 9.6 C 0 km/h
1719 16-03-2008 07:53:01 9.9 C 5.6 g/m*3 9.9 C 0 km/h
1720 16-03-2008 08:05:02 9.9 C 5.51 g/m*3 9.9 C 0 km/h
1721 16-03-2008 08:17:01 10.1 C 5.3 g/m*3 10.1 C 0 km/h
1722 16-03-2008 08:29:01 10.3 C 5.17 g/m*3 10.3 C 0 km/h
1723 16-03-2008 08:41:01 10.6 C 5.08 g/m*3 10.6 C 0 km/h
1724 16-03-2008 08:53:02 10.8 C 5.04 g/m*3 10.8 C 0 km/h
1725 16-03-2008 09:05:02 10.8 C 5.04 g/m*3 10.8 C 0 km/h
Sensor: Nr:Datum:Temp:Abs-Feuchte:Windchill:Wind:
Aussen-T/F 1726 16-03-2008 09:17:01 10.8 C 5.04 g/m*3 10.8 C 0 km/h
1727 16-03-2008 09:29:01 10.7 C 5.11 g/m*3 10.7 C 0 km/h
1728 16-03-2008 09:41:02 10.9 C 5.27 g/m*3 10.9 C 0 km/h
1729 16-03-2008 09:53:02 11.3 C 5.2 g/m*3 11.3 C 0 km/h
1730 16-03-2008 10:05:01 11 C 5.31 g/m*3 11 C 0 km/h
1731 16-03-2008 10:17:01 11.3 C 5.3 g/m*3 11.3 C 0 km/h
1732 16-03-2008 10:29:01 11.6 C 5.3 g/m*3 11.6 C 0 km/h
1733 16-03-2008 10:41:01 11.5 C 5.47 g/m*3 11.5 C 0 km/h
1734 16-03-2008 10:53:02 11.4 C 5.54 g/m*3 11.4 C 0 km/h
1735 16-03-2008 11:05:03 10.6 C 5.95 g/m*3 10.6 C 0 km/h
1736 16-03-2008 11:17:02 9.8 C 6.31 g/m*3 9.8 C 0 km/h
1737 16-03-2008 11:29:02 9.2 C 6.61 g/m*3 9.2 C 0 km/h
1738 16-03-2008 11:41:02 9.2 C 6.88 g/m*3 9.2 C 0 km/h
1739 16-03-2008 11:53:02 9.4 C 7.24 g/m*3 9.4 C 0 km/h
1740 16-03-2008 12:05:02 9.9 C 7.38 g/m*3 9.9 C 0 km/h
1741 16-03-2008 12:17:02 10.2 C 7.04 g/m*3 10.2 C 0 km/h
1742 16-03-2008 12:29:02 10 C 6.77 g/m*3 10 C 0 km/h
1743 16-03-2008 12:41:02 9.7 C 6.82 g/m*3 9.7 C 0 km/h
1744 16-03-2008 12:53:02 9.9 C 6.91 g/m*3 9.9 C 0 km/h
1745 16-03-2008 13:05:02 9.7 C 6.73 g/m*3 9.7 C 0 km/h
1746 16-03-2008 13:17:02 9.9 C 6.91 g/m*3 9.9 C 0 km/h
1747 16-03-2008 13:29:02 10.6 C 7.03 g/m*3 10.6 C 0 km/h
1748 16-03-2008 13:41:02 11.8 C 6.42 g/m*3 11.8 C 0 km/h
1749 16-03-2008 13:53:02 11.8 C 6.1 g/m*3 11.8 C 0 km/h
1750 16-03-2008 14:05:03 11.9 C 6.25 g/m*3 11.9 C 0 km/h
Sensor: Nr:Datum:Temp:Abs-Feuchte:Windchill:Wind:
Aussen-T/F 1751 16-03-2008 14:17:02 11.8 C 6 g/m*3 11.8 C 0 km/h
1752 16-03-2008 14:29:02 11.5 C 6.2 g/m*3 11.5 C 0 km/h
1753 16-03-2008 14:41:02 10.7 C 6.68 g/m*3 10.7 C 0 km/h
1754 16-03-2008 14:53:01 10.4 C 7.04 g/m*3 10.4 C 0 km/h
1755 16-03-2008 15:05:01 10 C 7.05 g/m*3 10 C 0 km/h
1756 16-03-2008 15:17:02 9.8 C 7.14 g/m*3 9.8 C 0 km/h
1757 16-03-2008 15:29:02 9.9 C 7.38 g/m*3 9.9 C 0 km/h
1758 16-03-2008 15:41:02 9.9 C 7.47 g/m*3 9.9 C 0 km/h
1759 16-03-2008 15:53:02 10.5 C 7.66 g/m*3 10.5 C 0 km/h
1760 16-03-2008 16:05:03 11.6 C 7.17 g/m*3 11.6 C 0 km/h
1761 16-03-2008 16:17:02 12.7 C 6.68 g/m*3 12.7 C 0 km/h
1762 16-03-2008 16:29:02 12.3 C 6.41 g/m*3 12.3 C 0 km/h
1763 16-03-2008 16:41:02 11.3 C 6.53 g/m*3 11.3 C 0 km/h
1764 16-03-2008 16:53:01 10.8 C 6.92 g/m*3 10.8 C 0 km/h
1765 16-03-2008 17:05:02 10.5 C 6.89 g/m*3 10.5 C 0 km/h
1766 16-03-2008 17:17:01 10 C 7.14 g/m*3 10 C 0 km/h
1767 16-03-2008 17:29:01 10 C 7.52 g/m*3 10 C 0 km/h
1768 16-03-2008 17:41:01 9.7 C 7.56 g/m*3 9.7 C 0 km/h
1769 16-03-2008 17:53:01 9.8 C 7.7 g/m*3 9.8 C 0 km/h
1770 16-03-2008 18:05:02 9.6 C 7.69 g/m*3 9.6 C 0 km/h
1771 16-03-2008 18:17:02 9.4 C 7.6 g/m*3 9.4 C 0 km/h
1772 16-03-2008 18:29:02 9.3 C 7.46 g/m*3 9.3 C 0 km/h
1773 16-03-2008 18:41:01 9.3 C 7.28 g/m*3 9.3 C 0 km/h
1774 16-03-2008 18:53:01 9.2 C 7.14 g/m*3 9.2 C 0 km/h
1775 16-03-2008 19:05:02 9.1 C 7.19 g/m*3 9.1 C 0 km/h
Sensor: Nr:Datum:Temp:Abs-Feuchte:Windchill:Wind:
Aussen-T/F 1776 16-03-2008 19:17:02 9 C 7.23 g/m*3 9 C 0 km/h
1777 16-03-2008 19:29:03 9 C 7.32 g/m*3 9 C 0 km/h
1778 16-03-2008 19:41:01 9 C 7.41 g/m*3 9 C 0 km/h
1779 16-03-2008 19:53:01 9 C 7.41 g/m*3 9 C 0 km/h
1780 16-03-2008 20:05:02 9 C 7.49 g/m*3 9 C 0 km/h
1781 16-03-2008 20:17:02 9 C 7.41 g/m*3 9 C 0 km/h
1782 16-03-2008 20:29:02 9 C 7.23 g/m*3 9 C 0 km/h
1783 16-03-2008 20:41:01 9 C 7.05 g/m*3 9 C 0 km/h
1784 16-03-2008 20:53:01 9 C 6.96 g/m*3 9 C 0 km/h
1785 16-03-2008 21:05:02 9 C 6.96 g/m*3 9 C 0 km/h
1786 16-03-2008 21:17:02 8.8 C 7.05 g/m*3 8.8 C 0 km/h
1787 16-03-2008 21:29:02 8.7 C 7.09 g/m*3 8.7 C 0 km/h
1788 16-03-2008 21:41:01 8.6 C 7.22 g/m*3 8.6 C 0 km/h
1789 16-03-2008 21:53:01 8.5 C 7.17 g/m*3 8.5 C 0 km/h
1790 16-03-2008 22:05:02 8.6 C 7.3 g/m*3 8.6 C 0 km/h
1791 16-03-2008 22:17:01 8.5 C 7.34 g/m*3 8.5 C 0 km/h
1792 16-03-2008 22:29:01 8.5 C 7.43 g/m*3 8.5 C 0 km/h
1793 16-03-2008 22:41:02 8.4 C 7.47 g/m*3 8.4 C 0 km/h
1794 16-03-2008 22:53:02 8.4 C 7.47 g/m*3 8.4 C 0 km/h
1795 16-03-2008 23:06:03 8.4 C 7.47 g/m*3 8.4 C 0 km/h
1796 16-03-2008 23:18:03 8.4 C 7.47 g/m*3 8.4 C 0 km/h
1797 16-03-2008 23:30:03 8.4 C 7.55 g/m*3 8.4 C 0 km/h
1798 16-03-2008 23:42:03 8.4 C 7.55 g/m*3 8.4 C 0 km/h
1799 16-03-2008 23:54:03 8.4 C 7.55 g/m*3 8.4 C 0 km/h
1800 17-03-2008 00:06:03 8.4 C 7.55 g/m*3 8.4 C 0 km/h
Sensor: Nr:Datum:Temp:Abs-Feuchte:Windchill:Wind:
Aussen-T/F 1801 17-03-2008 00:18:03 8.4 C 7.55 g/m*3 8.4 C 0 km/h
1802 17-03-2008 00:30:04 8.4 C 7.55 g/m*3 8.4 C 0 km/h
1803 17-03-2008 00:42:04 8.4 C 7.63 g/m*3 8.4 C 0 km/h
1804 17-03-2008 00:54:04 8.3 C 7.5 g/m*3 8.3 C 0 km/h
1805 17-03-2008 01:06:04 8.2 C 7.45 g/m*3 8.2 C 0 km/h
1806 17-03-2008 01:18:04 8 C 7.19 g/m*3 8 C 0 km/h
1807 17-03-2008 01:30:04 7.7 C 6.73 g/m*3 7.7 C 0 km/h
1808 17-03-2008 01:42:04 7.7 C 6.32 g/m*3 7.7 C 0 km/h
1809 17-03-2008 01:54:04 7.4 C 6.28 g/m*3 7.4 C 0 km/h
1810 17-03-2008 02:06:04 7.1 C 6.16 g/m*3 7.1 C 0 km/h
1811 17-03-2008 02:18:04 7 C 6.04 g/m*3 7 C 0 km/h
1812 17-03-2008 02:30:04 6.8 C 6.04 g/m*3 6.8 C 0 km/h
1813 17-03-2008 02:42:04 6.4 C 5.89 g/m*3 6.4 C 0 km/h
1814 17-03-2008 02:54:04 6.3 C 5.77 g/m*3 6.3 C 0 km/h
1815 17-03-2008 03:06:04 6.1 C 5.7 g/m*3 6.1 C 0 km/h
1816 17-03-2008 03:18:04 6 C 5.44 g/m*3 6 C 0 km/h
1817 17-03-2008 03:30:04 5.8 C 5.52 g/m*3 5.8 C 0 km/h
1818 17-03-2008 03:42:04 5.9 C 5.55 g/m*3 5.9 C 0 km/h
1819 17-03-2008 03:54:04 5.8 C 5.37 g/m*3 5.8 C 0 km/h
1820 17-03-2008 04:06:04 5.8 C 5.23 g/m*3 5.8 C 0 km/h
1821 17-03-2008 04:18:04 5.8 C 5.16 g/m*3 5.8 C 0 km/h
1822 17-03-2008 04:30:05 5.8 C 5.16 g/m*3 5.8 C 0 km/h
1823 17-03-2008 04:42:05 5.8 C 5.01 g/m*3 5.8 C 0 km/h
1824 17-03-2008 04:54:05 5.9 C 5.05 g/m*3 5.9 C 0 km/h
1825 17-03-2008 05:06:05 5.8 C 5.01 g/m*3 5.8 C 0 km/h
Sensor: Nr:Datum:Temp:Abs-Feuchte:Windchill:Wind:
Aussen-T/F 1826 17-03-2008 05:18:05 5.8 C 5.01 g/m*3 5.8 C 0 km/h
1827 17-03-2008 05:30:05 5.8 C 5.01 g/m*3 5.8 C 0 km/h
1828 17-03-2008 05:42:05 5.8 C 4.94 g/m*3 5.8 C 0 km/h
1829 17-03-2008 05:54:05 5.8 C 4.94 g/m*3 5.8 C 0 km/h
1830 17-03-2008 06:06:05 5.8 C 4.87 g/m*3 5.8 C 0 km/h
1831 17-03-2008 06:18:05 5.7 C 4.91 g/m*3 5.7 C 0 km/h
1832 17-03-2008 06:30:05 5.7 C 4.77 g/m*3 5.7 C 0 km/h
1833 17-03-2008 06:42:05 5.7 C 4.77 g/m*3 5.7 C 0 km/h
1834 17-03-2008 06:54:05 5.7 C 4.55 g/m*3 5.7 C 0 km/h
1835 17-03-2008 07:06:05 5.7 C 4.63 g/m*3 5.7 C 0 km/h
1836 17-03-2008 07:18:02 5.8 C 4.58 g/m*3 5.8 C 0 km/h
1837 17-03-2008 07:30:02 5.8 C 4.58 g/m*3 5.8 C 0 km/h
1838 17-03-2008 07:42:03 5.7 C 4.34 g/m*3 5.7 C 0 km/h
1839 17-03-2008 07:54:03 5.7 C 4.34 g/m*3 5.7 C 0 km/h
1840 17-03-2008 08:06:02 5.6 C 4.1 g/m*3 5.6 C 0 km/h
1841 17-03-2008 08:18:02 5.6 C 4.1 g/m*3 5.6 C 0 km/h
1842 17-03-2008 08:30:02 5.5 C 3.93 g/m*3 5.5 C 0 km/h
1843 17-03-2008 08:42:02 5.7 C 3.77 g/m*3 5.7 C 0 km/h
1844 17-03-2008 08:54:02 5.9 C 3.68 g/m*3 5.9 C 0 km/h
1845 17-03-2008 09:06:02 6.1 C 3.51 g/m*3 6.1 C 0 km/h
1846 17-03-2008 09:18:01 5.9 C 3.39 g/m*3 5.9 C 0 km/h
1847 17-03-2008 09:30:01 5.9 C 3.61 g/m*3 5.9 C 0 km/h
1848 17-03-2008 09:42:02 6 C 3.63 g/m*3 6 C 0 km/h
1849 17-03-2008 09:54:02 6 C 3.63 g/m*3 6 C 0 km/h
1850 17-03-2008 10:06:01 6.4 C 3.58 g/m*3 6.4 C 0 km/h
Sensor: Nr:Datum:Temp:Abs-Feuchte:Windchill:Wind:
Aussen-T/F 1851 17-03-2008 10:18:02 6.6 C 3.7 g/m*3 6.6 C 0 km/h
1852 17-03-2008 10:30:02 6.5 C 3.3 g/m*3 6.5 C 0 km/h
1853 17-03-2008 10:42:02 6.4 C 3.35 g/m*3 6.4 C 0 km/h
1854 17-03-2008 10:54:02 6.5 C 3.75 g/m*3 6.5 C 0 km/h
1855 17-03-2008 11:06:02 6.4 C 3.87 g/m*3 6.4 C 0 km/h
1856 17-03-2008 11:18:02 6.3 C 4 g/m*3 6.3 C 0 km/h
1857 17-03-2008 11:30:02 6.8 C 3.59 g/m*3 6.8 C 0 km/h
1858 17-03-2008 11:42:02 7.3 C 3.4 g/m*3 7.3 C 0 km/h
1859 17-03-2008 11:54:02 7.3 C 3.4 g/m*3 7.3 C 0 km/h
1860 17-03-2008 12:06:02 6.8 C 3.29 g/m*3 6.8 C 0 km/h
1861 17-03-2008 12:18:03 5.8 C 3.3 g/m*3 5.8 C 0 km/h
1862 17-03-2008 12:30:03 6.5 C 3.45 g/m*3 6.5 C 0 km/h
1863 17-03-2008 12:42:02 7.1 C 3.28 g/m*3 7.1 C 0 km/h
1864 17-03-2008 12:54:01 6.5 C 3.45 g/m*3 6.5 C 0 km/h
1865 17-03-2008 13:06:01 6 C 3.41 g/m*3 6 C 0 km/h
1866 17-03-2008 13:18:02 6.3 C 3.18 g/m*3 6.3 C 0 km/h
1867 17-03-2008 13:30:02 7.1 C 3.12 g/m*3 7.1 C 0 km/h
1868 17-03-2008 13:42:01 7.1 C 2.89 g/m*3 7.1 C 0 km/h
1869 17-03-2008 13:54:02 6.5 C 2.7 g/m*3 6.5 C 0 km/h
1870 17-03-2008 14:06:02 7.1 C 2.73 g/m*3 7.1 C 0 km/h
1871 17-03-2008 14:18:02 7.7 C 2.68 g/m*3 7.7 C 0 km/h
1872 17-03-2008 14:30:03 6.4 C 2.61 g/m*3 6.4 C 0 km/h
1873 17-03-2008 14:42:02 6.9 C 2.69 g/m*3 6.9 C 0 km/h
1874 17-03-2008 14:54:02 6.9 C 2.54 g/m*3 6.9 C 0 km/h
1875 17-03-2008 15:06:02 6.8 C 2.52 g/m*3 6.8 C 0 km/h
Sensor: Nr:Datum:Temp:Abs-Feuchte:Windchill:Wind:
Aussen-T/F 1876 17-03-2008 15:18:02 7 C 2.4 g/m*3 7 C 0 km/h
1877 17-03-2008 15:30:02 6.8 C 2.52 g/m*3 6.8 C 0 km/h
1878 17-03-2008 15:42:02 7 C 2.71 g/m*3 7 C 0 km/h
1879 17-03-2008 15:54:01 7.4 C 2.78 g/m*3 7.4 C 0 km/h
1880 17-03-2008 16:06:02 6.7 C 2.74 g/m*3 6.7 C 0 km/h
1881 17-03-2008 16:18:02 6.6 C 2.79 g/m*3 6.6 C 0 km/h
1882 17-03-2008 16:30:02 6.5 C 2.85 g/m*3 6.5 C 0 km/h
1883 17-03-2008 16:42:01 6.5 C 2.92 g/m*3 6.5 C 0 km/h
1884 17-03-2008 16:54:01 6.2 C 2.87 g/m*3 6.2 C 0 km/h
1885 17-03-2008 17:06:02 6 C 2.9 g/m*3 6 C 0 km/h
1886 17-03-2008 17:18:02 5.9 C 2.88 g/m*3 5.9 C 0 km/h
1887 17-03-2008 17:30:02 5.9 C 2.88 g/m*3 5.9 C 0 km/h
1888 17-03-2008 17:42:01 5.7 C 2.99 g/m*3 5.7 C 0 km/h
1889 17-03-2008 17:54:01 5.5 C 3.16 g/m*3 5.5 C 0 km/h
1890 17-03-2008 18:06:02 5.4 C 3.21 g/m*3 5.4 C 0 km/h
1891 17-03-2008 18:18:01 5.3 C 3.19 g/m*3 5.3 C 0 km/h
1892 17-03-2008 18:30:01 5.2 C 3.24 g/m*3 5.2 C 0 km/h
1893 17-03-2008 18:42:02 5.1 C 3.28 g/m*3 5.1 C 0 km/h
1894 17-03-2008 18:54:02 4.7 C 3.33 g/m*3 4.7 C 0 km/h
1895 17-03-2008 19:06:01 4.7 C 3.33 g/m*3 4.7 C 0 km/h
1896 17-03-2008 19:18:01 4.8 C 3.29 g/m*3 4.8 C 0 km/h
1897 17-03-2008 19:30:01 4.8 C 3.15 g/m*3 4.8 C 0 km/h
1898 17-03-2008 19:42:02 4.8 C 3.02 g/m*3 4.8 C 0 km/h
1899 17-03-2008 19:54:02 4.7 C 3.06 g/m*3 4.7 C 0 km/h
1900 17-03-2008 20:06:02 4.7 C 3.06 g/m*3 4.7 C 0 km/h
Sensor: Nr:Datum:Temp:Abs-Feuchte:Windchill:Wind:
Aussen-T/F 1901 17-03-2008 20:18:02 4.7 C 3.06 g/m*3 4.7 C 0 km/h
1902 17-03-2008 20:30:02 4.7 C 3.06 g/m*3 4.7 C 0 km/h
1903 17-03-2008 20:42:02 4.6 C 3.04 g/m*3 4.6 C 0 km/h
1904 17-03-2008 20:54:02 4.5 C 3.09 g/m*3 4.5 C 0 km/h
1905 17-03-2008 21:06:01 4.1 C 3.07 g/m*3 4.1 C 0 km/h
1906 17-03-2008 21:18:02 3.9 C 3.16 g/m*3 3.9 C 0 km/h
1907 17-03-2008 21:30:02 3.9 C 3.22 g/m*3 3.9 C 0 km/h
1908 17-03-2008 21:42:02 4.1 C 3.01 g/m*3 4.1 C 0 km/h
1909 17-03-2008 21:54:02 4.2 C 3.09 g/m*3 4.2 C 0 km/h
1910 17-03-2008 22:06:02 4.2 C 3.16 g/m*3 4.2 C 0 km/h
1911 17-03-2008 22:19:04 4.2 C 3.16 g/m*3 4.2 C 0 km/h
1912 17-03-2008 22:31:04 4.2 C 3.16 g/m*3 4.2 C 0 km/h
1913 17-03-2008 22:43:04 4.2 C 3.09 g/m*3 4.2 C 0 km/h
1914 17-03-2008 22:55:04 4.2 C 3.16 g/m*3 4.2 C 0 km/h
1915 17-03-2008 23:07:04 4.1 C 3.2 g/m*3 4.1 C 0 km/h
1916 17-03-2008 23:19:04 3.8 C 3.39 g/m*3 3.8 C 0 km/h
1917 17-03-2008 23:31:04 3.6 C 3.4 g/m*3 3.6 C 0 km/h
1918 17-03-2008 23:43:04 3.4 C 3.48 g/m*3 3.4 C 0 km/h
1919 17-03-2008 23:55:04 3.3 C 3.52 g/m*3 3.3 C 0 km/h
1920 18-03-2008 00:07:04 3.3 C 3.52 g/m*3 3.3 C 0 km/h
1921 18-03-2008 00:19:04 3.4 C 3.54 g/m*3 3.4 C 0 km/h
1922 18-03-2008 00:31:04 3.4 C 3.48 g/m*3 3.4 C 0 km/h
1923 18-03-2008 00:43:04 3.5 C 3.5 g/m*3 3.5 C 0 km/h
1924 18-03-2008 00:55:04 3.4 C 3.54 g/m*3 3.4 C 0 km/h
1925 18-03-2008 01:07:04 3 C 3.63 g/m*3 3 C 0 km/h
Sensor: Nr:Datum:Temp:Abs-Feuchte:Windchill:Wind:
Aussen-T/F 1926 18-03-2008 01:19:05 2.9 C 3.72 g/m*3 2.9 C 0 km/h
1927 18-03-2008 01:31:05 2.8 C 3.7 g/m*3 2.8 C 0 km/h
1928 18-03-2008 01:43:05 2.8 C 3.7 g/m*3 2.8 C 0 km/h
1929 18-03-2008 01:55:05 2.7 C 3.67 g/m*3 2.7 C 0 km/h
1930 18-03-2008 02:07:05 2.7 C 3.61 g/m*3 2.7 C 0 km/h
1931 18-03-2008 02:19:05 2.7 C 3.55 g/m*3 2.7 C 0 km/h
1932 18-03-2008 02:31:05 2.7 C 3.5 g/m*3 2.7 C 0 km/h
1933 18-03-2008 02:43:05 2.4 C 3.43 g/m*3 2.4 C 0 km/h
1934 18-03-2008 02:55:05 2.1 C 3.41 g/m*3 2.1 C 0 km/h
1935 18-03-2008 03:07:05 2 C 3.33 g/m*3 2 C 0 km/h
1936 18-03-2008 03:19:05 2.2 C 3.38 g/m*3 2.2 C 0 km/h
1937 18-03-2008 03:31:05 2.2 C 3.38 g/m*3 2.2 C 0 km/h
1938 18-03-2008 03:43:05 2 C 3.39 g/m*3 2 C 0 km/h
1939 18-03-2008 03:55:05 1.7 C 3.48 g/m*3 1.7 C 0 km/h
1940 18-03-2008 04:07:05 1.7 C 3.54 g/m*3 1.7 C 0 km/h
1941 18-03-2008 04:19:05 1.5 C 3.44 g/m*3 1.5 C 0 km/h
1942 18-03-2008 04:31:05 1.3 C 3.39 g/m*3 1.3 C 0 km/h
1943 18-03-2008 04:43:05 0.9 C 3.4 g/m*3 0.9 C 0 km/h
1944 18-03-2008 04:55:05 0.6 C 3.38 g/m*3 0.6 C 0 km/h
1945 18-03-2008 05:07:06 0.8 C 3.63 g/m*3 0.8 C 0 km/h
1946 18-03-2008 05:19:03 0.7 C 3.61 g/m*3 0.7 C 0 km/h
1947 18-03-2008 05:31:03 0.7 C 3.61 g/m*3 0.7 C 0 km/h
1948 18-03-2008 05:43:03 0.5 C 3.56 g/m*3 0.5 C 0 km/h
1949 18-03-2008 05:55:02 0.5 C 3.66 g/m*3 0.5 C 0 km/h
1950 18-03-2008 06:07:02 0.5 C 3.71 g/m*3 0.5 C 0 km/h
Sensor: Nr:Datum:Temp:Abs-Feuchte:Windchill:Wind:
Aussen-T/F 1951 18-03-2008 06:19:02 0.2 C 3.68 g/m*3 0.2 C 0 km/h
1952 18-03-2008 06:31:03 0.1 C 3.71 g/m*3 0.1 C 0 km/h
1953 18-03-2008 06:43:03 0.4 C 3.88 g/m*3 0.4 C 0 km/h
1954 18-03-2008 06:55:02 0.8 C 3.89 g/m*3 0.8 C 0 km/h
1955 18-03-2008 07:07:02 0.9 C 3.87 g/m*3 0.9 C 0 km/h
1956 18-03-2008 07:19:02 0.7 C 3.76 g/m*3 0.7 C 0 km/h
1957 18-03-2008 07:31:02 0.7 C 3.76 g/m*3 0.7 C 0 km/h
1958 18-03-2008 07:43:02 1.1 C 3.81 g/m*3 1.1 C 0 km/h
1959 18-03-2008 07:55:02 1.7 C 3.92 g/m*3 1.7 C 0 km/h
1960 18-03-2008 08:07:02 2 C 3.78 g/m*3 2 C 0 km/h
1961 18-03-2008 08:19:01 2 C 3.67 g/m*3 2 C 0 km/h
1962 18-03-2008 08:31:02 1.8 C 3.67 g/m*3 1.8 C 0 km/h
1963 18-03-2008 08:43:02 1.8 C 3.67 g/m*3 1.8 C 0 km/h
1964 18-03-2008 08:55:02 1.8 C 3.67 g/m*3 1.8 C 0 km/h
1965 18-03-2008 09:07:02 2.2 C 3.66 g/m*3 2.2 C 0 km/h
1966 18-03-2008 09:19:02 2.5 C 3.62 g/m*3 2.5 C 0 km/h
1967 18-03-2008 09:31:02 3.1 C 3.53 g/m*3 3.1 C 0 km/h
1968 18-03-2008 09:43:02 3.8 C 3.32 g/m*3 3.8 C 0 km/h
1969 18-03-2008 09:55:02 4.2 C 3.16 g/m*3 4.2 C 0 km/h
1970 18-03-2008 10:07:02 4.7 C 3.2 g/m*3 4.7 C 0 km/h
1971 18-03-2008 10:19:01 4.9 C 3.04 g/m*3 4.9 C 0 km/h
1972 18-03-2008 10:31:02 5.1 C 2.8 g/m*3 5.1 C 0 km/h
1973 18-03-2008 10:43:02 5.2 C 2.75 g/m*3 5.2 C 0 km/h
1974 18-03-2008 10:55:02 5 C 2.72 g/m*3 5 C 0 km/h
1975 18-03-2008 11:07:01 4.7 C 2.66 g/m*3 4.7 C 0 km/h
Sensor: Nr:Datum:Temp:Abs-Feuchte:Windchill:Wind:
Aussen-T/F 1976 18-03-2008 11:19:01 5.5 C 2.6 g/m*3 5.5 C 0 km/h
1977 18-03-2008 11:31:02 5 C 2.24 g/m*3 5 C 0 km/h
1978 18-03-2008 11:43:02 5.7 C 2.42 g/m*3 5.7 C 0 km/h
1979 18-03-2008 11:55:02 5.9 C 2.16 g/m*3 5.9 C 0 km/h
1980 18-03-2008 12:07:02 5.7 C 2.06 g/m*3 5.7 C 0 km/h
1981 18-03-2008 12:19:01 5.9 C 1.95 g/m*3 5.9 C 0 km/h
1982 18-03-2008 12:31:02 6.5 C 1.5 g/m*3 6.5 C 0 km/h
1983 18-03-2008 12:43:02 6.5 C 1.5 g/m*3 6.5 C 0 km/h
1984 18-03-2008 12:55:01 7.4 C 1.59 g/m*3 7.4 C 0 km/h
1985 18-03-2008 13:07:01 7 C 1.55 g/m*3 7 C 0 km/h
1986 18-03-2008 13:19:02 7.4 C 1.59 g/m*3 7.4 C 0 km/h
1987 18-03-2008 13:31:01 7.6 C 1.61 g/m*3 7.6 C 0 km/h
1988 18-03-2008 13:43:01 7.3 C 1.58 g/m*3 7.3 C 0 km/h
1989 18-03-2008 13:55:02 7.3 C 1.58 g/m*3 7.3 C 0 km/h
1990 18-03-2008 14:07:01 7.8 C 1.63 g/m*3 7.8 C 0 km/h
1991 18-03-2008 14:19:02 6.9 C 1.92 g/m*3 6.9 C 0 km/h
1992 18-03-2008 14:31:02 6.8 C 2.29 g/m*3 6.8 C 0 km/h
1993 18-03-2008 14:43:02 7.5 C 2.24 g/m*3 7.5 C 0 km/h
1994 18-03-2008 14:55:02 9.2 C 1.79 g/m*3 9.2 C 0 km/h
1995 18-03-2008 15:07:02 7.7 C 2.03 g/m*3 7.7 C 0 km/h
1996 18-03-2008 15:19:02 9 C 1.76 g/m*3 9 C 0 km/h
1997 18-03-2008 15:31:02 7.9 C 2.05 g/m*3 7.9 C 0 km/h
1998 18-03-2008 15:43:02 8.2 C 1.76 g/m*3 8.2 C 0 km/h
1999 18-03-2008 15:55:01 8.7 C 1.73 g/m*3 8.7 C 0 km/h
2000 18-03-2008 16:07:01 9.1 C 1.77 g/m*3 9.1 C 0 km/h
Sensor: Nr:Datum:Temp:Abs-Feuchte:Windchill:Wind:
Aussen-T/F 2001 18-03-2008 16:19:02 9.2 C 1.79 g/m*3 9.2 C 0 km/h
2002 18-03-2008 16:31:01 9.2 C 1.79 g/m*3 9.2 C 0 km/h
2003 18-03-2008 16:43:01 8 C 1.65 g/m*3 8 C 0 km/h
2004 18-03-2008 16:55:02 6.2 C 3.24 g/m*3 6.2 C 0 km/h
2005 18-03-2008 17:07:01 7 C 2.87 g/m*3 7 C 0 km/h
2006 18-03-2008 17:19:02 7.5 C 2.48 g/m*3 7.5 C 0 km/h
2007 18-03-2008 17:31:02 7.8 C 2.29 g/m*3 7.8 C 0 km/h
2008 18-03-2008 17:43:02 7.7 C 2.19 g/m*3 7.7 C 0 km/h
2009 18-03-2008 17:55:03 7.7 C 2.27 g/m*3 7.7 C 0 km/h
2010 18-03-2008 18:07:03 7.2 C 2.04 g/m*3 7.2 C 0 km/h
2011 18-03-2008 18:19:02 6.8 C 2.06 g/m*3 6.8 C 0 km/h
2012 18-03-2008 18:31:02 6.3 C 2.15 g/m*3 6.3 C 0 km/h
2013 18-03-2008 18:43:02 5.9 C 2.24 g/m*3 5.9 C 0 km/h
2014 18-03-2008 18:55:02 5.6 C 2.26 g/m*3 5.6 C 0 km/h
2015 18-03-2008 19:07:03 5.3 C 2.43 g/m*3 5.3 C 0 km/h
2016 18-03-2008 19:19:03 5 C 2.45 g/m*3 5 C 0 km/h
2017 18-03-2008 19:31:02 4.8 C 2.62 g/m*3 4.8 C 0 km/h
2018 18-03-2008 19:43:02 4.8 C 2.68 g/m*3 4.8 C 0 km/h
2019 18-03-2008 19:55:02 4.6 C 2.65 g/m*3 4.6 C 0 km/h
2020 18-03-2008 20:07:02 4.6 C 2.65 g/m*3 4.6 C 0 km/h
2021 18-03-2008 20:19:01 4.5 C 2.63 g/m*3 4.5 C 0 km/h
2022 18-03-2008 20:31:02 4.3 C 2.66 g/m*3 4.3 C 0 km/h
2023 18-03-2008 20:43:02 4.2 C 2.64 g/m*3 4.2 C 0 km/h
2024 18-03-2008 20:55:01 4.3 C 2.66 g/m*3 4.3 C 0 km/h
2025 18-03-2008 21:07:02 4.2 C 2.64 g/m*3 4.2 C 0 km/h
Sensor: Nr:Datum:Temp:Abs-Feuchte:Windchill:Wind:
Aussen-T/F 2026 18-03-2008 21:19:02 3.9 C 2.84 g/m*3 3.9 C 0 km/h
2027 18-03-2008 21:31:01 3.4 C 3.05 g/m*3 3.4 C 0 km/h
2028 18-03-2008 21:43:01 3.4 C 3.11 g/m*3 3.4 C 0 km/h
2029 18-03-2008 21:55:01 3.5 C 3.14 g/m*3 3.5 C 0 km/h
2030 18-03-2008 22:07:01 3.6 C 3.22 g/m*3 3.6 C 0 km/h
2031 18-03-2008 22:19:01 3.6 C 3.28 g/m*3 3.6 C 0 km/h
2032 18-03-2008 22:31:01 4 C 3.24 g/m*3 4 C 0 km/h
2033 18-03-2008 22:43:01 4 C 3.24 g/m*3 4 C 0 km/h
2034 18-03-2008 22:55:01 4.2 C 3.35 g/m*3 4.2 C 0 km/h
2035 18-03-2008 23:07:01 4.2 C 3.54 g/m*3 4.2 C 0 km/h
2036 18-03-2008 23:19:01 4.1 C 3.58 g/m*3 4.1 C 0 km/h
2037 18-03-2008 23:31:01 4.1 C 3.65 g/m*3 4.1 C 0 km/h
2038 18-03-2008 23:43:01 4.1 C 3.65 g/m*3 4.1 C 0 km/h
2039 18-03-2008 23:55:02 4 C 3.75 g/m*3 4 C 0 km/h
2040 19-03-2008 00:07:02 3.8 C 3.89 g/m*3 3.8 C 0 km/h
2041 19-03-2008 00:19:02 3.7 C 4.05 g/m*3 3.7 C 0 km/h
2042 19-03-2008 00:31:02 3.5 C 4.12 g/m*3 3.5 C 0 km/h
2043 19-03-2008 00:43:02 3.4 C 4.09 g/m*3 3.4 C 0 km/h
2044 19-03-2008 00:55:02 3.6 C 4.15 g/m*3 3.6 C 0 km/h
2045 19-03-2008 01:07:02 3.6 C 4.09 g/m*3 3.6 C 0 km/h
2046 19-03-2008 01:19:02 3.5 C 4.12 g/m*3 3.5 C 0 km/h
2047 19-03-2008 01:31:02 3.3 C 3.94 g/m*3 3.3 C 0 km/h
2048 19-03-2008 01:43:02 3.2 C 3.92 g/m*3 3.2 C 0 km/h
2049 19-03-2008 01:55:02 3 C 3.92 g/m*3 3 C 0 km/h
2050 19-03-2008 02:07:02 2.8 C 3.93 g/m*3 2.8 C 0 km/h
Sensor: Nr:Datum:Temp:Abs-Feuchte:Windchill:Wind:
Aussen-T/F 2051 19-03-2008 02:19:02 2.7 C 3.9 g/m*3 2.7 C 0 km/h
2052 19-03-2008 02:31:02 2.7 C 3.96 g/m*3 2.7 C 0 km/h
2053 19-03-2008 02:43:02 2.9 C 4.07 g/m*3 2.9 C 0 km/h
2054 19-03-2008 02:55:02 3.1 C 3.89 g/m*3 3.1 C 0 km/h
2055 19-03-2008 03:07:02 3.1 C 3.77 g/m*3 3.1 C 0 km/h
2056 19-03-2008 03:19:02 3.1 C 3.71 g/m*3 3.1 C 0 km/h
2057 19-03-2008 03:31:02 2.9 C 3.78 g/m*3 2.9 C 0 km/h
2058 19-03-2008 03:43:02 2.7 C 3.79 g/m*3 2.7 C 0 km/h
2059 19-03-2008 03:55:03 2.5 C 3.74 g/m*3 2.5 C 0 km/h
2060 19-03-2008 04:07:03 2.4 C 3.77 g/m*3 2.4 C 0 km/h
2061 19-03-2008 04:19:03 2.3 C 3.8 g/m*3 2.3 C 0 km/h
2062 19-03-2008 04:31:03 2.4 C 3.83 g/m*3 2.4 C 0 km/h
2063 19-03-2008 04:43:03 2.6 C 3.82 g/m*3 2.6 C 0 km/h
2064 19-03-2008 04:55:03 2.5 C 3.85 g/m*3 2.5 C 0 km/h
2065 19-03-2008 05:07:03 2.4 C 3.88 g/m*3 2.4 C 0 km/h
2066 19-03-2008 05:19:03 2.5 C 3.85 g/m*3 2.5 C 0 km/h
2067 19-03-2008 05:31:03 2.4 C 3.77 g/m*3 2.4 C 0 km/h
2068 19-03-2008 05:43:03 2.4 C 3.83 g/m*3 2.4 C 0 km/h
2069 19-03-2008 05:55:03 2.3 C 3.8 g/m*3 2.3 C 0 km/h
2070 19-03-2008 06:07:03 2.3 C 3.8 g/m*3 2.3 C 0 km/h
2071 19-03-2008 06:19:01 2.1 C 3.8 g/m*3 2.1 C 0 km/h
2072 19-03-2008 06:31:02 1.8 C 3.84 g/m*3 1.8 C 0 km/h
2073 19-03-2008 06:43:02 2 C 3.89 g/m*3 2 C 0 km/h
2074 19-03-2008 06:55:02 2 C 3.83 g/m*3 2 C 0 km/h
2075 19-03-2008 07:07:01 2.2 C 3.89 g/m*3 2.2 C 0 km/h
Sensor: Nr:Datum:Temp:Abs-Feuchte:Windchill:Wind:
Aussen-T/F 2076 19-03-2008 07:19:01 2.2 C 3.77 g/m*3 2.2 C 0 km/h
2077 19-03-2008 07:31:02 2.2 C 3.83 g/m*3 2.2 C 0 km/h
2078 19-03-2008 07:43:02 2.3 C 4.08 g/m*3 2.3 C 0 km/h
2079 19-03-2008 07:55:02 2.2 C 4.17 g/m*3 2.2 C 0 km/h
2080 19-03-2008 08:07:01 2.1 C 4.2 g/m*3 2.1 C 0 km/h
2081 19-03-2008 08:19:01 2 C 4.28 g/m*3 2 C 0 km/h
2082 19-03-2008 08:31:02 2.2 C 4.39 g/m*3 2.2 C 0 km/h
2083 19-03-2008 08:43:02 2.2 C 4.45 g/m*3 2.2 C 0 km/h
2084 19-03-2008 08:55:01 2.2 C 4.45 g/m*3 2.2 C 0 km/h
2085 19-03-2008 09:07:01 2.5 C 4.48 g/m*3 2.5 C 0 km/h
2086 19-03-2008 09:19:02 2.5 C 4.43 g/m*3 2.5 C 0 km/h
2087 19-03-2008 09:31:01 2.6 C 4.4 g/m*3 2.6 C 0 km/h
2088 19-03-2008 09:43:01 2.7 C 4.43 g/m*3 2.7 C 0 km/h
2089 19-03-2008 09:55:01 2.9 C 4.31 g/m*3 2.9 C 0 km/h
2090 19-03-2008 10:07:01 3.2 C 4.22 g/m*3 3.2 C 0 km/h
2091 19-03-2008 10:19:02 3.4 C 4.03 g/m*3 3.4 C 0 km/h
2092 19-03-2008 10:31:01 3.6 C 3.84 g/m*3 3.6 C 0 km/h
2093 19-03-2008 10:43:01 4.4 C 3.59 g/m*3 4.4 C 0 km/h
2094 19-03-2008 10:55:01 4.6 C 3.51 g/m*3 4.6 C 0 km/h
2095 19-03-2008 11:07:02 4.6 C 3.64 g/m*3 4.6 C 0 km/h
2096 19-03-2008 11:19:01 4.8 C 3.55 g/m*3 4.8 C 0 km/h
2097 19-03-2008 11:31:01 5.1 C 3.35 g/m*3 5.1 C 0 km/h
2098 19-03-2008 11:43:01 5.1 C 3.21 g/m*3 5.1 C 0 km/h
2099 19-03-2008 11:55:01 6.2 C 3.31 g/m*3 6.2 C 0 km/h
2100 19-03-2008 12:07:02 5.8 C 3.08 g/m*3 5.8 C 0 km/h
Sensor: Nr:Datum:Temp:Abs-Feuchte:Windchill:Wind:
Aussen-T/F 2101 19-03-2008 12:19:01 6 C 3.27 g/m*3 6 C 0 km/h
2102 19-03-2008 12:31:02 6.1 C 2.92 g/m*3 6.1 C 0 km/h
2103 19-03-2008 12:43:02 4.1 C 3.65 g/m*3 4.1 C 0 km/h
2104 19-03-2008 12:55:02 4.2 C 3.61 g/m*3 4.2 C 0 km/h
2105 19-03-2008 13:07:01 4.6 C 3.64 g/m*3 4.6 C 0 km/h
2106 19-03-2008 13:19:01 4.4 C 3.33 g/m*3 4.4 C 0 km/h
2107 19-03-2008 13:31:02 5.4 C 3.28 g/m*3 5.4 C 0 km/h
2108 19-03-2008 13:43:02 5.1 C 3.35 g/m*3 5.1 C 0 km/h
2109 19-03-2008 13:55:02 4.8 C 3.49 g/m*3 4.8 C 0 km/h
2110 19-03-2008 14:07:01 5.2 C 3.72 g/m*3 5.2 C 0 km/h
2111 19-03-2008 14:19:02 6.1 C 3.58 g/m*3 6.1 C 0 km/h
2112 19-03-2008 14:31:01 7.8 C 3.02 g/m*3 7.8 C 0 km/h
2113 19-03-2008 14:43:02 3.8 C 3.76 g/m*3 3.8 C 0 km/h
2114 19-03-2008 14:55:01 2.9 C 4.19 g/m*3 2.9 C 0 km/h
2115 19-03-2008 15:07:01 3.6 C 4.58 g/m*3 3.6 C 0 km/h
2116 19-03-2008 15:19:02 5.4 C 4.74 g/m*3 5.4 C 0 km/h
2117 19-03-2008 15:31:01 4.6 C 4.1 g/m*3 4.6 C 0 km/h
2118 19-03-2008 15:43:01 4.4 C 4.11 g/m*3 4.4 C 0 km/h
2119 19-03-2008 15:55:01 6.5 C 3.75 g/m*3 6.5 C 0 km/h
2120 19-03-2008 16:07:01 6.4 C 3.35 g/m*3 6.4 C 0 km/h
2121 19-03-2008 16:19:02 6 C 3.41 g/m*3 6 C 0 km/h
2122 19-03-2008 16:31:01 5.1 C 3.56 g/m*3 5.1 C 0 km/h
2123 19-03-2008 16:43:01 4 C 4.01 g/m*3 4 C 0 km/h
2124 19-03-2008 16:55:01 5.5 C 4.07 g/m*3 5.5 C 0 km/h
2125 19-03-2008 17:07:02 4.5 C 3.88 g/m*3 4.5 C 0 km/h
Sensor: Nr:Datum:Temp:Abs-Feuchte:Windchill:Wind:
Aussen-T/F 2126 19-03-2008 17:19:01 4.4 C 3.92 g/m*3 4.4 C 0 km/h
2127 19-03-2008 17:31:01 4.6 C 3.77 g/m*3 4.6 C 0 km/h
2128 19-03-2008 17:43:01 5.2 C 3.58 g/m*3 5.2 C 0 km/h
2129 19-03-2008 17:55:01 5.6 C 3.61 g/m*3 5.6 C 0 km/h
2130 19-03-2008 18:07:02 5.1 C 3.56 g/m*3 5.1 C 0 km/h
2131 19-03-2008 18:19:01 4.6 C 3.64 g/m*3 4.6 C 0 km/h
2132 19-03-2008 18:31:01 3.8 C 3.76 g/m*3 3.8 C 0 km/h
2133 19-03-2008 18:43:01 3.4 C 3.91 g/m*3 3.4 C 0 km/h
2134 19-03-2008 18:55:01 3.2 C 3.98 g/m*3 3.2 C 0 km/h
2135 19-03-2008 19:07:02 3 C 3.98 g/m*3 3 C 0 km/h
2136 19-03-2008 19:19:01 3.1 C 4.13 g/m*3 3.1 C 0 km/h
2137 19-03-2008 19:31:01 3.3 C 4.19 g/m*3 3.3 C 0 km/h
2138 19-03-2008 19:43:01 3.4 C 4.15 g/m*3 3.4 C 0 km/h
2139 19-03-2008 19:55:01 3.3 C 4.13 g/m*3 3.3 C 0 km/h
2140 19-03-2008 20:07:02 3 C 4.16 g/m*3 3 C 0 km/h
2141 19-03-2008 20:19:01 2.8 C 4.16 g/m*3 2.8 C 0 km/h
2142 19-03-2008 20:31:02 2.9 C 4.19 g/m*3 2.9 C 0 km/h
2143 19-03-2008 20:43:02 2.6 C 3.99 g/m*3 2.6 C 0 km/h
2144 19-03-2008 20:55:02 2.4 C 3.83 g/m*3 2.4 C 0 km/h
2145 19-03-2008 21:07:01 2.4 C 3.83 g/m*3 2.4 C 0 km/h
2146 19-03-2008 21:19:01 2.2 C 3.83 g/m*3 2.2 C 0 km/h
2147 19-03-2008 21:31:02 1.9 C 3.86 g/m*3 1.9 C 0 km/h
2148 19-03-2008 21:43:02 1.7 C 3.92 g/m*3 1.7 C 0 km/h
2149 19-03-2008 21:55:02 1.6 C 3.89 g/m*3 1.6 C 0 km/h
2150 19-03-2008 22:08:03 1.4 C 3.89 g/m*3 1.4 C 0 km/h
Sensor: Nr:Datum:Temp:Abs-Feuchte:Windchill:Wind:
Aussen-T/F 2151 19-03-2008 22:20:03 1.3 C 3.92 g/m*3 1.3 C 0 km/h
2152 19-03-2008 22:32:03 1.4 C 4 g/m*3 1.4 C 0 km/h
2153 19-03-2008 22:44:03 1.5 C 3.92 g/m*3 1.5 C 0 km/h
2154 19-03-2008 22:56:03 1.4 C 3.89 g/m*3 1.4 C 0 km/h
2155 19-03-2008 23:08:03 1.5 C 3.92 g/m*3 1.5 C 0 km/h
2156 19-03-2008 23:20:03 1.7 C 3.92 g/m*3 1.7 C 0 km/h
2157 19-03-2008 23:32:03 1.7 C 3.87 g/m*3 1.7 C 0 km/h
2158 19-03-2008 23:44:03 1.6 C 3.84 g/m*3 1.6 C 0 km/h
2159 19-03-2008 23:56:03 1.7 C 3.92 g/m*3 1.7 C 0 km/h
2160 20-03-2008 00:08:03 1.7 C 3.87 g/m*3 1.7 C 0 km/h
2161 20-03-2008 00:20:03 1.7 C 3.87 g/m*3 1.7 C 0 km/h
2162 20-03-2008 00:32:03 1.7 C 3.87 g/m*3 1.7 C 0 km/h
2163 20-03-2008 00:44:03 2.1 C 3.86 g/m*3 2.1 C 0 km/h
2164 20-03-2008 00:56:03 2.3 C 3.91 g/m*3 2.3 C 0 km/h
2165 20-03-2008 01:08:03 2.4 C 3.83 g/m*3 2.4 C 0 km/h
2166 20-03-2008 01:20:03 2.4 C 3.83 g/m*3 2.4 C 0 km/h
2167 20-03-2008 01:32:03 2.5 C 3.85 g/m*3 2.5 C 0 km/h
2168 20-03-2008 01:44:04 2.6 C 3.82 g/m*3 2.6 C 0 km/h
2169 20-03-2008 01:56:04 2.6 C 3.82 g/m*3 2.6 C 0 km/h
2170 20-03-2008 02:08:04 2.6 C 3.82 g/m*3 2.6 C 0 km/h
2171 20-03-2008 02:20:04 2.6 C 3.94 g/m*3 2.6 C 0 km/h
2172 20-03-2008 02:32:04 2.5 C 4.02 g/m*3 2.5 C 0 km/h
2173 20-03-2008 02:44:04 2.6 C 3.88 g/m*3 2.6 C 0 km/h
2174 20-03-2008 02:56:04 2.7 C 3.85 g/m*3 2.7 C 0 km/h
2175 20-03-2008 03:08:04 2.5 C 3.91 g/m*3 2.5 C 0 km/h
Sensor: Nr:Datum:Temp:Abs-Feuchte:Windchill:Wind:
Aussen-T/F 2176 20-03-2008 03:20:04 2.4 C 4 g/m*3 2.4 C 0 km/h
2177 20-03-2008 03:32:04 2.2 C 4 g/m*3 2.2 C 0 km/h
2178 20-03-2008 03:44:04 2.1 C 4.08 g/m*3 2.1 C 0 km/h
2179 20-03-2008 03:56:04 2.1 C 4.14 g/m*3 2.1 C 0 km/h
2180 20-03-2008 04:08:04 1.9 C 4.14 g/m*3 1.9 C 0 km/h
2181 20-03-2008 04:20:04 1.8 C 4.06 g/m*3 1.8 C 0 km/h
2182 20-03-2008 04:32:04 1.7 C 4.03 g/m*3 1.7 C 0 km/h
2183 20-03-2008 04:44:04 1.6 C 4 g/m*3 1.6 C 0 km/h
2184 20-03-2008 04:56:04 1.7 C 4.08 g/m*3 1.7 C 0 km/h
2185 20-03-2008 05:08:04 1.9 C 4.03 g/m*3 1.9 C 0 km/h
2186 20-03-2008 05:20:04 2.2 C 4 g/m*3 2.2 C 0 km/h
2187 20-03-2008 05:32:04 2.3 C 3.91 g/m*3 2.3 C 0 km/h
2188 20-03-2008 05:44:05 2.1 C 3.8 g/m*3 2.1 C 0 km/h
2189 20-03-2008 05:56:05 2.2 C 3.89 g/m*3 2.2 C 0 km/h
2190 20-03-2008 06:08:05 2.4 C 3.83 g/m*3 2.4 C 0 km/h
2191 20-03-2008 06:20:05 2.4 C 3.77 g/m*3 2.4 C 0 km/h
2192 20-03-2008 06:32:05 2.6 C 3.7 g/m*3 2.6 C 0 km/h
2193 20-03-2008 06:44:05 2.5 C 3.68 g/m*3 2.5 C 0 km/h
2194 20-03-2008 06:56:01 2.6 C 3.76 g/m*3 2.6 C 0 km/h
2195 20-03-2008 07:08:02 2.5 C 3.74 g/m*3 2.5 C 0 km/h
2196 20-03-2008 07:20:02 2.5 C 3.74 g/m*3 2.5 C 0 km/h
2197 20-03-2008 07:32:01 2.5 C 3.74 g/m*3 2.5 C 0 km/h
2198 20-03-2008 07:44:01 2.6 C 3.76 g/m*3 2.6 C 0 km/h
2199 20-03-2008 07:56:01 2.8 C 3.81 g/m*3 2.8 C 0 km/h
2200 20-03-2008 08:08:02 3 C 3.75 g/m*3 3 C 0 km/h
Sensor: Nr:Datum:Temp:Abs-Feuchte:Windchill:Wind:
Aussen-T/F 2201 20-03-2008 08:20:01 3.1 C 3.77 g/m*3 3.1 C 0 km/h
2202 20-03-2008 08:32:02 3.2 C 3.74 g/m*3 3.2 C 0 km/h
2203 20-03-2008 08:44:02 3.5 C 3.75 g/m*3 3.5 C 0 km/h
2204 20-03-2008 08:56:03 3.8 C 3.76 g/m*3 3.8 C 0 km/h
2205 20-03-2008 09:08:03 3.7 C 3.68 g/m*3 3.7 C 0 km/h
2206 20-03-2008 09:20:02 3.8 C 3.7 g/m*3 3.8 C 0 km/h
2207 20-03-2008 09:32:02 4.1 C 3.84 g/m*3 4.1 C 0 km/h
2208 20-03-2008 09:44:02 4.4 C 3.79 g/m*3 4.4 C 0 km/h
2209 20-03-2008 09:56:02 4.8 C 3.76 g/m*3 4.8 C 0 km/h
2210 20-03-2008 10:08:02 4.8 C 3.49 g/m*3 4.8 C 0 km/h
2211 20-03-2008 10:20:02 5.2 C 3.51 g/m*3 5.2 C 0 km/h
2212 20-03-2008 10:32:03 5.4 C 3.42 g/m*3 5.4 C 0 km/h
2213 20-03-2008 10:44:03 5.9 C 3.32 g/m*3 5.9 C 0 km/h
2214 20-03-2008 10:56:02 6.3 C 3.26 g/m*3 6.3 C 0 km/h
2215 20-03-2008 11:08:02 6.7 C 3.12 g/m*3 6.7 C 0 km/h
2216 20-03-2008 11:20:02 6 C 3.05 g/m*3 6 C 0 km/h
2217 20-03-2008 11:32:02 6.1 C 3.21 g/m*3 6.1 C 0 km/h
2218 20-03-2008 11:44:02 5.8 C 3.3 g/m*3 5.8 C 0 km/h
2219 20-03-2008 11:56:02 6.2 C 3.24 g/m*3 6.2 C 0 km/h
2220 20-03-2008 12:08:01 5.7 C 3.42 g/m*3 5.7 C 0 km/h
2221 20-03-2008 12:20:02 4.9 C 4.05 g/m*3 4.9 C 0 km/h
2222 20-03-2008 12:32:02 4.8 C 4.16 g/m*3 4.8 C 0 km/h
2223 20-03-2008 12:44:02 4.7 C 4.46 g/m*3 4.7 C 0 km/h
2224 20-03-2008 12:56:02 4.4 C 4.44 g/m*3 4.4 C 0 km/h
2225 20-03-2008 13:08:02 4.4 C 4.44 g/m*3 4.4 C 0 km/h
Sensor: Nr:Datum:Temp:Abs-Feuchte:Windchill:Wind:
Aussen-T/F 2226 20-03-2008 13:20:02 4.5 C 4.6 g/m*3 4.5 C 0 km/h
2227 20-03-2008 13:32:02 4.7 C 4.66 g/m*3 4.7 C 0 km/h
2228 20-03-2008 13:44:02 4.9 C 4.66 g/m*3 4.9 C 0 km/h
2229 20-03-2008 13:56:02 5.3 C 4.64 g/m*3 5.3 C 0 km/h
2230 20-03-2008 14:08:03 5.9 C 4.4 g/m*3 5.9 C 0 km/h
2231 20-03-2008 14:20:02 6.4 C 3.95 g/m*3 6.4 C 0 km/h
2232 20-03-2008 14:32:02 6.3 C 3.7 g/m*3 6.3 C 0 km/h
2233 20-03-2008 14:44:02 4.7 C 4.13 g/m*3 4.7 C 0 km/h
2234 20-03-2008 14:56:01 3.6 C 4.39 g/m*3 3.6 C 0 km/h
2235 20-03-2008 15:08:02 4.2 C 4.77 g/m*3 4.2 C 0 km/h
2236 20-03-2008 15:20:01 4.5 C 4.73 g/m*3 4.5 C 0 km/h
2237 20-03-2008 15:32:01 4.9 C 4.86 g/m*3 4.9 C 0 km/h
2238 20-03-2008 15:44:01 5 C 4.82 g/m*3 5 C 0 km/h
2239 20-03-2008 15:56:01 5.5 C 4.92 g/m*3 5.5 C 0 km/h
2240 20-03-2008 16:08:02 5.1 C 4.45 g/m*3 5.1 C 0 km/h
2241 20-03-2008 16:20:01 5 C 4.62 g/m*3 5 C 0 km/h
2242 20-03-2008 16:32:02 5 C 4.42 g/m*3 5 C 0 km/h
2243 20-03-2008 16:44:02 5.2 C 4.2 g/m*3 5.2 C 0 km/h
2244 20-03-2008 16:56:03 5.5 C 4.14 g/m*3 5.5 C 0 km/h
2245 20-03-2008 17:08:02 5.8 C 3.72 g/m*3 5.8 C 0 km/h
2246 20-03-2008 17:20:02 5.9 C 3.68 g/m*3 5.9 C 0 km/h
2247 20-03-2008 17:32:02 5.9 C 3.61 g/m*3 5.9 C 0 km/h
2248 20-03-2008 17:44:02 5.9 C 3.61 g/m*3 5.9 C 0 km/h
2249 20-03-2008 17:56:02 5.9 C 3.46 g/m*3 5.9 C 0 km/h
2250 20-03-2008 18:08:02 5.8 C 3.44 g/m*3 5.8 C 0 km/h
Sensor: Nr:Datum:Temp:Abs-Feuchte:Windchill:Wind:
Aussen-T/F 2251 20-03-2008 18:20:02 5.4 C 3.7 g/m*3 5.4 C 0 km/h
2252 20-03-2008 18:32:02 4.9 C 3.92 g/m*3 4.9 C 0 km/h
2253 20-03-2008 18:44:02 4.7 C 4 g/m*3 4.7 C 0 km/h
2254 20-03-2008 18:56:01 4.7 C 4.06 g/m*3 4.7 C 0 km/h
2255 20-03-2008 19:08:02 4.7 C 4 g/m*3 4.7 C 0 km/h
2256 20-03-2008 19:20:02 4.7 C 4.06 g/m*3 4.7 C 0 km/h
2257 20-03-2008 19:32:01 4.7 C 4.06 g/m*3 4.7 C 0 km/h
2258 20-03-2008 19:44:01 4.6 C 4.1 g/m*3 4.6 C 0 km/h
2259 20-03-2008 19:56:02 4.6 C 4.17 g/m*3 4.6 C 0 km/h
2260 20-03-2008 20:08:01 4.5 C 4.27 g/m*3 4.5 C 0 km/h
2261 20-03-2008 20:20:02 4.2 C 4.32 g/m*3 4.2 C 0 km/h
2262 20-03-2008 20:32:02 3.9 C 4.55 g/m*3 3.9 C 0 km/h
2263 20-03-2008 20:44:02 3.8 C 4.64 g/m*3 3.8 C 0 km/h
2264 20-03-2008 20:56:02 3.6 C 4.7 g/m*3 3.6 C 0 km/h
2265 20-03-2008 21:08:02 3.5 C 4.73 g/m*3 3.5 C 0 km/h
2266 20-03-2008 21:20:02 3.5 C 4.8 g/m*3 3.5 C 0 km/h
2267 20-03-2008 21:32:02 3.6 C 4.77 g/m*3 3.6 C 0 km/h
2268 20-03-2008 21:44:02 3.7 C 4.74 g/m*3 3.7 C 0 km/h
2269 20-03-2008 21:56:01 3.9 C 4.67 g/m*3 3.9 C 0 km/h
2270 20-03-2008 22:08:01 3.9 C 4.61 g/m*3 3.9 C 0 km/h
2271 20-03-2008 22:20:01 4 C 4.51 g/m*3 4 C 0 km/h
2272 20-03-2008 22:32:02 4 C 4.51 g/m*3 4 C 0 km/h
2273 20-03-2008 22:44:03 3.9 C 4.61 g/m*3 3.9 C 0 km/h
2274 20-03-2008 22:56:02 3.8 C 4.58 g/m*3 3.8 C 0 km/h
2275 20-03-2008 23:08:02 3.8 C 4.58 g/m*3 3.8 C 0 km/h
Sensor: Nr:Datum:Temp:Abs-Feuchte:Windchill:Wind:
Aussen-T/F 2276 20-03-2008 23:20:02 3.8 C 4.64 g/m*3 3.8 C 0 km/h
2277 20-03-2008 23:32:02 3.8 C 4.64 g/m*3 3.8 C 0 km/h
2278 20-03-2008 23:44:02 3.7 C 4.61 g/m*3 3.7 C 0 km/h
2279 20-03-2008 23:56:02 3.8 C 4.64 g/m*3 3.8 C 0 km/h
2280 21-03-2008 00:08:02 3.8 C 4.64 g/m*3 3.8 C 0 km/h
2281 21-03-2008 00:20:03 3.7 C 4.67 g/m*3 3.7 C 0 km/h
2282 21-03-2008 00:32:02 3.6 C 4.7 g/m*3 3.6 C 0 km/h
2283 21-03-2008 00:44:03 3.5 C 4.67 g/m*3 3.5 C 0 km/h
2284 21-03-2008 00:56:02 3.4 C 4.7 g/m*3 3.4 C 0 km/h
2285 21-03-2008 01:08:02 3.3 C 4.73 g/m*3 3.3 C 0 km/h
2286 21-03-2008 01:20:02 3.4 C 4.7 g/m*3 3.4 C 0 km/h
2287 21-03-2008 01:32:02 3.3 C 4.67 g/m*3 3.3 C 0 km/h
2288 21-03-2008 01:44:02 3.2 C 4.7 g/m*3 3.2 C 0 km/h
2289 21-03-2008 01:56:02 3.3 C 4.73 g/m*3 3.3 C 0 km/h
2290 21-03-2008 02:08:02 3.2 C 4.7 g/m*3 3.2 C 0 km/h
2291 21-03-2008 02:20:02 3.2 C 4.76 g/m*3 3.2 C 0 km/h
2292 21-03-2008 02:32:02 3.3 C 4.79 g/m*3 3.3 C 0 km/h
2293 21-03-2008 02:44:02 3.4 C 4.76 g/m*3 3.4 C 0 km/h
2294 21-03-2008 02:57:03 3.5 C 4.8 g/m*3 3.5 C 0 km/h
2295 21-03-2008 03:09:03 3.6 C 4.77 g/m*3 3.6 C 0 km/h
2296 21-03-2008 03:21:03 3.6 C 4.77 g/m*3 3.6 C 0 km/h
2297 21-03-2008 03:33:01 3.6 C 4.77 g/m*3 3.6 C 0 km/h
2298 21-03-2008 03:45:01 3.5 C 4.8 g/m*3 3.5 C 0 km/h
2299 21-03-2008 03:57:01 3.4 C 4.76 g/m*3 3.4 C 0 km/h
2300 21-03-2008 04:09:01 3.3 C 4.79 g/m*3 3.3 C 0 km/h
Sensor: Nr:Datum:Temp:Abs-Feuchte:Windchill:Wind:
Aussen-T/F 2301 21-03-2008 04:21:02 3.2 C 4.76 g/m*3 3.2 C 0 km/h
2302 21-03-2008 04:33:01 3.2 C 4.82 g/m*3 3.2 C 0 km/h
2303 21-03-2008 04:45:02 3.2 C 4.76 g/m*3 3.2 C 0 km/h
2304 21-03-2008 04:57:02 3.1 C 4.79 g/m*3 3.1 C 0 km/h
2305 21-03-2008 05:09:02 3.3 C 4.85 g/m*3 3.3 C 0 km/h
2306 21-03-2008 05:21:01 3.5 C 4.8 g/m*3 3.5 C 0 km/h
2307 21-03-2008 05:33:02 3.8 C 4.77 g/m*3 3.8 C 0 km/h
2308 21-03-2008 05:45:02 4 C 4.58 g/m*3 4 C 0 km/h
2309 21-03-2008 05:57:02 4.1 C 4.61 g/m*3 4.1 C 0 km/h
2310 21-03-2008 06:09:02 4.2 C 4.64 g/m*3 4.2 C 0 km/h
2311 21-03-2008 06:21:02 4.4 C 4.57 g/m*3 4.4 C 0 km/h
2312 21-03-2008 06:33:02 4.6 C 4.57 g/m*3 4.6 C 0 km/h
2313 21-03-2008 06:45:02 4.6 C 4.5 g/m*3 4.6 C 0 km/h
2314 21-03-2008 06:57:02 4.6 C 4.57 g/m*3 4.6 C 0 km/h
2315 21-03-2008 07:09:03 4.8 C 4.63 g/m*3 4.8 C 0 km/h
2316 21-03-2008 07:21:02 4.8 C 4.56 g/m*3 4.8 C 0 km/h
2317 21-03-2008 07:33:02 5 C 4.48 g/m*3 5 C 0 km/h
2318 21-03-2008 07:45:02 4.9 C 4.46 g/m*3 4.9 C 0 km/h
2319 21-03-2008 07:57:02 4.9 C 4.39 g/m*3 4.9 C 0 km/h
2320 21-03-2008 08:09:03 4.9 C 4.32 g/m*3 4.9 C 0 km/h
2321 21-03-2008 08:21:02 5 C 4.42 g/m*3 5 C 0 km/h
2322 21-03-2008 08:33:02 5.5 C 4.42 g/m*3 5.5 C 0 km/h
2323 21-03-2008 08:45:02 5.5 C 4.35 g/m*3 5.5 C 0 km/h
2324 21-03-2008 08:57:02 5.6 C 4.31 g/m*3 5.6 C 0 km/h
2325 21-03-2008 09:09:02 5.5 C 4.28 g/m*3 5.5 C 0 km/h
Sensor: Nr:Datum:Temp:Abs-Feuchte:Windchill:Wind:
Aussen-T/F 2326 21-03-2008 09:21:02 6.3 C 4.44 g/m*3 6.3 C 0 km/h
2327 21-03-2008 09:33:02 6.2 C 4.27 g/m*3 6.2 C 0 km/h
2328 21-03-2008 09:45:02 6.2 C 4.41 g/m*3 6.2 C 0 km/h
2329 21-03-2008 09:57:02 5.6 C 4.6 g/m*3 5.6 C 0 km/h
2330 21-03-2008 10:09:02 6.1 C 4.53 g/m*3 6.1 C 0 km/h
2331 21-03-2008 10:21:02 6.1 C 4.46 g/m*3 6.1 C 0 km/h
2332 21-03-2008 10:33:02 6.1 C 4.6 g/m*3 6.1 C 0 km/h
2333 21-03-2008 10:45:02 5.8 C 4.73 g/m*3 5.8 C 0 km/h
2334 21-03-2008 10:57:02 2.7 C 4.37 g/m*3 2.7 C 0 km/h
2335 21-03-2008 11:09:02 3.3 C 4.79 g/m*3 3.3 C 0 km/h
2336 21-03-2008 11:21:03 3.4 C 4.83 g/m*3 3.4 C 0 km/h
2337 21-03-2008 11:33:02 3.8 C 4.83 g/m*3 3.8 C 0 km/h
2338 21-03-2008 11:45:02 4.4 C 4.57 g/m*3 4.4 C 0 km/h
2339 21-03-2008 11:57:03 4.3 C 4.35 g/m*3 4.3 C 0 km/h
2340 21-03-2008 12:09:02 3.3 C 4.37 g/m*3 3.3 C 0 km/h
2341 21-03-2008 12:21:02 2.6 C 4.4 g/m*3 2.6 C 0 km/h
2342 21-03-2008 12:33:02 2.7 C 4.54 g/m*3 2.7 C 0 km/h
2343 21-03-2008 12:45:01 3.2 C 4.58 g/m*3 3.2 C 0 km/h
2344 21-03-2008 12:57:01 4.4 C 4.7 g/m*3 4.4 C 0 km/h
2345 21-03-2008 13:09:02 4.6 C 4.17 g/m*3 4.6 C 0 km/h
2346 21-03-2008 13:21:02 5.1 C 4.1 g/m*3 5.1 C 0 km/h
2347 21-03-2008 13:33:02 5.2 C 3.51 g/m*3 5.2 C 0 km/h
2348 21-03-2008 13:45:02 5.1 C 3.56 g/m*3 5.1 C 0 km/h
2349 21-03-2008 13:57:02 5.5 C 3.3 g/m*3 5.5 C 0 km/h
2350 21-03-2008 14:09:02 5.5 C 3.09 g/m*3 5.5 C 0 km/h
Sensor: Nr:Datum:Temp:Abs-Feuchte:Windchill:Wind:
Aussen-T/F 2351 21-03-2008 14:21:02 4.3 C 3.76 g/m*3 4.3 C 0 km/h
2352 21-03-2008 14:33:01 4.8 C 4.16 g/m*3 4.8 C 0 km/h
2353 21-03-2008 14:45:02 5.7 C 3.99 g/m*3 5.7 C 0 km/h
2354 21-03-2008 14:57:02 6.1 C 3.21 g/m*3 6.1 C 0 km/h
2355 21-03-2008 15:09:02 5.7 C 2.92 g/m*3 5.7 C 0 km/h
2356 21-03-2008 15:21:02 5.4 C 2.79 g/m*3 5.4 C 0 km/h
2357 21-03-2008 15:33:02 5.9 C 2.96 g/m*3 5.9 C 0 km/h
2358 21-03-2008 15:45:02 5.9 C 2.74 g/m*3 5.9 C 0 km/h
2359 21-03-2008 15:57:03 5.6 C 2.76 g/m*3 5.6 C 0 km/h
2360 21-03-2008 16:09:02 6 C 2.69 g/m*3 6 C 0 km/h
2361 21-03-2008 16:21:03 5.8 C 2.58 g/m*3 5.8 C 0 km/h
2362 21-03-2008 16:33:02 5.5 C 2.67 g/m*3 5.5 C 0 km/h
2363 21-03-2008 16:45:02 6.5 C 2.7 g/m*3 6.5 C 0 km/h
2364 21-03-2008 16:57:02 5.5 C 2.53 g/m*3 5.5 C 0 km/h
2365 21-03-2008 17:09:02 5.5 C 2.53 g/m*3 5.5 C 0 km/h
2366 21-03-2008 17:21:02 5.9 C 2.52 g/m*3 5.9 C 0 km/h
2367 21-03-2008 17:33:02 5.6 C 2.55 g/m*3 5.6 C 0 km/h
2368 21-03-2008 17:45:02 5.4 C 2.65 g/m*3 5.4 C 0 km/h
2369 21-03-2008 17:57:02 5.3 C 2.63 g/m*3 5.3 C 0 km/h
2370 21-03-2008 18:09:02 5.3 C 2.63 g/m*3 5.3 C 0 km/h
2371 21-03-2008 18:21:02 5.3 C 2.7 g/m*3 5.3 C 0 km/h
2372 21-03-2008 18:33:02 5.1 C 2.74 g/m*3 5.1 C 0 km/h
2373 21-03-2008 18:45:02 4.8 C 2.88 g/m*3 4.8 C 0 km/h
2374 21-03-2008 18:57:02 4.7 C 2.93 g/m*3 4.7 C 0 km/h
2375 21-03-2008 19:09:02 4.4 C 3.26 g/m*3 4.4 C 0 km/h
Sensor: Nr:Datum:Temp:Abs-Feuchte:Windchill:Wind:
Aussen-T/F 2376 21-03-2008 19:21:05 4.1 C 3.33 g/m*3 4.1 C 0 km/h
2377 21-03-2008 19:33:02 4.1 C 3.52 g/m*3 4.1 C 0 km/h
2378 21-03-2008 19:45:03 3.3 C 3.7 g/m*3 3.3 C 0 km/h
2379 21-03-2008 19:57:03 2.2 C 4.22 g/m*3 2.2 C 0 km/h
2380 21-03-2008 20:09:03 1.8 C 4.39 g/m*3 1.8 C 0 km/h
2381 21-03-2008 20:21:02 1.7 C 4.52 g/m*3 1.7 C 0 km/h
2382 21-03-2008 20:33:02 1.8 C 4.66 g/m*3 1.8 C 0 km/h
2383 21-03-2008 20:45:01 1.7 C 4.68 g/m*3 1.7 C 0 km/h
2384 21-03-2008 20:57:01 1.7 C 4.68 g/m*3 1.7 C 0 km/h
2385 21-03-2008 21:09:01 1.7 C 4.74 g/m*3 1.7 C 0 km/h
2386 21-03-2008 21:21:02 1.7 C 4.79 g/m*3 1.7 C 0 km/h
2387 21-03-2008 21:33:01 1.6 C 4.76 g/m*3 1.6 C 0 km/h
2388 21-03-2008 21:45:02 1.7 C 4.79 g/m*3 1.7 C 0 km/h
2389 21-03-2008 21:57:02 2.1 C 4.76 g/m*3 2.1 C 0 km/h
2390 21-03-2008 22:09:02 2.1 C 4.64 g/m*3 2.1 C 0 km/h
2391 21-03-2008 22:21:02 2 C 4.5 g/m*3 2 C 0 km/h
2392 21-03-2008 22:33:02 1.8 C 4.28 g/m*3 1.8 C 0 km/h
2393 21-03-2008 22:45:02 1.3 C 4.24 g/m*3 1.3 C 0 km/h
2394 21-03-2008 22:57:02 1.2 C 4.31 g/m*3 1.2 C 0 km/h
2395 21-03-2008 23:09:02 1.1 C 4.29 g/m*3 1.1 C 0 km/h
2396 21-03-2008 23:21:02 0.9 C 4.28 g/m*3 0.9 C 0 km/h
2397 21-03-2008 23:33:03 0.8 C 4.3 g/m*3 0.8 C 0 km/h
2398 21-03-2008 23:45:02 0.7 C 4.27 g/m*3 0.7 C 0 km/h
2399 21-03-2008 23:57:02 0.8 C 4.35 g/m*3 0.8 C 0 km/h
2400 22-03-2008 00:09:02 0.8 C 4.4 g/m*3 0.8 C 0 km/h
Sensor: Nr:Datum:Temp:Abs-Feuchte:Windchill:Wind:
Aussen-T/F 2401 22-03-2008 00:21:02 0.9 C 4.43 g/m*3 0.9 C 0 km/h
2402 22-03-2008 00:33:02 1 C 4.41 g/m*3 1 C 0 km/h
2403 22-03-2008 00:45:02 1.1 C 4.44 g/m*3 1.1 C 0 km/h
2404 22-03-2008 00:57:02 1.1 C 4.44 g/m*3 1.1 C 0 km/h
2405 22-03-2008 01:09:01 1 C 4.41 g/m*3 1 C 0 km/h
2406 22-03-2008 01:21:01 0.9 C 4.43 g/m*3 0.9 C 0 km/h
2407 22-03-2008 01:33:02 0.7 C 4.37 g/m*3 0.7 C 0 km/h
2408 22-03-2008 01:45:03 0.7 C 4.37 g/m*3 0.7 C 0 km/h
2409 22-03-2008 01:57:03 0.6 C 4.34 g/m*3 0.6 C 0 km/h
2410 22-03-2008 02:09:02 0.7 C 4.42 g/m*3 0.7 C 0 km/h
2411 22-03-2008 02:21:02 0.6 C 4.39 g/m*3 0.6 C 0 km/h
2412 22-03-2008 02:33:02 0.7 C 4.47 g/m*3 0.7 C 0 km/h
2413 22-03-2008 02:46:03 0.8 C 4.51 g/m*3 0.8 C 0 km/h
2414 22-03-2008 02:58:03 0.8 C 4.56 g/m*3 0.8 C 0 km/h
2415 22-03-2008 03:10:03 0.9 C 4.59 g/m*3 0.9 C 0 km/h
2416 22-03-2008 03:22:03 1 C 4.57 g/m*3 1 C 0 km/h
2417 22-03-2008 03:34:02 1.1 C 4.6 g/m*3 1.1 C 0 km/h
2418 22-03-2008 03:46:02 1.2 C 4.63 g/m*3 1.2 C 0 km/h
2419 22-03-2008 03:58:02 1.3 C 4.66 g/m*3 1.3 C 0 km/h
2420 22-03-2008 04:10:02 1.3 C 4.66 g/m*3 1.3 C 0 km/h
2421 22-03-2008 04:22:01 1.3 C 4.61 g/m*3 1.3 C 0 km/h
2422 22-03-2008 04:34:02 1.3 C 4.61 g/m*3 1.3 C 0 km/h
2423 22-03-2008 04:46:02 1.2 C 4.63 g/m*3 1.2 C 0 km/h
2424 22-03-2008 04:58:02 1.1 C 4.6 g/m*3 1.1 C 0 km/h
2425 22-03-2008 05:10:02 1.1 C 4.6 g/m*3 1.1 C 0 km/h
Sensor: Nr:Datum:Temp:Abs-Feuchte:Windchill:Wind:
Aussen-T/F 2426 22-03-2008 05:22:02 1.1 C 4.6 g/m*3 1.1 C 0 km/h
2427 22-03-2008 05:34:02 1.2 C 4.68 g/m*3 1.2 C 0 km/h
2428 22-03-2008 05:46:01 1.2 C 4.68 g/m*3 1.2 C 0 km/h
2429 22-03-2008 05:58:01 1.3 C 4.72 g/m*3 1.3 C 0 km/h
2430 22-03-2008 06:10:02 1.4 C 4.8 g/m*3 1.4 C 0 km/h
2431 22-03-2008 06:22:01 1.4 C 4.8 g/m*3 1.4 C 0 km/h
2432 22-03-2008 06:34:01 1.5 C 4.89 g/m*3 1.5 C 0 km/h
2433 22-03-2008 06:46:01 1.5 C 4.89 g/m*3 1.5 C 0 km/h
2434 22-03-2008 06:58:01 1.6 C 4.92 g/m*3 1.6 C 0 km/h
2435 22-03-2008 07:10:01 1.7 C 4.95 g/m*3 1.7 C 0 km/h
2436 22-03-2008 07:22:02 1.8 C 4.99 g/m*3 1.8 C 0 km/h
2437 22-03-2008 07:34:01 1.9 C 4.97 g/m*3 1.9 C 0 km/h
2438 22-03-2008 07:46:02 2.2 C 5.01 g/m*3 2.2 C 0 km/h
2439 22-03-2008 07:58:03 2.2 C 5.01 g/m*3 2.2 C 0 km/h
2440 22-03-2008 08:10:01 2.2 C 5.01 g/m*3 2.2 C 0 km/h
2441 22-03-2008 08:22:01 2.2 C 4.96 g/m*3 2.2 C 0 km/h
2442 22-03-2008 08:34:02 2.4 C 5.02 g/m*3 2.4 C 0 km/h
2443 22-03-2008 08:46:02 2.7 C 5.13 g/m*3 2.7 C 0 km/h
2444 22-03-2008 08:58:02 2.9 C 5.14 g/m*3 2.9 C 0 km/h
2445 22-03-2008 09:10:02 3.1 C 5.09 g/m*3 3.1 C 0 km/h
2446 22-03-2008 09:22:02 3.6 C 5.2 g/m*3 3.6 C 0 km/h
2447 22-03-2008 09:34:01 3.7 C 5.11 g/m*3 3.7 C 0 km/h
2448 22-03-2008 09:46:01 3.8 C 5.02 g/m*3 3.8 C 0 km/h
2449 22-03-2008 09:58:01 3.7 C 4.92 g/m*3 3.7 C 0 km/h
2450 22-03-2008 10:10:02 3.9 C 4.99 g/m*3 3.9 C 0 km/h
Sensor: Nr:Datum:Temp:Abs-Feuchte:Windchill:Wind:
Aussen-T/F 2451 22-03-2008 10:22:02 3.7 C 4.92 g/m*3 3.7 C 0 km/h
2452 22-03-2008 10:34:01 3.7 C 4.92 g/m*3 3.7 C 0 km/h
2453 22-03-2008 10:46:02 4.2 C 5.03 g/m*3 4.2 C 0 km/h
2454 22-03-2008 10:58:02 4.6 C 5.1 g/m*3 4.6 C 0 km/h
2455 22-03-2008 11:10:02 5.4 C 5.16 g/m*3 5.4 C 0 km/h
2456 22-03-2008 11:22:02 5.3 C 4.78 g/m*3 5.3 C 0 km/h
2457 22-03-2008 11:34:02 3.8 C 4.71 g/m*3 3.8 C 0 km/h
2458 22-03-2008 11:46:02 2.6 C 4.51 g/m*3 2.6 C 0 km/h
2459 22-03-2008 11:58:02 2.4 C 4.74 g/m*3 2.4 C 0 km/h
2460 22-03-2008 12:10:02 2.6 C 4.92 g/m*3 2.6 C 0 km/h
2461 22-03-2008 12:22:02 3 C 5.11 g/m*3 3 C 0 km/h
2462 22-03-2008 12:34:02 3.7 C 5.36 g/m*3 3.7 C 0 km/h
2463 22-03-2008 12:46:02 4.1 C 5.44 g/m*3 4.1 C 0 km/h
2464 22-03-2008 12:58:02 4.2 C 5.41 g/m*3 4.2 C 0 km/h
2465 22-03-2008 13:10:02 4.3 C 5.38 g/m*3 4.3 C 0 km/h
2466 22-03-2008 13:22:02 3.9 C 5.18 g/m*3 3.9 C 0 km/h
2467 22-03-2008 13:34:02 3.8 C 5.21 g/m*3 3.8 C 0 km/h
2468 22-03-2008 13:46:02 4 C 5.15 g/m*3 4 C 0 km/h
2469 22-03-2008 13:58:02 3.9 C 5.18 g/m*3 3.9 C 0 km/h
2470 22-03-2008 14:10:01 3.7 C 5.05 g/m*3 3.7 C 0 km/h
2471 22-03-2008 14:22:01 3.6 C 5.08 g/m*3 3.6 C 0 km/h
2472 22-03-2008 14:34:02 3.2 C 4.88 g/m*3 3.2 C 0 km/h
2473 22-03-2008 14:46:02 3.1 C 4.91 g/m*3 3.1 C 0 km/h
2474 22-03-2008 14:58:02 3.5 C 5.29 g/m*3 3.5 C 0 km/h
2475 22-03-2008 15:10:02 4.2 C 5.54 g/m*3 4.2 C 0 km/h
Sensor: Nr:Datum:Temp:Abs-Feuchte:Windchill:Wind:
Aussen-T/F 2476 22-03-2008 15:22:02 4.3 C 5.45 g/m*3 4.3 C 0 km/h
2477 22-03-2008 15:34:01 5.2 C 5.58 g/m*3 5.2 C 0 km/h
2478 22-03-2008 15:46:02 5.4 C 5.3 g/m*3 5.4 C 0 km/h
2479 22-03-2008 15:58:02 7.2 C 5.57 g/m*3 7.2 C 0 km/h
2480 22-03-2008 16:10:01 6.9 C 4.93 g/m*3 6.9 C 0 km/h
2481 22-03-2008 16:22:02 7.2 C 4.95 g/m*3 7.2 C 0 km/h
2482 22-03-2008 16:34:02 7.2 C 4.79 g/m*3 7.2 C 0 km/h
2483 22-03-2008 16:46:02 7.5 C 4.72 g/m*3 7.5 C 0 km/h
2484 22-03-2008 16:58:02 7.1 C 4.37 g/m*3 7.1 C 0 km/h
2485 22-03-2008 17:10:02 6.9 C 4.39 g/m*3 6.9 C 0 km/h
2486 22-03-2008 17:22:02 5.4 C 4.4 g/m*3 5.4 C 0 km/h
2487 22-03-2008 17:34:02 3.6 C 4.46 g/m*3 3.6 C 0 km/h
2488 22-03-2008 17:46:02 3.3 C 4.61 g/m*3 3.3 C 0 km/h
2489 22-03-2008 17:58:02 3.6 C 4.89 g/m*3 3.6 C 0 km/h
2490 22-03-2008 18:10:02 3.8 C 5.08 g/m*3 3.8 C 0 km/h
2491 22-03-2008 18:22:01 3.7 C 5.11 g/m*3 3.7 C 0 km/h
2492 22-03-2008 18:34:02 3.6 C 5.01 g/m*3 3.6 C 0 km/h
2493 22-03-2008 18:46:01 3.8 C 4.96 g/m*3 3.8 C 0 km/h
2494 22-03-2008 18:58:01 3.8 C 4.83 g/m*3 3.8 C 0 km/h
2495 22-03-2008 19:10:02 3.7 C 4.49 g/m*3 3.7 C 0 km/h
2496 22-03-2008 19:22:02 3.6 C 4.46 g/m*3 3.6 C 0 km/h
2497 22-03-2008 19:34:02 3.5 C 4.43 g/m*3 3.5 C 0 km/h
2498 22-03-2008 19:46:02 3.5 C 4.43 g/m*3 3.5 C 0 km/h
2499 22-03-2008 19:58:02 3.5 C 4.37 g/m*3 3.5 C 0 km/h
2500 22-03-2008 20:10:02 3.4 C 4.4 g/m*3 3.4 C 0 km/h
Sensor: Nr:Datum:Temp:Abs-Feuchte:Windchill:Wind:
Aussen-T/F 2501 22-03-2008 20:22:01 3.3 C 4.31 g/m*3 3.3 C 0 km/h
2502 22-03-2008 20:34:02 3.2 C 4.28 g/m*3 3.2 C 0 km/h
2503 22-03-2008 20:46:02 3.1 C 4.25 g/m*3 3.1 C 0 km/h
2504 22-03-2008 20:58:02 2.8 C 4.22 g/m*3 2.8 C 0 km/h
2505 22-03-2008 21:10:02 2.6 C 4.22 g/m*3 2.6 C 0 km/h
2506 22-03-2008 21:22:01 2.6 C 4.22 g/m*3 2.6 C 0 km/h
2507 22-03-2008 21:34:02 2.6 C 4.11 g/m*3 2.6 C 0 km/h
2508 22-03-2008 21:46:02 2.5 C 4.14 g/m*3 2.5 C 0 km/h
2509 22-03-2008 21:58:02 2.4 C 3.94 g/m*3 2.4 C 0 km/h
2510 22-03-2008 22:10:02 2.2 C 3.89 g/m*3 2.2 C 0 km/h
2511 22-03-2008 22:22:02 1.9 C 3.97 g/m*3 1.9 C 0 km/h
2512 22-03-2008 22:34:02 1.8 C 4.06 g/m*3 1.8 C 0 km/h
2513 22-03-2008 22:46:02 1.9 C 4.19 g/m*3 1.9 C 0 km/h
2514 22-03-2008 22:58:02 1.8 C 4 g/m*3 1.8 C 0 km/h
2515 22-03-2008 23:10:02 1.7 C 3.87 g/m*3 1.7 C 0 km/h
2516 22-03-2008 23:22:02 1.7 C 3.81 g/m*3 1.7 C 0 km/h
2517 22-03-2008 23:34:01 1.6 C 3.84 g/m*3 1.6 C 0 km/h
2518 22-03-2008 23:46:02 1.6 C 3.73 g/m*3 1.6 C 0 km/h
2519 22-03-2008 23:58:02 1.6 C 3.62 g/m*3 1.6 C 0 km/h
2520 23-03-2008 00:10:02 1.4 C 3.47 g/m*3 1.4 C 0 km/h
2521 23-03-2008 00:22:02 1.2 C 3.47 g/m*3 1.2 C 0 km/h
2522 23-03-2008 00:34:02 1 C 3.58 g/m*3 1 C 0 km/h
2523 23-03-2008 00:46:02 1.1 C 3.5 g/m*3 1.1 C 0 km/h
2524 23-03-2008 00:58:03 1 C 3.43 g/m*3 1 C 0 km/h
2525 23-03-2008 01:10:01 1.1 C 3.5 g/m*3 1.1 C 0 km/h
Sensor: Nr:Datum:Temp:Abs-Feuchte:Windchill:Wind:
Aussen-T/F 2526 23-03-2008 01:22:02 1 C 3.43 g/m*3 1 C 0 km/h
2527 23-03-2008 01:34:02 1 C 3.53 g/m*3 1 C 0 km/h
2528 23-03-2008 01:46:02 0.9 C 3.51 g/m*3 0.9 C 0 km/h
2529 23-03-2008 01:58:02 0.9 C 3.4 g/m*3 0.9 C 0 km/h
2530 23-03-2008 02:10:02 0.8 C 3.33 g/m*3 0.8 C 0 km/h
2531 23-03-2008 02:22:02 0.7 C 3.25 g/m*3 0.7 C 0 km/h
2532 23-03-2008 02:34:02 0.6 C 3.23 g/m*3 0.6 C 0 km/h
2533 23-03-2008 02:46:01 0.5 C 3.31 g/m*3 0.5 C 0 km/h
2534 23-03-2008 02:58:01 0.4 C 3.29 g/m*3 0.4 C 0 km/h
2535 23-03-2008 03:10:01 0.4 C 3.29 g/m*3 0.4 C 0 km/h
2536 23-03-2008 03:22:01 0.2 C 3.24 g/m*3 0.2 C 0 km/h
2537 23-03-2008 03:34:02 -0.1 C 3.13 g/m*3 -0.1 C 0 km/h
2538 23-03-2008 03:46:02 -0.1 C 3.22 g/m*3 -0.1 C 0 km/h
2539 23-03-2008 03:58:02 -0.3 C 3.08 g/m*3 -0.3 C 0 km/h
2540 23-03-2008 04:10:02 -0.4 C 3.06 g/m*3 -0.4 C 0 km/h
2541 23-03-2008 04:22:01 -0.5 C 2.95 g/m*3 -0.5 C 0 km/h
2542 23-03-2008 04:34:02 -0.4 C 2.87 g/m*3 -0.4 C 0 km/h
2543 23-03-2008 04:46:01 -0.5 C 2.81 g/m*3 -0.5 C 0 km/h
2544 23-03-2008 04:58:01 -0.6 C 2.84 g/m*3 -0.6 C 0 km/h
2545 23-03-2008 05:10:01 -0.7 C 2.82 g/m*3 -0.7 C 0 km/h
2546 23-03-2008 05:22:02 -0.7 C 2.82 g/m*3 -0.7 C 0 km/h
2547 23-03-2008 05:34:01 -0.7 C 2.82 g/m*3 -0.7 C 0 km/h
2548 23-03-2008 05:46:01 -0.6 C 2.88 g/m*3 -0.6 C 0 km/h
2549 23-03-2008 05:58:01 -0.6 C 2.93 g/m*3 -0.6 C 0 km/h
2550 23-03-2008 06:10:02 -0.5 C 2.95 g/m*3 -0.5 C 0 km/h
Sensor: Nr:Datum:Temp:Abs-Feuchte:Windchill:Wind:
Aussen-T/F 2551 23-03-2008 06:22:02 -0.6 C 2.84 g/m*3 -0.6 C 0 km/h
2552 23-03-2008 06:34:01 -0.7 C 2.77 g/m*3 -0.7 C 0 km/h
2553 23-03-2008 06:46:01 -0.7 C 2.72 g/m*3 -0.7 C 0 km/h
2554 23-03-2008 06:58:01 -0.7 C 2.68 g/m*3 -0.7 C 0 km/h
2555 23-03-2008 07:10:02 -0.8 C 2.57 g/m*3 -0.8 C 0 km/h
2556 23-03-2008 07:22:02 -0.9 C 2.55 g/m*3 -0.9 C 0 km/h
2557 23-03-2008 07:34:01 -0.9 C 2.5 g/m*3 -0.9 C 0 km/h
2558 23-03-2008 07:46:01 -1 C 2.4 g/m*3 -1 C 0 km/h
2559 23-03-2008 07:58:01 -0.9 C 2.37 g/m*3 -0.9 C 0 km/h
2560 23-03-2008 08:10:02 -0.7 C 2.4 g/m*3 -0.7 C 0 km/h
2561 23-03-2008 08:22:02 -0.7 C 2.4 g/m*3 -0.7 C 0 km/h
2562 23-03-2008 08:34:01 -0.8 C 2.38 g/m*3 -0.8 C 0 km/h
2563 23-03-2008 08:46:01 -0.6 C 2.37 g/m*3 -0.6 C 0 km/h
2564 23-03-2008 08:58:01 -0.6 C 2.32 g/m*3 -0.6 C 0 km/h
2565 23-03-2008 09:10:01 -0.7 C 2.17 g/m*3 -0.7 C 0 km/h
2566 23-03-2008 09:22:01 -0.4 C 2.17 g/m*3 -0.4 C 0 km/h
2567 23-03-2008 09:34:02 -0.4 C 2.17 g/m*3 -0.4 C 0 km/h
2568 23-03-2008 09:46:02 -0.4 C 2.17 g/m*3 -0.4 C 0 km/h
2569 23-03-2008 09:58:02 0 C 2.18 g/m*3 0 C 0 km/h
2570 23-03-2008 10:10:01 0.5 C 2.16 g/m*3 0.5 C 0 km/h
2571 23-03-2008 10:22:01 0.3 C 1.98 g/m*3 0.3 C 0 km/h
2572 23-03-2008 10:34:01 0.8 C 2 g/m*3 0.8 C 0 km/h
2573 23-03-2008 10:46:01 1 C 1.92 g/m*3 1 C 0 km/h
2574 23-03-2008 10:58:01 1.7 C 1.91 g/m*3 1.7 C 0 km/h
2575 23-03-2008 11:10:02 1.4 C 1.33 g/m*3 1.4 C 0 km/h
Sensor: Nr:Datum:Temp:Abs-Feuchte:Windchill:Wind:
Aussen-T/F 2576 23-03-2008 11:22:01 1.3 C 1.32 g/m*3 1.3 C 0 km/h
2577 23-03-2008 11:34:01 1.5 C 1.34 g/m*3 1.5 C 0 km/h
2578 23-03-2008 11:46:01 2.1 C 1.4 g/m*3 2.1 C 0 km/h
2579 23-03-2008 11:58:01 2.2 C 1.3 g/m*3 2.2 C 0 km/h
2580 23-03-2008 12:10:01 2 C 1.17 g/m*3 2 C 0 km/h
2581 23-03-2008 12:22:02 1.7 C 1.36 g/m*3 1.7 C 0 km/h
2582 23-03-2008 12:34:01 2.6 C 1.56 g/m*3 2.6 C 0 km/h
2583 23-03-2008 12:46:01 2.4 C 1.14 g/m*3 2.4 C 0 km/h
2584 23-03-2008 12:58:01 3.4 C 1.4 g/m*3 3.4 C 0 km/h
2585 23-03-2008 13:10:01 2.8 C 1.17 g/m*3 2.8 C 0 km/h
2586 23-03-2008 13:22:01 3.2 C 1.21 g/m*3 3.2 C 0 km/h
2587 23-03-2008 13:34:01 3.7 C 1.25 g/m*3 3.7 C 0 km/h
2588 23-03-2008 13:46:01 4.3 C 1.3 g/m*3 4.3 C 0 km/h
2589 23-03-2008 13:58:01 4.5 C 1.31 g/m*3 4.5 C 0 km/h
2590 23-03-2008 14:10:02 5.8 C 1.43 g/m*3 5.8 C 0 km/h
2591 23-03-2008 14:22:01 5.8 C 1.43 g/m*3 5.8 C 0 km/h
2592 23-03-2008 14:34:01 5.8 C 1.43 g/m*3 5.8 C 0 km/h
2593 23-03-2008 14:46:01 6.6 C 1.51 g/m*3 6.6 C 0 km/h
2594 23-03-2008 14:58:01 6.3 C 1.48 g/m*3 6.3 C 0 km/h
2595 23-03-2008 15:10:02 6.1 C 1.46 g/m*3 6.1 C 0 km/h
2596 23-03-2008 15:22:02 6.4 C 1.49 g/m*3 6.4 C 0 km/h
2597 23-03-2008 15:34:01 5.5 C 1.4 g/m*3 5.5 C 0 km/h
2598 23-03-2008 15:46:01 5.6 C 1.41 g/m*3 5.6 C 0 km/h
2599 23-03-2008 15:58:01 7.6 C 1.61 g/m*3 7.6 C 0 km/h
2600 23-03-2008 16:10:01 7.5 C 1.6 g/m*3 7.5 C 0 km/h
Sensor: Nr:Datum:Temp:Abs-Feuchte:Windchill:Wind:
Aussen-T/F 2601 23-03-2008 16:22:02 7.4 C 1.59 g/m*3 7.4 C 0 km/h
2602 23-03-2008 16:34:01 8 C 1.65 g/m*3 8 C 0 km/h
2603 23-03-2008 16:46:01 8.1 C 1.66 g/m*3 8.1 C 0 km/h
2604 23-03-2008 16:58:01 8.4 C 1.7 g/m*3 8.4 C 0 km/h
2605 23-03-2008 17:10:01 7.5 C 1.6 g/m*3 7.5 C 0 km/h
2606 23-03-2008 17:22:02 7 C 1.55 g/m*3 7 C 0 km/h
2607 23-03-2008 17:34:01 6.8 C 1.53 g/m*3 6.8 C 0 km/h
2608 23-03-2008 17:46:02 5.8 C 1.43 g/m*3 5.8 C 0 km/h
2609 23-03-2008 17:58:02 5.4 C 1.4 g/m*3 5.4 C 0 km/h
2610 23-03-2008 18:10:01 5.6 C 1.41 g/m*3 5.6 C 0 km/h
2611 23-03-2008 18:22:01 5.4 C 1.4 g/m*3 5.4 C 0 km/h
2612 23-03-2008 18:34:02 4.3 C 1.3 g/m*3 4.3 C 0 km/h
2613 23-03-2008 18:46:01 3.4 C 1.22 g/m*3 3.4 C 0 km/h
2614 23-03-2008 18:58:01 2.4 C 1.2 g/m*3 2.4 C 0 km/h
2615 23-03-2008 19:10:02 1.7 C 1.42 g/m*3 1.7 C 0 km/h
2616 23-03-2008 19:22:01 1.5 C 1.61 g/m*3 1.5 C 0 km/h
2617 23-03-2008 19:34:01 1.2 C 1.89 g/m*3 1.2 C 0 km/h
2618 23-03-2008 19:46:01 1 C 2.08 g/m*3 1 C 0 km/h
2619 23-03-2008 19:58:01 0.8 C 2 g/m*3 0.8 C 0 km/h
2620 23-03-2008 20:10:02 0.7 C 1.93 g/m*3 0.7 C 0 km/h
2621 23-03-2008 20:22:01 0.5 C 2.01 g/m*3 0.5 C 0 km/h
2622 23-03-2008 20:34:01 0.3 C 2.13 g/m*3 0.3 C 0 km/h
2623 23-03-2008 20:46:01 0.1 C 2 g/m*3 0.1 C 0 km/h
2624 23-03-2008 20:58:01 -0.1 C 2.02 g/m*3 -0.1 C 0 km/h
2625 23-03-2008 21:10:02 -0.3 C 2.09 g/m*3 -0.3 C 0 km/h
Sensor: Nr:Datum:Temp:Abs-Feuchte:Windchill:Wind:
Aussen-T/F 2626 23-03-2008 21:22:01 -0.4 C 2.12 g/m*3 -0.4 C 0 km/h
2627 23-03-2008 21:34:01 -0.7 C 2.08 g/m*3 -0.7 C 0 km/h
2628 23-03-2008 21:46:01 -0.9 C 2.09 g/m*3 -0.9 C 0 km/h
2629 23-03-2008 21:58:01 -0.9 C 2.14 g/m*3 -0.9 C 0 km/h
2630 23-03-2008 22:12:05 -0.7 C 2.12 g/m*3 -0.7 C 0 km/h
2631 23-03-2008 22:24:05 -0.7 C 2.12 g/m*3 -0.7 C 0 km/h
2632 23-03-2008 22:36:05 -0.9 C 2.14 g/m*3 -0.9 C 0 km/h
2633 23-03-2008 22:48:05 -1.1 C 2.2 g/m*3 -1.1 C 0 km/h
2634 23-03-2008 23:00:05 -1.2 C 2.27 g/m*3 -1.2 C 0 km/h
2635 23-03-2008 23:12:05 -1.4 C 2.33 g/m*3 -1.4 C 0 km/h
2636 23-03-2008 23:24:05 -1.5 C 2.36 g/m*3 -1.5 C 0 km/h
2637 23-03-2008 23:36:05 -1.7 C 2.37 g/m*3 -1.7 C 0 km/h
2638 23-03-2008 23:48:05 -1.8 C 2.35 g/m*3 -1.8 C 0 km/h
2639 24-03-2008 00:00:05 -2 C 2.32 g/m*3 -2 C 0 km/h
2640 24-03-2008 00:12:05 -2 C 2.36 g/m*3 -2 C 0 km/h
2641 24-03-2008 00:24:05 -2.3 C 2.31 g/m*3 -2.3 C 0 km/h
2642 24-03-2008 00:36:06 -2.5 C 2.28 g/m*3 -2.5 C 0 km/h
2643 24-03-2008 00:48:06 -2.6 C 2.34 g/m*3 -2.6 C 0 km/h
2644 24-03-2008 01:00:06 -2.7 C 2.33 g/m*3 -2.7 C 0 km/h
2645 24-03-2008 01:12:06 -2.8 C 2.31 g/m*3 -2.8 C 0 km/h
2646 24-03-2008 01:24:06 -2.8 C 2.39 g/m*3 -2.8 C 0 km/h
2647 24-03-2008 01:36:06 -2.8 C 2.39 g/m*3 -2.8 C 0 km/h
2648 24-03-2008 01:48:06 -2.8 C 2.39 g/m*3 -2.8 C 0 km/h
2649 24-03-2008 02:00:06 -2.9 C 2.37 g/m*3 -2.9 C 0 km/h
2650 24-03-2008 02:12:06 -3 C 2.36 g/m*3 -3 C 0 km/h
Sensor: Nr:Datum:Temp:Abs-Feuchte:Windchill:Wind:
Aussen-T/F 2651 24-03-2008 02:24:06 -3.3 C 2.31 g/m*3 -3.3 C 0 km/h
2652 24-03-2008 02:36:06 -3.6 C 2.26 g/m*3 -3.6 C 0 km/h
2653 24-03-2008 02:48:06 -3.6 C 2.33 g/m*3 -3.6 C 0 km/h
2654 24-03-2008 03:00:06 -3.8 C 2.3 g/m*3 -3.8 C 0 km/h
2655 24-03-2008 03:12:06 -3.7 C 2.35 g/m*3 -3.7 C 0 km/h
2656 24-03-2008 03:24:06 -3.7 C 2.39 g/m*3 -3.7 C 0 km/h
2657 24-03-2008 03:36:06 -3.8 C 2.37 g/m*3 -3.8 C 0 km/h
2658 24-03-2008 03:48:06 -3.7 C 2.47 g/m*3 -3.7 C 0 km/h
2659 24-03-2008 04:00:06 -3.9 C 2.43 g/m*3 -3.9 C 0 km/h
2660 24-03-2008 04:12:06 -3.8 C 2.52 g/m*3 -3.8 C 0 km/h
2661 24-03-2008 04:24:06 -3.7 C 2.58 g/m*3 -3.7 C 0 km/h
2662 24-03-2008 04:36:07 -3.7 C 2.58 g/m*3 -3.7 C 0 km/h
2663 24-03-2008 04:48:07 -3.8 C 2.52 g/m*3 -3.8 C 0 km/h
2664 24-03-2008 05:00:07 -3.7 C 2.58 g/m*3 -3.7 C 0 km/h
2665 24-03-2008 05:12:07 -3.6 C 2.6 g/m*3 -3.6 C 0 km/h
2666 24-03-2008 05:24:07 -3.5 C 2.62 g/m*3 -3.5 C 0 km/h
2667 24-03-2008 05:36:07 -3.5 C 2.62 g/m*3 -3.5 C 0 km/h
2668 24-03-2008 05:48:07 -3.3 C 2.65 g/m*3 -3.3 C 0 km/h
2669 24-03-2008 06:00:07 -3.3 C 2.65 g/m*3 -3.3 C 0 km/h
2670 24-03-2008 06:12:07 -3.2 C 2.67 g/m*3 -3.2 C 0 km/h
2671 24-03-2008 06:24:07 -3.1 C 2.69 g/m*3 -3.1 C 0 km/h
2672 24-03-2008 06:36:07 -3 C 2.71 g/m*3 -3 C 0 km/h
2673 24-03-2008 06:48:07 -2.8 C 2.71 g/m*3 -2.8 C 0 km/h
2674 24-03-2008 07:00:07 -2.6 C 2.71 g/m*3 -2.6 C 0 km/h
2675 24-03-2008 07:12:07 -2.3 C 2.77 g/m*3 -2.3 C 0 km/h
Sensor: Nr:Datum:Temp:Abs-Feuchte:Windchill:Wind:
Aussen-T/F 2676 24-03-2008 07:24:07 -2.1 C 2.76 g/m*3 -2.1 C 0 km/h
2677 24-03-2008 07:36:05 -1.8 C 2.78 g/m*3 -1.8 C 0 km/h
2678 24-03-2008 07:48:03 -1.8 C 2.69 g/m*3 -1.8 C 0 km/h
2679 24-03-2008 08:00:03 -1.6 C 2.69 g/m*3 -1.6 C 0 km/h
2680 24-03-2008 08:12:03 -1.3 C 2.7 g/m*3 -1.3 C 0 km/h
2681 24-03-2008 08:24:02 -1.1 C 2.69 g/m*3 -1.1 C 0 km/h
2682 24-03-2008 08:36:02 -0.8 C 2.75 g/m*3 -0.8 C 0 km/h
2683 24-03-2008 08:48:01 -0.6 C 2.74 g/m*3 -0.6 C 0 km/h
2684 24-03-2008 09:00:01 0 C 2.81 g/m*3 0 C 0 km/h
2685 24-03-2008 09:12:02 0.3 C 2.72 g/m*3 0.3 C 0 km/h
2686 24-03-2008 09:24:01 0.7 C 2.75 g/m*3 0.7 C 0 km/h
2687 24-03-2008 09:36:01 0.7 C 2.8 g/m*3 0.7 C 0 km/h
2688 24-03-2008 09:48:02 1.1 C 2.87 g/m*3 1.1 C 0 km/h
2689 24-03-2008 10:00:02 1.5 C 2.85 g/m*3 1.5 C 0 km/h
2690 24-03-2008 10:12:01 2 C 2.83 g/m*3 2 C 0 km/h
2691 24-03-2008 10:24:02 2.2 C 2.76 g/m*3 2.2 C 0 km/h
2692 24-03-2008 10:36:01 2.6 C 2.66 g/m*3 2.6 C 0 km/h
2693 24-03-2008 10:48:02 2.6 C 2.6 g/m*3 2.6 C 0 km/h
2694 24-03-2008 11:00:02 2.4 C 2.63 g/m*3 2.4 C 0 km/h
2695 24-03-2008 11:12:02 2.9 C 2.78 g/m*3 2.9 C 0 km/h
2696 24-03-2008 11:24:03 3.3 C 2.91 g/m*3 3.3 C 0 km/h
2697 24-03-2008 11:36:02 2.7 C 2.91 g/m*3 2.7 C 0 km/h
2698 24-03-2008 11:48:01 2.2 C 2.99 g/m*3 2.2 C 0 km/h
2699 24-03-2008 12:00:01 2.2 C 3.1 g/m*3 2.2 C 0 km/h
2700 24-03-2008 12:12:02 2.2 C 3.21 g/m*3 2.2 C 0 km/h
Sensor: Nr:Datum:Temp:Abs-Feuchte:Windchill:Wind:
Aussen-T/F 2701 24-03-2008 12:24:02 2 C 3.33 g/m*3 2 C 0 km/h
2702 24-03-2008 12:36:02 2 C 3.5 g/m*3 2 C 0 km/h
2703 24-03-2008 12:48:02 2 C 3.61 g/m*3 2 C 0 km/h
2704 24-03-2008 13:00:02 2 C 3.56 g/m*3 2 C 0 km/h
2705 24-03-2008 13:12:03 1.7 C 3.54 g/m*3 1.7 C 0 km/h
2706 24-03-2008 13:24:02 1.6 C 3.73 g/m*3 1.6 C 0 km/h
2707 24-03-2008 13:36:02 1.9 C 3.81 g/m*3 1.9 C 0 km/h
2708 24-03-2008 13:48:01 1.9 C 3.7 g/m*3 1.9 C 0 km/h
2709 24-03-2008 14:00:01 1.7 C 3.76 g/m*3 1.7 C 0 km/h
2710 24-03-2008 14:12:02 1.4 C 3.89 g/m*3 1.4 C 0 km/h
2711 24-03-2008 14:24:01 1.8 C 4.11 g/m*3 1.8 C 0 km/h
2712 24-03-2008 14:36:01 1.9 C 4.19 g/m*3 1.9 C 0 km/h
2713 24-03-2008 14:48:01 3.5 C 4.61 g/m*3 3.5 C 0 km/h
2714 24-03-2008 15:00:01 4.7 C 4.33 g/m*3 4.7 C 0 km/h
2715 24-03-2008 15:12:02 5.7 C 4.06 g/m*3 5.7 C 0 km/h
2716 24-03-2008 15:24:01 5.3 C 3.6 g/m*3 5.3 C 0 km/h
2717 24-03-2008 15:36:01 7.1 C 3.98 g/m*3 7.1 C 0 km/h
2718 24-03-2008 15:48:02 6.3 C 3.11 g/m*3 6.3 C 0 km/h
2719 24-03-2008 16:00:02 5.2 C 3.03 g/m*3 5.2 C 0 km/h
2720 24-03-2008 16:12:03 5.1 C 2.94 g/m*3 5.1 C 0 km/h
2721 24-03-2008 16:24:03 4.1 C 3.2 g/m*3 4.1 C 0 km/h
2722 24-03-2008 16:36:03 2.1 C 3.47 g/m*3 2.1 C 0 km/h
2723 24-03-2008 16:48:03 1.3 C 3.81 g/m*3 1.3 C 0 km/h
2724 24-03-2008 17:00:03 1.3 C 4.03 g/m*3 1.3 C 0 km/h
2725 24-03-2008 17:12:02 1.5 C 4.08 g/m*3 1.5 C 0 km/h
Sensor: Nr:Datum:Temp:Abs-Feuchte:Windchill:Wind:
Aussen-T/F 2726 24-03-2008 17:24:02 1.2 C 4 g/m*3 1.2 C 0 km/h
2727 24-03-2008 17:36:02 1.5 C 4.08 g/m*3 1.5 C 0 km/h
2728 24-03-2008 17:48:02 1.8 C 4.17 g/m*3 1.8 C 0 km/h
2729 24-03-2008 18:00:02 1.8 C 4.06 g/m*3 1.8 C 0 km/h
2730 24-03-2008 18:12:02 1.6 C 4 g/m*3 1.6 C 0 km/h
2731 24-03-2008 18:24:03 1.5 C 3.92 g/m*3 1.5 C 0 km/h
2732 24-03-2008 18:36:02 1.1 C 3.81 g/m*3 1.1 C 0 km/h
2733 24-03-2008 18:48:02 0.8 C 3.84 g/m*3 0.8 C 0 km/h
2734 24-03-2008 19:00:02 0.7 C 3.86 g/m*3 0.7 C 0 km/h
2735 24-03-2008 19:12:02 1 C 3.94 g/m*3 1 C 0 km/h
2736 24-03-2008 19:24:01 1 C 3.89 g/m*3 1 C 0 km/h
2737 24-03-2008 19:36:02 1 C 3.94 g/m*3 1 C 0 km/h
2738 24-03-2008 19:48:02 0.8 C 3.99 g/m*3 0.8 C 0 km/h
2739 24-03-2008 20:00:02 0.6 C 4.09 g/m*3 0.6 C 0 km/h
2740 24-03-2008 20:12:01 0.4 C 4.08 g/m*3 0.4 C 0 km/h
2741 24-03-2008 20:24:01 0.2 C 4.08 g/m*3 0.2 C 0 km/h
2742 24-03-2008 20:36:02 0 C 4.02 g/m*3 0 C 0 km/h
2743 24-03-2008 20:48:02 -0.1 C 3.99 g/m*3 -0.1 C 0 km/h
2744 24-03-2008 21:00:03 0 C 4.07 g/m*3 0 C 0 km/h
2745 24-03-2008 21:12:02 0.1 C 4.1 g/m*3 0.1 C 0 km/h
2746 24-03-2008 21:24:01 0.1 C 4.1 g/m*3 0.1 C 0 km/h
2747 24-03-2008 21:36:02 0.2 C 4.13 g/m*3 0.2 C 0 km/h
2748 24-03-2008 21:48:02 0.3 C 4.16 g/m*3 0.3 C 0 km/h
2749 24-03-2008 22:00:02 0.4 C 4.13 g/m*3 0.4 C 0 km/h
2750 24-03-2008 22:12:02 0.4 C 4.08 g/m*3 0.4 C 0 km/h
Sensor: Nr:Datum:Temp:Abs-Feuchte:Windchill:Wind:
Aussen-T/F 2751 24-03-2008 22:25:03 0.3 C 3.96 g/m*3 0.3 C 0 km/h
2752 24-03-2008 22:37:03 0.3 C 3.91 g/m*3 0.3 C 0 km/h
2753 24-03-2008 22:49:03 0.3 C 3.86 g/m*3 0.3 C 0 km/h
2754 24-03-2008 23:01:03 0.3 C 3.86 g/m*3 0.3 C 0 km/h
2755 24-03-2008 23:13:03 0.3 C 3.91 g/m*3 0.3 C 0 km/h
2756 24-03-2008 23:25:03 0.2 C 3.93 g/m*3 0.2 C 0 km/h
2757 24-03-2008 23:37:03 0.2 C 3.98 g/m*3 0.2 C 0 km/h
2758 24-03-2008 23:49:03 0.2 C 4.03 g/m*3 0.2 C 0 km/h
2759 25-03-2008 00:01:03 0.2 C 4.03 g/m*3 0.2 C 0 km/h
2760 25-03-2008 00:13:03 0.2 C 4.03 g/m*3 0.2 C 0 km/h
2761 25-03-2008 00:25:03 0.2 C 4.03 g/m*3 0.2 C 0 km/h
2762 25-03-2008 00:37:03 0.2 C 4.03 g/m*3 0.2 C 0 km/h
2763 25-03-2008 00:49:03 0.2 C 4.03 g/m*3 0.2 C 0 km/h
2764 25-03-2008 01:01:03 0.1 C 4 g/m*3 0.1 C 0 km/h
2765 25-03-2008 01:13:03 0.2 C 4.03 g/m*3 0.2 C 0 km/h
2766 25-03-2008 01:25:03 0.2 C 3.98 g/m*3 0.2 C 0 km/h
2767 25-03-2008 01:37:03 0.2 C 3.83 g/m*3 0.2 C 0 km/h
2768 25-03-2008 01:49:04 0.1 C 3.71 g/m*3 0.1 C 0 km/h
2769 25-03-2008 02:01:04 0.1 C 3.56 g/m*3 0.1 C 0 km/h
2770 25-03-2008 02:13:04 0 C 3.39 g/m*3 0 C 0 km/h
2771 25-03-2008 02:25:04 -0.1 C 3.27 g/m*3 -0.1 C 0 km/h
2772 25-03-2008 02:37:04 -0.3 C 3.27 g/m*3 -0.3 C 0 km/h
2773 25-03-2008 02:49:04 -0.3 C 3.32 g/m*3 -0.3 C 0 km/h
2774 25-03-2008 03:01:04 -0.3 C 3.32 g/m*3 -0.3 C 0 km/h
2775 25-03-2008 03:13:04 -0.4 C 3.35 g/m*3 -0.4 C 0 km/h
Sensor: Nr:Datum:Temp:Abs-Feuchte:Windchill:Wind:
Aussen-T/F 2776 25-03-2008 03:25:04 -0.7 C 3.51 g/m*3 -0.7 C 0 km/h
2777 25-03-2008 03:37:04 -0.8 C 3.62 g/m*3 -0.8 C 0 km/h
2778 25-03-2008 03:49:04 -0.9 C 3.73 g/m*3 -0.9 C 0 km/h
2779 25-03-2008 04:01:04 -1 C 3.75 g/m*3 -1 C 0 km/h
2780 25-03-2008 04:13:04 -0.9 C 3.78 g/m*3 -0.9 C 0 km/h
2781 25-03-2008 04:25:04 -0.9 C 3.73 g/m*3 -0.9 C 0 km/h
2782 25-03-2008 04:37:03 -1.1 C 3.64 g/m*3 -1.1 C 0 km/h
2783 25-03-2008 04:49:02 -0.9 C 3.69 g/m*3 -0.9 C 0 km/h
2784 25-03-2008 05:01:02 -0.8 C 3.71 g/m*3 -0.8 C 0 km/h
2785 25-03-2008 05:13:02 -0.9 C 3.69 g/m*3 -0.9 C 0 km/h
2786 25-03-2008 05:25:01 -0.9 C 3.69 g/m*3 -0.9 C 0 km/h
2787 25-03-2008 05:37:02 -0.8 C 3.71 g/m*3 -0.8 C 0 km/h
2788 25-03-2008 05:49:01 -0.7 C 3.78 g/m*3 -0.7 C 0 km/h
2789 25-03-2008 06:01:02 -0.9 C 3.73 g/m*3 -0.9 C 0 km/h
2790 25-03-2008 06:13:02 -0.8 C 3.76 g/m*3 -0.8 C 0 km/h
2791 25-03-2008 06:25:02 -0.7 C 3.78 g/m*3 -0.7 C 0 km/h
2792 25-03-2008 06:37:01 -0.8 C 3.71 g/m*3 -0.8 C 0 km/h
2793 25-03-2008 06:49:01 -0.8 C 3.62 g/m*3 -0.8 C 0 km/h
2794 25-03-2008 07:01:02 -0.7 C 3.51 g/m*3 -0.7 C 0 km/h
2795 25-03-2008 07:13:02 -0.6 C 3.3 g/m*3 -0.6 C 0 km/h
2796 25-03-2008 07:25:02 -0.5 C 3.28 g/m*3 -0.5 C 0 km/h
2797 25-03-2008 07:37:02 -0.3 C 3.18 g/m*3 -0.3 C 0 km/h
2798 25-03-2008 07:49:03 -0.2 C 3.15 g/m*3 -0.2 C 0 km/h
2799 25-03-2008 08:01:02 -0.2 C 3.11 g/m*3 -0.2 C 0 km/h
2800 25-03-2008 08:13:02 0.1 C 3.12 g/m*3 0.1 C 0 km/h
Sensor: Nr:Datum:Temp:Abs-Feuchte:Windchill:Wind:
Aussen-T/F 2801 25-03-2008 08:25:02 0.4 C 3.04 g/m*3 0.4 C 0 km/h
2802 25-03-2008 08:37:02 0.4 C 2.99 g/m*3 0.4 C 0 km/h
2803 25-03-2008 08:49:02 0.4 C 2.99 g/m*3 0.4 C 0 km/h
2804 25-03-2008 09:01:02 0.5 C 3.06 g/m*3 0.5 C 0 km/h
2805 25-03-2008 09:13:02 0.7 C 3.1 g/m*3 0.7 C 0 km/h
2806 25-03-2008 09:25:01 0.9 C 2.94 g/m*3 0.9 C 0 km/h
2807 25-03-2008 09:37:02 1.4 C 2.93 g/m*3 1.4 C 0 km/h
2808 25-03-2008 09:49:02 1.4 C 2.77 g/m*3 1.4 C 0 km/h
2809 25-03-2008 10:01:02 1.4 C 2.77 g/m*3 1.4 C 0 km/h
2810 25-03-2008 10:13:02 0.8 C 3.17 g/m*3 0.8 C 0 km/h
2811 25-03-2008 10:25:03 1 C 3.27 g/m*3 1 C 0 km/h
2812 25-03-2008 10:37:02 1.6 C 3.19 g/m*3 1.6 C 0 km/h
2813 25-03-2008 10:49:01 2 C 3.11 g/m*3 2 C 0 km/h
2814 25-03-2008 11:01:01 2.4 C 2.74 g/m*3 2.4 C 0 km/h
2815 25-03-2008 11:13:01 2.4 C 2.46 g/m*3 2.4 C 0 km/h
2816 25-03-2008 11:25:02 2.6 C 2.55 g/m*3 2.6 C 0 km/h
2817 25-03-2008 11:37:01 3.1 C 2.39 g/m*3 3.1 C 0 km/h
2818 25-03-2008 11:49:01 3.2 C 2.41 g/m*3 3.2 C 0 km/h
2819 25-03-2008 12:01:02 2.8 C 2.05 g/m*3 2.8 C 0 km/h
2820 25-03-2008 12:13:02 3.3 C 2.18 g/m*3 3.3 C 0 km/h
2821 25-03-2008 12:25:02 3.9 C 2.27 g/m*3 3.9 C 0 km/h
2822 25-03-2008 12:37:01 3.7 C 2.55 g/m*3 3.7 C 0 km/h
2823 25-03-2008 12:49:01 4.1 C 2.56 g/m*3 4.1 C 0 km/h
2824 25-03-2008 13:01:02 4.7 C 2.4 g/m*3 4.7 C 0 km/h
2825 25-03-2008 13:13:02 5.6 C 2.12 g/m*3 5.6 C 0 km/h
Sensor: Nr:Datum:Temp:Abs-Feuchte:Windchill:Wind:
Aussen-T/F 2826 25-03-2008 13:25:02 5.3 C 2.08 g/m*3 5.3 C 0 km/h
2827 25-03-2008 13:37:01 5 C 1.97 g/m*3 5 C 0 km/h
2828 25-03-2008 13:49:01 4.8 C 2.01 g/m*3 4.8 C 0 km/h
2829 25-03-2008 14:01:02 5.4 C 2.09 g/m*3 5.4 C 0 km/h
2830 25-03-2008 14:13:02 5.6 C 2.12 g/m*3 5.6 C 0 km/h
2831 25-03-2008 14:25:01 6.3 C 2.07 g/m*3 6.3 C 0 km/h
2832 25-03-2008 14:37:02 6.3 C 1.85 g/m*3 6.3 C 0 km/h
2833 25-03-2008 14:49:02 6.3 C 1.85 g/m*3 6.3 C 0 km/h
2834 25-03-2008 15:01:01 6.2 C 1.84 g/m*3 6.2 C 0 km/h
2835 25-03-2008 15:13:01 6.1 C 1.9 g/m*3 6.1 C 0 km/h
2836 25-03-2008 15:25:01 6.1 C 1.97 g/m*3 6.1 C 0 km/h
2837 25-03-2008 15:37:02 5.8 C 2.15 g/m*3 5.8 C 0 km/h
2838 25-03-2008 15:49:02 5 C 2.11 g/m*3 5 C 0 km/h
2839 25-03-2008 16:01:02 5.3 C 2.36 g/m*3 5.3 C 0 km/h
2840 25-03-2008 16:13:02 5.4 C 2.44 g/m*3 5.4 C 0 km/h
2841 25-03-2008 16:25:02 5.4 C 2.3 g/m*3 5.4 C 0 km/h
2842 25-03-2008 16:37:02 4.6 C 2.18 g/m*3 4.6 C 0 km/h
2843 25-03-2008 16:49:02 4.3 C 2.14 g/m*3 4.3 C 0 km/h
2844 25-03-2008 17:01:01 4.5 C 2.3 g/m*3 4.5 C 0 km/h
2845 25-03-2008 17:13:01 4.1 C 2.5 g/m*3 4.1 C 0 km/h
2846 25-03-2008 17:25:02 3 C 3.15 g/m*3 3 C 0 km/h
2847 25-03-2008 17:37:02 2.1 C 3.24 g/m*3 2.1 C 0 km/h
2848 25-03-2008 17:49:02 1.6 C 3.62 g/m*3 1.6 C 0 km/h
2849 25-03-2008 18:01:02 1.9 C 3.48 g/m*3 1.9 C 0 km/h
2850 25-03-2008 18:13:02 1.8 C 3.4 g/m*3 1.8 C 0 km/h
Sensor: Nr:Datum:Temp:Abs-Feuchte:Windchill:Wind:
Aussen-T/F 2851 25-03-2008 18:25:02 1.4 C 3.57 g/m*3 1.4 C 0 km/h
2852 25-03-2008 18:37:02 1.4 C 3.63 g/m*3 1.4 C 0 km/h
2853 25-03-2008 18:49:02 1.6 C 3.73 g/m*3 1.6 C 0 km/h
2854 25-03-2008 19:01:02 1.7 C 3.81 g/m*3 1.7 C 0 km/h
2855 25-03-2008 19:13:02 1.7 C 3.7 g/m*3 1.7 C 0 km/h
2856 25-03-2008 19:25:01 1.8 C 3.51 g/m*3 1.8 C 0 km/h
2857 25-03-2008 19:37:02 1.8 C 3.12 g/m*3 1.8 C 0 km/h
2858 25-03-2008 19:49:03 1.7 C 2.99 g/m*3 1.7 C 0 km/h
2859 25-03-2008 20:02:02 1.7 C 2.83 g/m*3 1.7 C 0 km/h
2860 25-03-2008 20:14:02 1.5 C 2.69 g/m*3 1.5 C 0 km/h
2861 25-03-2008 20:26:02 1.6 C 2.7 g/m*3 1.6 C 0 km/h
2862 25-03-2008 20:38:02 1.6 C 2.65 g/m*3 1.6 C 0 km/h
2863 25-03-2008 20:50:02 1.4 C 2.51 g/m*3 1.4 C 0 km/h
2864 25-03-2008 21:02:02 1.2 C 2.53 g/m*3 1.2 C 0 km/h
2865 25-03-2008 21:14:02 1.1 C 2.46 g/m*3 1.1 C 0 km/h
2866 25-03-2008 21:26:02 0.8 C 2.56 g/m*3 0.8 C 0 km/h
2867 25-03-2008 21:38:02 0.5 C 2.76 g/m*3 0.5 C 0 km/h
2868 25-03-2008 21:50:02 0.4 C 2.69 g/m*3 0.4 C 0 km/h
2869 25-03-2008 22:02:02 0.4 C 2.59 g/m*3 0.4 C 0 km/h
2870 25-03-2008 22:14:02 0.2 C 2.55 g/m*3 0.2 C 0 km/h
2871 25-03-2008 22:26:02 0.2 C 2.51 g/m*3 0.2 C 0 km/h
2872 25-03-2008 22:38:02 0 C 2.47 g/m*3 0 C 0 km/h
2873 25-03-2008 22:50:02 0.1 C 2.49 g/m*3 0.1 C 0 km/h
2874 25-03-2008 23:02:02 0 C 2.42 g/m*3 0 C 0 km/h
2875 25-03-2008 23:14:03 -0.1 C 2.41 g/m*3 -0.1 C 0 km/h
Sensor: Nr:Datum:Temp:Abs-Feuchte:Windchill:Wind:
Aussen-T/F 2876 25-03-2008 23:26:03 -0.1 C 2.36 g/m*3 -0.1 C 0 km/h
2877 25-03-2008 23:38:03 0.1 C 2.34 g/m*3 0.1 C 0 km/h
2878 25-03-2008 23:50:03 0.2 C 2.41 g/m*3 0.2 C 0 km/h
2879 26-03-2008 00:02:03 0.1 C 2.44 g/m*3 0.1 C 0 km/h
2880 26-03-2008 00:14:03 0.1 C 2.44 g/m*3 0.1 C 0 km/h
2881 26-03-2008 00:26:03 0.1 C 2.44 g/m*3 0.1 C 0 km/h
2882 26-03-2008 00:38:03 -0.2 C 2.39 g/m*3 -0.2 C 0 km/h
2883 26-03-2008 00:50:03 -0.1 C 2.41 g/m*3 -0.1 C 0 km/h
2884 26-03-2008 01:02:03 -0.3 C 2.37 g/m*3 -0.3 C 0 km/h
2885 26-03-2008 01:14:03 -0.1 C 2.41 g/m*3 -0.1 C 0 km/h
2886 26-03-2008 01:26:03 -0.3 C 2.37 g/m*3 -0.3 C 0 km/h
2887 26-03-2008 01:38:03 -0.5 C 2.43 g/m*3 -0.5 C 0 km/h
2888 26-03-2008 01:50:03 -0.4 C 2.45 g/m*3 -0.4 C 0 km/h
2889 26-03-2008 02:02:03 -0.4 C 2.45 g/m*3 -0.4 C 0 km/h
2890 26-03-2008 02:14:03 -0.3 C 2.42 g/m*3 -0.3 C 0 km/h
2891 26-03-2008 02:26:03 -0.1 C 2.45 g/m*3 -0.1 C 0 km/h
2892 26-03-2008 02:38:03 0 C 2.47 g/m*3 0 C 0 km/h
2893 26-03-2008 02:50:03 0 C 2.47 g/m*3 0 C 0 km/h
2894 26-03-2008 03:02:04 0.2 C 2.51 g/m*3 0.2 C 0 km/h
2895 26-03-2008 03:14:04 0.2 C 2.51 g/m*3 0.2 C 0 km/h
2896 26-03-2008 03:26:04 0.3 C 2.52 g/m*3 0.3 C 0 km/h
2897 26-03-2008 03:38:04 0.3 C 2.57 g/m*3 0.3 C 0 km/h
2898 26-03-2008 03:50:04 0.4 C 2.64 g/m*3 0.4 C 0 km/h
2899 26-03-2008 04:02:04 0.4 C 2.69 g/m*3 0.4 C 0 km/h
2900 26-03-2008 04:14:04 0.5 C 2.76 g/m*3 0.5 C 0 km/h
Sensor: Nr:Datum:Temp:Abs-Feuchte:Windchill:Wind:
Aussen-T/F 2901 26-03-2008 04:26:04 0.5 C 2.81 g/m*3 0.5 C 0 km/h
2902 26-03-2008 04:38:04 0.6 C 2.98 g/m*3 0.6 C 0 km/h
2903 26-03-2008 04:50:04 0.5 C 3.16 g/m*3 0.5 C 0 km/h
2904 26-03-2008 05:02:04 0.4 C 3.29 g/m*3 0.4 C 0 km/h
2905 26-03-2008 05:14:04 0.3 C 3.41 g/m*3 0.3 C 0 km/h
2906 26-03-2008 05:26:04 0.2 C 3.59 g/m*3 0.2 C 0 km/h
2907 26-03-2008 05:38:04 0.1 C 3.71 g/m*3 0.1 C 0 km/h
2908 26-03-2008 05:50:04 0.1 C 3.81 g/m*3 0.1 C 0 km/h
2909 26-03-2008 06:02:04 0 C 3.92 g/m*3 0 C 0 km/h
2910 26-03-2008 06:14:04 0.1 C 4.05 g/m*3 0.1 C 0 km/h
2911 26-03-2008 06:26:04 0.1 C 4.05 g/m*3 0.1 C 0 km/h
2912 26-03-2008 06:38:04 0.1 C 4.1 g/m*3 0.1 C 0 km/h
2913 26-03-2008 06:50:05 0.1 C 4.15 g/m*3 0.1 C 0 km/h
2914 26-03-2008 07:02:02 0.1 C 4.2 g/m*3 0.1 C 0 km/h
2915 26-03-2008 07:14:02 0.3 C 4.3 g/m*3 0.3 C 0 km/h
2916 26-03-2008 07:26:02 0.4 C 4.33 g/m*3 0.4 C 0 km/h
2917 26-03-2008 07:38:02 0.5 C 4.36 g/m*3 0.5 C 0 km/h
2918 26-03-2008 07:50:02 0.6 C 4.39 g/m*3 0.6 C 0 km/h
2919 26-03-2008 08:02:02 0.7 C 4.42 g/m*3 0.7 C 0 km/h
2920 26-03-2008 08:14:02 0.8 C 4.4 g/m*3 0.8 C 0 km/h
2921 26-03-2008 08:26:01 0.9 C 4.43 g/m*3 0.9 C 0 km/h
2922 26-03-2008 08:38:02 1.1 C 4.44 g/m*3 1.1 C 0 km/h
2923 26-03-2008 08:50:02 1.3 C 4.45 g/m*3 1.3 C 0 km/h
2924 26-03-2008 09:02:02 1.5 C 4.46 g/m*3 1.5 C 0 km/h
2925 26-03-2008 09:14:02 1.7 C 4.46 g/m*3 1.7 C 0 km/h
Sensor: Nr:Datum:Temp:Abs-Feuchte:Windchill:Wind:
Aussen-T/F 2926 26-03-2008 09:26:01 1.9 C 4.42 g/m*3 1.9 C 0 km/h
2927 26-03-2008 09:38:02 2.1 C 4.42 g/m*3 2.1 C 0 km/h
2928 26-03-2008 09:50:02 2.3 C 4.42 g/m*3 2.3 C 0 km/h
2929 26-03-2008 10:02:02 2.2 C 4.34 g/m*3 2.2 C 0 km/h
2930 26-03-2008 10:14:02 2.3 C 4.37 g/m*3 2.3 C 0 km/h
2931 26-03-2008 10:26:03 2.3 C 4.37 g/m*3 2.3 C 0 km/h
2932 26-03-2008 10:38:02 2.4 C 4.4 g/m*3 2.4 C 0 km/h
2933 26-03-2008 10:50:02 2.5 C 4.48 g/m*3 2.5 C 0 km/h
2934 26-03-2008 11:02:02 2.6 C 4.57 g/m*3 2.6 C 0 km/h
2935 26-03-2008 11:14:02 2.7 C 4.6 g/m*3 2.7 C 0 km/h
2936 26-03-2008 11:26:02 2.9 C 4.61 g/m*3 2.9 C 0 km/h
2937 26-03-2008 11:38:02 3.1 C 4.55 g/m*3 3.1 C 0 km/h
2938 26-03-2008 11:50:01 3.3 C 4.61 g/m*3 3.3 C 0 km/h
2939 26-03-2008 12:02:01 3.5 C 4.67 g/m*3 3.5 C 0 km/h
2940 26-03-2008 12:14:01 3.4 C 4.52 g/m*3 3.4 C 0 km/h
2941 26-03-2008 12:26:02 3.5 C 4.61 g/m*3 3.5 C 0 km/h
2942 26-03-2008 12:38:01 3.8 C 4.77 g/m*3 3.8 C 0 km/h
2943 26-03-2008 12:50:01 4 C 4.77 g/m*3 4 C 0 km/h
2944 26-03-2008 13:02:02 4.2 C 4.77 g/m*3 4.2 C 0 km/h
2945 26-03-2008 13:14:02 4.7 C 4.86 g/m*3 4.7 C 0 km/h
2946 26-03-2008 13:26:02 4.9 C 4.86 g/m*3 4.9 C 0 km/h
2947 26-03-2008 13:38:01 5 C 4.69 g/m*3 5 C 0 km/h
2948 26-03-2008 13:50:01 5.1 C 4.72 g/m*3 5.1 C 0 km/h
2949 26-03-2008 14:02:02 5.1 C 4.51 g/m*3 5.1 C 0 km/h
2950 26-03-2008 14:14:02 5.3 C 4.57 g/m*3 5.3 C 0 km/h
Sensor: Nr:Datum:Temp:Abs-Feuchte:Windchill:Wind:
Aussen-T/F 2951 26-03-2008 14:26:01 5.5 C 4.49 g/m*3 5.5 C 0 km/h
2952 26-03-2008 14:38:01 5.9 C 4.69 g/m*3 5.9 C 0 km/h
2953 26-03-2008 14:50:01 5.8 C 4.73 g/m*3 5.8 C 0 km/h
2954 26-03-2008 15:02:01 5.6 C 4.67 g/m*3 5.6 C 0 km/h
2955 26-03-2008 15:14:02 5.3 C 4.64 g/m*3 5.3 C 0 km/h
2956 26-03-2008 15:26:01 5.1 C 4.65 g/m*3 5.1 C 0 km/h
2957 26-03-2008 15:38:02 4.9 C 4.79 g/m*3 4.9 C 0 km/h
2958 26-03-2008 15:50:02 4.8 C 4.9 g/m*3 4.8 C 0 km/h
2959 26-03-2008 16:02:02 4.5 C 4.93 g/m*3 4.5 C 0 km/h
2960 26-03-2008 16:14:02 4.4 C 5.03 g/m*3 4.4 C 0 km/h
2961 26-03-2008 16:26:02 4.4 C 5.09 g/m*3 4.4 C 0 km/h
2962 26-03-2008 16:38:02 4.4 C 5.09 g/m*3 4.4 C 0 km/h
2963 26-03-2008 16:50:02 4.4 C 5.22 g/m*3 4.4 C 0 km/h
2964 26-03-2008 17:02:01 4.3 C 5.25 g/m*3 4.3 C 0 km/h
2965 26-03-2008 17:14:01 4.4 C 5.42 g/m*3 4.4 C 0 km/h
2966 26-03-2008 17:26:02 4.4 C 5.48 g/m*3 4.4 C 0 km/h
2967 26-03-2008 17:38:01 4.3 C 5.45 g/m*3 4.3 C 0 km/h
2968 26-03-2008 17:50:02 4.1 C 5.38 g/m*3 4.1 C 0 km/h
2969 26-03-2008 18:02:02 4.2 C 5.48 g/m*3 4.2 C 0 km/h
2970 26-03-2008 18:14:02 4.1 C 5.5 g/m*3 4.1 C 0 km/h
2971 26-03-2008 18:26:01 4 C 5.47 g/m*3 4 C 0 km/h
2972 26-03-2008 18:38:02 3.9 C 5.49 g/m*3 3.9 C 0 km/h
2973 26-03-2008 18:50:02 3.9 C 5.56 g/m*3 3.9 C 0 km/h
2974 26-03-2008 19:02:01 3.9 C 5.56 g/m*3 3.9 C 0 km/h
2975 26-03-2008 19:14:01 3.8 C 5.58 g/m*3 3.8 C 0 km/h
Sensor: Nr:Datum:Temp:Abs-Feuchte:Windchill:Wind:
Aussen-T/F 2976 26-03-2008 19:26:01 3.7 C 5.55 g/m*3 3.7 C 0 km/h
2977 26-03-2008 19:38:02 3.7 C 5.55 g/m*3 3.7 C 0 km/h
2978 26-03-2008 19:50:02 3.6 C 5.51 g/m*3 3.6 C 0 km/h
2979 26-03-2008 20:02:02 3.5 C 5.47 g/m*3 3.5 C 0 km/h
2980 26-03-2008 20:14:03 3.5 C 5.47 g/m*3 3.5 C 0 km/h
2981 26-03-2008 20:26:02 3.5 C 5.47 g/m*3 3.5 C 0 km/h
2982 26-03-2008 20:38:02 3.5 C 5.47 g/m*3 3.5 C 0 km/h
2983 26-03-2008 20:50:02 3.4 C 5.5 g/m*3 3.4 C 0 km/h
2984 26-03-2008 21:02:02 3.3 C 5.46 g/m*3 3.3 C 0 km/h
2985 26-03-2008 21:14:02 3.3 C 5.46 g/m*3 3.3 C 0 km/h
2986 26-03-2008 21:26:02 3.3 C 5.46 g/m*3 3.3 C 0 km/h
2987 26-03-2008 21:38:01 3.3 C 5.46 g/m*3 3.3 C 0 km/h
2988 26-03-2008 21:50:01 3.2 C 5.42 g/m*3 3.2 C 0 km/h
2989 26-03-2008 22:02:02 3.2 C 5.48 g/m*3 3.2 C 0 km/h
2990 26-03-2008 22:14:02 3.3 C 5.52 g/m*3 3.3 C 0 km/h
2991 26-03-2008 22:26:02 3.1 C 5.45 g/m*3 3.1 C 0 km/h
2992 26-03-2008 22:39:41 3 C 5.41 g/m*3 3 C 0 km/h
2993 26-03-2008 22:51:41 3 C 5.41 g/m*3 3 C 0 km/h
2994 26-03-2008 23:03:41 3 C 5.41 g/m*3 3 C 0 km/h
2995 26-03-2008 23:15:41 3 C 5.41 g/m*3 3 C 0 km/h
2996 26-03-2008 23:27:42 3 C 5.41 g/m*3 3 C 0 km/h
2997 26-03-2008 23:39:42 2.9 C 5.43 g/m*3 2.9 C 0 km/h
2998 26-03-2008 23:51:42 3 C 5.41 g/m*3 3 C 0 km/h
2999 27-03-2008 00:03:42 2.9 C 5.43 g/m*3 2.9 C 0 km/h
3000 27-03-2008 00:15:42 2.9 C 5.43 g/m*3 2.9 C 0 km/h
Sensor: Nr:Datum:Temp:Abs-Feuchte:Windchill:Wind:
Aussen-T/F 3001 27-03-2008 00:27:42 2.8 C 5.4 g/m*3 2.8 C 0 km/h
3002 27-03-2008 00:39:42 2.8 C 5.4 g/m*3 2.8 C 0 km/h
3003 27-03-2008 00:51:42 2.7 C 5.36 g/m*3 2.7 C 0 km/h
3004 27-03-2008 01:03:42 2.8 C 5.4 g/m*3 2.8 C 0 km/h
3005 27-03-2008 01:15:42 2.9 C 5.43 g/m*3 2.9 C 0 km/h
3006 27-03-2008 01:27:42 3 C 5.47 g/m*3 3 C 0 km/h
3007 27-03-2008 01:39:42 2.9 C 5.43 g/m*3 2.9 C 0 km/h
3008 27-03-2008 01:51:42 2.8 C 5.4 g/m*3 2.8 C 0 km/h
3009 27-03-2008 02:03:42 2.8 C 5.4 g/m*3 2.8 C 0 km/h
3010 27-03-2008 02:15:42 2.8 C 5.4 g/m*3 2.8 C 0 km/h
3011 27-03-2008 02:27:42 2.9 C 5.49 g/m*3 2.9 C 0 km/h
3012 27-03-2008 02:39:42 2.9 C 5.49 g/m*3 2.9 C 0 km/h
3013 27-03-2008 02:51:42 3 C 5.47 g/m*3 3 C 0 km/h
3014 27-03-2008 03:03:42 2.8 C 5.4 g/m*3 2.8 C 0 km/h
3015 27-03-2008 03:15:42 2.8 C 5.4 g/m*3 2.8 C 0 km/h
3016 27-03-2008 03:27:43 2.4 C 5.2 g/m*3 2.4 C 0 km/h
3017 27-03-2008 03:39:43 2.2 C 5.13 g/m*3 2.2 C 0 km/h
3018 27-03-2008 03:51:43 2.2 C 5.18 g/m*3 2.2 C 0 km/h
3019 27-03-2008 04:03:43 2.3 C 5.22 g/m*3 2.3 C 0 km/h
3020 27-03-2008 04:15:43 2.4 C 5.25 g/m*3 2.4 C 0 km/h
3021 27-03-2008 04:27:43 2.3 C 5.22 g/m*3 2.3 C 0 km/h
3022 27-03-2008 04:39:43 2.3 C 5.16 g/m*3 2.3 C 0 km/h
3023 27-03-2008 04:51:43 2.3 C 5.16 g/m*3 2.3 C 0 km/h
3024 27-03-2008 05:03:43 2.3 C 5.16 g/m*3 2.3 C 0 km/h
3025 27-03-2008 05:15:43 2.4 C 5.2 g/m*3 2.4 C 0 km/h
Sensor: Nr:Datum:Temp:Abs-Feuchte:Windchill:Wind:
Aussen-T/F 3026 27-03-2008 05:27:43 2.4 C 5.2 g/m*3 2.4 C 0 km/h
3027 27-03-2008 05:39:43 2.3 C 5.16 g/m*3 2.3 C 0 km/h
3028 27-03-2008 05:51:43 2.2 C 5.13 g/m*3 2.2 C 0 km/h
3029 27-03-2008 06:03:43 2.4 C 5.14 g/m*3 2.4 C 0 km/h
3030 27-03-2008 06:15:43 2.3 C 5.1 g/m*3 2.3 C 0 km/h
3031 27-03-2008 06:27:02 2.4 C 5.14 g/m*3 2.4 C 0 km/h
3032 27-03-2008 06:39:02 2.5 C 5.17 g/m*3 2.5 C 0 km/h
3033 27-03-2008 06:51:01 2.6 C 5.21 g/m*3 2.6 C 0 km/h
3034 27-03-2008 07:03:02 2.6 C 5.21 g/m*3 2.6 C 0 km/h
3035 27-03-2008 07:15:02 2.6 C 5.15 g/m*3 2.6 C 0 km/h
3036 27-03-2008 07:27:02 2.7 C 5.19 g/m*3 2.7 C 0 km/h
3037 27-03-2008 07:39:02 3 C 5.29 g/m*3 3 C 0 km/h
3038 27-03-2008 07:51:02 3.2 C 5.3 g/m*3 3.2 C 0 km/h
3039 27-03-2008 08:03:02 3.2 C 5.3 g/m*3 3.2 C 0 km/h
3040 27-03-2008 08:15:02 3.3 C 5.34 g/m*3 3.3 C 0 km/h
3041 27-03-2008 08:27:02 3.4 C 5.31 g/m*3 3.4 C 0 km/h
3042 27-03-2008 08:39:02 3.3 C 5.28 g/m*3 3.3 C 0 km/h
3043 27-03-2008 08:51:02 3.3 C 5.22 g/m*3 3.3 C 0 km/h
3044 27-03-2008 09:03:02 3.4 C 5.31 g/m*3 3.4 C 0 km/h
3045 27-03-2008 09:15:02 3.5 C 5.35 g/m*3 3.5 C 0 km/h
3046 27-03-2008 09:27:02 3.6 C 5.39 g/m*3 3.6 C 0 km/h
3047 27-03-2008 09:39:02 3.6 C 5.32 g/m*3 3.6 C 0 km/h
3048 27-03-2008 09:51:02 3.6 C 5.39 g/m*3 3.6 C 0 km/h
3049 27-03-2008 10:03:02 3.7 C 5.42 g/m*3 3.7 C 0 km/h
3050 27-03-2008 10:15:02 3.8 C 5.52 g/m*3 3.8 C 0 km/h
Sensor: Nr:Datum:Temp:Abs-Feuchte:Windchill:Wind:
Aussen-T/F 3051 27-03-2008 10:27:02 4.4 C 5.75 g/m*3 4.4 C 0 km/h
3052 27-03-2008 10:39:02 5.5 C 6.11 g/m*3 5.5 C 0 km/h
3053 27-03-2008 10:51:01 5.5 C 5.97 g/m*3 5.5 C 0 km/h
3054 27-03-2008 11:03:02 6 C 6.1 g/m*3 6 C 0 km/h
3055 27-03-2008 11:15:02 6.2 C 6.1 g/m*3 6.2 C 0 km/h
3056 27-03-2008 11:27:02 7.4 C 6.44 g/m*3 7.4 C 0 km/h
3057 27-03-2008 11:39:02 7.8 C 6.12 g/m*3 7.8 C 0 km/h
3058 27-03-2008 11:51:02 8.4 C 6.02 g/m*3 8.4 C 0 km/h
3059 27-03-2008 12:03:02 8.1 C 5.57 g/m*3 8.1 C 0 km/h
3060 27-03-2008 12:15:01 8.1 C 5.57 g/m*3 8.1 C 0 km/h
3061 27-03-2008 12:27:01 8.2 C 5.61 g/m*3 8.2 C 0 km/h
3062 27-03-2008 12:39:02 8.5 C 5.55 g/m*3 8.5 C 0 km/h
3063 27-03-2008 12:51:02 8.4 C 5.51 g/m*3 8.4 C 0 km/h
3064 27-03-2008 13:03:01 8.7 C 5.71 g/m*3 8.7 C 0 km/h
3065 27-03-2008 13:15:01 8.8 C 5.66 g/m*3 8.8 C 0 km/h
3066 27-03-2008 13:27:01 8.4 C 5.26 g/m*3 8.4 C 0 km/h
3067 27-03-2008 13:39:02 8 C 5.21 g/m*3 8 C 0 km/h
3068 27-03-2008 13:51:02 8.2 C 5.36 g/m*3 8.2 C 0 km/h
3069 27-03-2008 14:03:02 8.7 C 5.36 g/m*3 8.7 C 0 km/h
3070 27-03-2008 14:15:02 8.8 C 5.31 g/m*3 8.8 C 0 km/h
3071 27-03-2008 14:27:02 8.7 C 5.1 g/m*3 8.7 C 0 km/h
3072 27-03-2008 14:39:02 8.9 C 5.17 g/m*3 8.9 C 0 km/h
3073 27-03-2008 14:51:01 8.5 C 5.04 g/m*3 8.5 C 0 km/h
3074 27-03-2008 15:03:01 8.1 C 4.99 g/m*3 8.1 C 0 km/h
3075 27-03-2008 15:15:02 8.1 C 5.08 g/m*3 8.1 C 0 km/h
Sensor: Nr:Datum:Temp:Abs-Feuchte:Windchill:Wind:
Aussen-T/F 3076 27-03-2008 15:27:02 8.3 C 5.14 g/m*3 8.3 C 0 km/h
3077 27-03-2008 15:39:01 8.3 C 5.06 g/m*3 8.3 C 0 km/h
3078 27-03-2008 15:51:02 8.4 C 5.01 g/m*3 8.4 C 0 km/h
3079 27-03-2008 16:03:01 8.5 C 5.12 g/m*3 8.5 C 0 km/h
3080 27-03-2008 16:15:02 8.8 C 5.14 g/m*3 8.8 C 0 km/h
3081 27-03-2008 16:27:02 9.1 C 5.06 g/m*3 9.1 C 0 km/h
3082 27-03-2008 16:39:02 9.2 C 5 g/m*3 9.2 C 0 km/h
3083 27-03-2008 16:51:02 9 C 4.76 g/m*3 9 C 0 km/h
3084 27-03-2008 17:03:02 8.9 C 4.91 g/m*3 8.9 C 0 km/h
3085 27-03-2008 17:15:02 8.7 C 4.93 g/m*3 8.7 C 0 km/h
3086 27-03-2008 17:27:02 8.4 C 4.84 g/m*3 8.4 C 0 km/h
3087 27-03-2008 17:39:02 8.1 C 4.83 g/m*3 8.1 C 0 km/h
3088 27-03-2008 17:51:02 7.6 C 5.16 g/m*3 7.6 C 0 km/h
3089 27-03-2008 18:03:03 7.5 C 5.44 g/m*3 7.5 C 0 km/h
3090 27-03-2008 18:15:02 7.6 C 5.56 g/m*3 7.6 C 0 km/h
3091 27-03-2008 18:27:03 7.5 C 5.68 g/m*3 7.5 C 0 km/h
3092 27-03-2008 18:39:02 7.1 C 5.46 g/m*3 7.1 C 0 km/h
3093 27-03-2008 18:51:02 6.7 C 5.32 g/m*3 6.7 C 0 km/h
3094 27-03-2008 19:03:02 6.5 C 5.4 g/m*3 6.5 C 0 km/h
3095 27-03-2008 19:15:01 6.2 C 5.44 g/m*3 6.2 C 0 km/h
3096 27-03-2008 19:27:01 6 C 5.52 g/m*3 6 C 0 km/h
3097 27-03-2008 19:39:02 5.9 C 5.62 g/m*3 5.9 C 0 km/h
3098 27-03-2008 19:51:01 6 C 5.59 g/m*3 6 C 0 km/h
3099 27-03-2008 20:03:02 6 C 5.59 g/m*3 6 C 0 km/h
3100 27-03-2008 20:15:01 6 C 5.59 g/m*3 6 C 0 km/h
Sensor: Nr:Datum:Temp:Abs-Feuchte:Windchill:Wind:
Aussen-T/F 3101 27-03-2008 20:27:01 5.9 C 5.62 g/m*3 5.9 C 0 km/h
3102 27-03-2008 20:39:01 6 C 5.59 g/m*3 6 C 0 km/h
3103 27-03-2008 20:51:01 5.9 C 5.55 g/m*3 5.9 C 0 km/h
3104 27-03-2008 21:03:02 5.9 C 5.55 g/m*3 5.9 C 0 km/h
3105 27-03-2008 21:15:01 6 C 5.52 g/m*3 6 C 0 km/h
3106 27-03-2008 21:27:01 6 C 5.44 g/m*3 6 C 0 km/h
3107 27-03-2008 21:39:01 6 C 5.37 g/m*3 6 C 0 km/h
3108 27-03-2008 21:51:01 5.9 C 5.41 g/m*3 5.9 C 0 km/h
3109 27-03-2008 22:03:02 5.9 C 5.41 g/m*3 5.9 C 0 km/h
3110 27-03-2008 22:15:01 5.9 C 5.41 g/m*3 5.9 C 0 km/h
3111 27-03-2008 22:27:01 5.9 C 5.41 g/m*3 5.9 C 0 km/h
3112 27-03-2008 22:39:01 5.9 C 5.34 g/m*3 5.9 C 0 km/h
3113 27-03-2008 22:52:03 5.9 C 5.26 g/m*3 5.9 C 0 km/h
3114 27-03-2008 23:04:03 5.9 C 5.12 g/m*3 5.9 C 0 km/h
3115 27-03-2008 23:16:03 5.6 C 5.16 g/m*3 5.6 C 0 km/h
3116 27-03-2008 23:28:03 5.3 C 5.27 g/m*3 5.3 C 0 km/h
3117 27-03-2008 23:40:03 5.1 C 5.34 g/m*3 5.1 C 0 km/h
3118 27-03-2008 23:52:03 5.1 C 5.4 g/m*3 5.1 C 0 km/h
3119 28-03-2008 00:04:03 5 C 5.44 g/m*3 5 C 0 km/h
3120 28-03-2008 00:16:03 5.1 C 5.4 g/m*3 5.1 C 0 km/h
3121 28-03-2008 00:28:03 5.1 C 5.4 g/m*3 5.1 C 0 km/h
3122 28-03-2008 00:40:03 5.1 C 5.34 g/m*3 5.1 C 0 km/h
3123 28-03-2008 00:52:03 5.2 C 5.3 g/m*3 5.2 C 0 km/h
3124 28-03-2008 01:04:03 5.1 C 5.2 g/m*3 5.1 C 0 km/h
3125 28-03-2008 01:16:03 5.2 C 5.23 g/m*3 5.2 C 0 km/h
Sensor: Nr:Datum:Temp:Abs-Feuchte:Windchill:Wind:
Aussen-T/F 3126 28-03-2008 01:28:04 5.2 C 5.16 g/m*3 5.2 C 0 km/h
3127 28-03-2008 01:40:04 5.3 C 5.13 g/m*3 5.3 C 0 km/h
3128 28-03-2008 01:52:04 5.3 C 5.13 g/m*3 5.3 C 0 km/h
3129 28-03-2008 02:04:04 5.3 C 5.13 g/m*3 5.3 C 0 km/h
3130 28-03-2008 02:16:04 5.2 C 5.1 g/m*3 5.2 C 0 km/h
3131 28-03-2008 02:28:04 5.2 C 5.03 g/m*3 5.2 C 0 km/h
3132 28-03-2008 02:40:04 5.1 C 4.92 g/m*3 5.1 C 0 km/h
3133 28-03-2008 02:52:04 5.1 C 4.86 g/m*3 5.1 C 0 km/h
3134 28-03-2008 03:04:04 5.1 C 4.86 g/m*3 5.1 C 0 km/h
3135 28-03-2008 03:16:04 5 C 4.89 g/m*3 5 C 0 km/h
3136 28-03-2008 03:28:04 5 C 4.89 g/m*3 5 C 0 km/h
3137 28-03-2008 03:40:04 4.9 C 4.93 g/m*3 4.9 C 0 km/h
3138 28-03-2008 03:52:04 4.9 C 4.93 g/m*3 4.9 C 0 km/h
3139 28-03-2008 04:04:04 4.9 C 4.86 g/m*3 4.9 C 0 km/h
3140 28-03-2008 04:16:04 4.9 C 4.79 g/m*3 4.9 C 0 km/h
3141 28-03-2008 04:28:04 4.9 C 4.73 g/m*3 4.9 C 0 km/h
3142 28-03-2008 04:40:04 4.9 C 4.73 g/m*3 4.9 C 0 km/h
3143 28-03-2008 04:52:04 4.9 C 4.66 g/m*3 4.9 C 0 km/h
3144 28-03-2008 05:04:04 4.9 C 4.66 g/m*3 4.9 C 0 km/h
3145 28-03-2008 05:16:05 4.9 C 4.73 g/m*3 4.9 C 0 km/h
3146 28-03-2008 05:28:05 5 C 4.69 g/m*3 5 C 0 km/h
3147 28-03-2008 05:40:05 4.9 C 4.73 g/m*3 4.9 C 0 km/h
3148 28-03-2008 05:52:05 4.9 C 4.79 g/m*3 4.9 C 0 km/h
3149 28-03-2008 06:04:05 4.9 C 4.86 g/m*3 4.9 C 0 km/h
3150 28-03-2008 06:16:05 4.9 C 4.79 g/m*3 4.9 C 0 km/h
Sensor: Nr:Datum:Temp:Abs-Feuchte:Windchill:Wind:
Aussen-T/F 3151 28-03-2008 06:28:05 4.9 C 4.86 g/m*3 4.9 C 0 km/h
3152 28-03-2008 06:40:05 4.9 C 4.86 g/m*3 4.9 C 0 km/h
3153 28-03-2008 06:52:05 5 C 4.76 g/m*3 5 C 0 km/h
3154 28-03-2008 07:04:02 5 C 4.55 g/m*3 5 C 0 km/h
3155 28-03-2008 07:16:02 5 C 4.48 g/m*3 5 C 0 km/h
3156 28-03-2008 07:28:02 5.1 C 4.31 g/m*3 5.1 C 0 km/h
3157 28-03-2008 07:40:02 5.3 C 4.23 g/m*3 5.3 C 0 km/h
3158 28-03-2008 07:52:02 5.4 C 4.12 g/m*3 5.4 C 0 km/h
3159 28-03-2008 08:04:02 5.4 C 4.12 g/m*3 5.4 C 0 km/h
3160 28-03-2008 08:16:01 5.6 C 4.17 g/m*3 5.6 C 0 km/h
3161 28-03-2008 08:28:01 5.7 C 4.06 g/m*3 5.7 C 0 km/h
3162 28-03-2008 08:40:02 5.9 C 4.04 g/m*3 5.9 C 0 km/h
3163 28-03-2008 08:52:02 6 C 3.99 g/m*3 6 C 0 km/h
3164 28-03-2008 09:04:01 6.2 C 3.82 g/m*3 6.2 C 0 km/h
3165 28-03-2008 09:16:01 6.5 C 3.82 g/m*3 6.5 C 0 km/h
3166 28-03-2008 09:28:01 6.9 C 3.85 g/m*3 6.9 C 0 km/h
3167 28-03-2008 09:40:02 7 C 3.64 g/m*3 7 C 0 km/h
3168 28-03-2008 09:52:02 7.3 C 3.48 g/m*3 7.3 C 0 km/h
3169 28-03-2008 10:04:02 7.4 C 3.58 g/m*3 7.4 C 0 km/h
3170 28-03-2008 10:16:01 7.2 C 3.38 g/m*3 7.2 C 0 km/h
3171 28-03-2008 10:28:01 7.8 C 3.51 g/m*3 7.8 C 0 km/h
3172 28-03-2008 10:40:02 7.7 C 3.41 g/m*3 7.7 C 0 km/h
3173 28-03-2008 10:52:01 7.7 C 3.49 g/m*3 7.7 C 0 km/h
3174 28-03-2008 11:04:01 7.5 C 3.44 g/m*3 7.5 C 0 km/h
3175 28-03-2008 11:16:02 7.6 C 3.46 g/m*3 7.6 C 0 km/h
Sensor: Nr:Datum:Temp:Abs-Feuchte:Windchill:Wind:
Aussen-T/F 3176 28-03-2008 11:28:02 8.5 C 3.59 g/m*3 8.5 C 0 km/h
3177 28-03-2008 11:40:01 9.1 C 3.46 g/m*3 9.1 C 0 km/h
3178 28-03-2008 11:52:02 9.6 C 3.21 g/m*3 9.6 C 0 km/h
3179 28-03-2008 12:04:01 10.5 C 3.01 g/m*3 10.5 C 0 km/h
3180 28-03-2008 12:16:02 10.2 C 2.95 g/m*3 10.2 C 0 km/h
3181 28-03-2008 12:28:02 10.9 C 3.08 g/m*3 10.9 C 0 km/h
3182 28-03-2008 12:40:02 11.7 C 3.03 g/m*3 11.7 C 0 km/h
3183 28-03-2008 12:52:02 11.7 C 3.03 g/m*3 11.7 C 0 km/h
3184 28-03-2008 13:04:01 11.7 C 2.72 g/m*3 11.7 C 0 km/h
3185 28-03-2008 13:16:02 11.9 C 2.65 g/m*3 11.9 C 0 km/h
3186 28-03-2008 13:28:02 11.4 C 2.57 g/m*3 11.4 C 0 km/h
3187 28-03-2008 13:40:02 11.4 C 2.67 g/m*3 11.4 C 0 km/h
3188 28-03-2008 13:52:02 11.4 C 2.77 g/m*3 11.4 C 0 km/h
3189 28-03-2008 14:04:02 11.4 C 2.67 g/m*3 11.4 C 0 km/h
3190 28-03-2008 14:16:02 11.7 C 2.82 g/m*3 11.7 C 0 km/h
3191 28-03-2008 14:28:03 11.8 C 2.84 g/m*3 11.8 C 0 km/h
3192 28-03-2008 14:40:01 12.2 C 2.81 g/m*3 12.2 C 0 km/h
3193 28-03-2008 14:52:02 12.7 C 2.23 g/m*3 12.7 C 0 km/h
3194 28-03-2008 15:04:02 12.6 C 2.21 g/m*3 12.6 C 0 km/h
3195 28-03-2008 15:16:02 13.1 C 2.28 g/m*3 13.1 C 0 km/h
3196 28-03-2008 15:28:02 13.1 C 2.28 g/m*3 13.1 C 0 km/h
3197 28-03-2008 15:40:01 13.9 C 2.4 g/m*3 13.9 C 0 km/h
3198 28-03-2008 15:52:01 13 C 2.27 g/m*3 13 C 0 km/h
3199 28-03-2008 16:04:02 12.8 C 2.24 g/m*3 12.8 C 0 km/h
3200 28-03-2008 16:16:02 12.4 C 2.19 g/m*3 12.4 C 0 km/h
Sensor: Nr:Datum:Temp:Abs-Feuchte:Windchill:Wind:
Aussen-T/F 3201 28-03-2008 16:28:02 12.3 C 2.28 g/m*3 12.3 C 0 km/h
3202 28-03-2008 16:40:01 12.4 C 2.19 g/m*3 12.4 C 0 km/h
3203 28-03-2008 16:52:01 12.2 C 2.27 g/m*3 12.2 C 0 km/h
3204 28-03-2008 17:04:02 12 C 2.13 g/m*3 12 C 0 km/h
3205 28-03-2008 17:16:01 11.8 C 2.21 g/m*3 11.8 C 0 km/h
3206 28-03-2008 17:28:01 11.7 C 2.2 g/m*3 11.7 C 0 km/h
3207 28-03-2008 17:40:01 11.7 C 2.2 g/m*3 11.7 C 0 km/h
3208 28-03-2008 17:52:01 11.6 C 2.6 g/m*3 11.6 C 0 km/h
3209 28-03-2008 18:04:02 11.8 C 2.42 g/m*3 11.8 C 0 km/h
3210 28-03-2008 18:16:01 11.8 C 2.32 g/m*3 11.8 C 0 km/h
3211 28-03-2008 18:28:01 11.5 C 2.27 g/m*3 11.5 C 0 km/h
3212 28-03-2008 18:40:01 11.5 C 2.07 g/m*3 11.5 C 0 km/h
3213 28-03-2008 18:52:01 11.2 C 2.03 g/m*3 11.2 C 0 km/h
3214 28-03-2008 19:04:02 11 C 2.3 g/m*3 11 C 0 km/h
3215 28-03-2008 19:16:01 10.8 C 2.47 g/m*3 10.8 C 0 km/h
3216 28-03-2008 19:28:01 10.6 C 2.73 g/m*3 10.6 C 0 km/h
3217 28-03-2008 19:40:01 10.6 C 2.83 g/m*3 10.6 C 0 km/h
3218 28-03-2008 19:52:02 10.6 C 2.93 g/m*3 10.6 C 0 km/h
3219 28-03-2008 20:04:02 10.4 C 2.89 g/m*3 10.4 C 0 km/h
3220 28-03-2008 20:16:02 10.4 C 2.89 g/m*3 10.4 C 0 km/h
3221 28-03-2008 20:28:02 10.4 C 2.89 g/m*3 10.4 C 0 km/h
3222 28-03-2008 20:40:02 10.4 C 2.89 g/m*3 10.4 C 0 km/h
3223 28-03-2008 20:52:02 10.4 C 2.89 g/m*3 10.4 C 0 km/h
3224 28-03-2008 21:04:02 10.4 C 2.99 g/m*3 10.4 C 0 km/h
3225 28-03-2008 21:16:02 8.6 C 4.21 g/m*3 8.6 C 0 km/h
Sensor: Nr:Datum:Temp:Abs-Feuchte:Windchill:Wind:
Aussen-T/F 3226 28-03-2008 21:28:02 7.8 C 4.82 g/m*3 7.8 C 0 km/h
3227 28-03-2008 21:40:02 7.5 C 5.04 g/m*3 7.5 C 0 km/h
3228 28-03-2008 21:52:02 7.1 C 5.46 g/m*3 7.1 C 0 km/h
3229 28-03-2008 22:04:02 6.9 C 5.85 g/m*3 6.9 C 0 km/h
3230 28-03-2008 22:16:02 6.9 C 6.08 g/m*3 6.9 C 0 km/h
3231 28-03-2008 22:28:02 6.8 C 6.04 g/m*3 6.8 C 0 km/h
3232 28-03-2008 22:40:02 6.8 C 5.97 g/m*3 6.8 C 0 km/h
3233 28-03-2008 22:52:03 6.8 C 5.89 g/m*3 6.8 C 0 km/h
3234 28-03-2008 23:04:02 6.8 C 5.89 g/m*3 6.8 C 0 km/h
3235 28-03-2008 23:16:02 6.9 C 5.77 g/m*3 6.9 C 0 km/h
3236 28-03-2008 23:28:03 7.5 C 5.68 g/m*3 7.5 C 0 km/h
3237 28-03-2008 23:40:02 7.4 C 5.73 g/m*3 7.4 C 0 km/h
3238 28-03-2008 23:52:02 7.1 C 5.85 g/m*3 7.1 C 0 km/h
3239 29-03-2008 00:04:02 7.1 C 6.08 g/m*3 7.1 C 0 km/h
3240 29-03-2008 00:16:02 7.1 C 6.16 g/m*3 7.1 C 0 km/h
3241 29-03-2008 00:28:02 7.2 C 6.2 g/m*3 7.2 C 0 km/h
3242 29-03-2008 00:40:01 7.5 C 6.08 g/m*3 7.5 C 0 km/h
3243 29-03-2008 00:52:01 7.6 C